<?xml version="1.0" encoding="UTF-8" standalone="no" ?>
<gpx xmlns="http://www.topografix.com/GPX/1/1" xmlns:xsi="http://www.w3.org/2001/XMLSchema-instance" xsi:schemaLocation="http://www.topografix.com/GPX/1/1 http://www.topografix.com/GPX/1/1/gpx.xsd" version="1.1" creator="VisuGPX - https://www.visugpx.com">
  <metadata>
    <name>Les 3 bosses</name>
    <desc><![CDATA[Les 3 bosses___________________________]]></desc>
  </metadata>
  <trk>
    <name><![CDATA[20180107_090830.gpx]]></name>
    <trkseg>
      <trkpt lat="47.51824" lon="6.77509">
        <ele>446.736</ele>
        <time>2018-01-07T08:15:25Z</time>
      </trkpt>
      <trkpt lat="47.51787" lon="6.77524">
        <ele>456.506</ele>
        <time>2018-01-07T08:15:37Z</time>
      </trkpt>
      <trkpt lat="47.51805" lon="6.77489">
        <ele>446.276</ele>
        <time>2018-01-07T08:16:57Z</time>
      </trkpt>
      <trkpt lat="47.51775" lon="6.77483">
        <ele>441.645</ele>
        <time>2018-01-07T08:18:37Z</time>
      </trkpt>
      <trkpt lat="47.51753" lon="6.77483">
        <ele>437.197</ele>
        <time>2018-01-07T08:18:42Z</time>
      </trkpt>
      <trkpt lat="47.51733" lon="6.77494">
        <ele>436.366</ele>
        <time>2018-01-07T08:18:47Z</time>
      </trkpt>
      <trkpt lat="47.51722" lon="6.77523">
        <ele>437.177</ele>
        <time>2018-01-07T08:18:52Z</time>
      </trkpt>
      <trkpt lat="47.51715" lon="6.7755">
        <ele>432.087</ele>
        <time>2018-01-07T08:18:57Z</time>
      </trkpt>
      <trkpt lat="47.51694" lon="6.77544">
        <ele>428.646</ele>
        <time>2018-01-07T08:19:02Z</time>
      </trkpt>
      <trkpt lat="47.51668" lon="6.77507">
        <ele>428.614</ele>
        <time>2018-01-07T08:19:07Z</time>
      </trkpt>
      <trkpt lat="47.51639" lon="6.77473">
        <ele>431.073</ele>
        <time>2018-01-07T08:19:12Z</time>
      </trkpt>
      <trkpt lat="47.51608" lon="6.77436">
        <ele>432.009</ele>
        <time>2018-01-07T08:19:17Z</time>
      </trkpt>
      <trkpt lat="47.51574" lon="6.77396">
        <ele>436.913</ele>
        <time>2018-01-07T08:19:22Z</time>
      </trkpt>
      <trkpt lat="47.51542" lon="6.77358">
        <ele>443.833</ele>
        <time>2018-01-07T08:19:27Z</time>
      </trkpt>
      <trkpt lat="47.51503" lon="6.77318">
        <ele>443.471</ele>
        <time>2018-01-07T08:19:32Z</time>
      </trkpt>
      <trkpt lat="47.51479" lon="6.77256">
        <ele>439.639</ele>
        <time>2018-01-07T08:19:37Z</time>
      </trkpt>
      <trkpt lat="47.51474" lon="6.77198">
        <ele>436.876</ele>
        <time>2018-01-07T08:19:42Z</time>
      </trkpt>
      <trkpt lat="47.5144" lon="6.77194">
        <ele>434.81</ele>
        <time>2018-01-07T08:19:47Z</time>
      </trkpt>
      <trkpt lat="47.51413" lon="6.77223">
        <ele>428.066</ele>
        <time>2018-01-07T08:19:52Z</time>
      </trkpt>
      <trkpt lat="47.51386" lon="6.77243">
        <ele>423.322</ele>
        <time>2018-01-07T08:19:57Z</time>
      </trkpt>
      <trkpt lat="47.51372" lon="6.77255">
        <ele>422.743</ele>
        <time>2018-01-07T08:20:02Z</time>
      </trkpt>
      <trkpt lat="47.51357" lon="6.77266">
        <ele>421.422</ele>
        <time>2018-01-07T08:20:07Z</time>
      </trkpt>
      <trkpt lat="47.51345" lon="6.77276">
        <ele>421.304</ele>
        <time>2018-01-07T08:20:12Z</time>
      </trkpt>
      <trkpt lat="47.51341" lon="6.77279">
        <ele>421.273</ele>
        <time>2018-01-07T08:20:17Z</time>
      </trkpt>
      <trkpt lat="47.51289" lon="6.77266">
        <ele>419.078</ele>
        <time>2018-01-07T08:20:35Z</time>
      </trkpt>
      <trkpt lat="47.51275" lon="6.77257">
        <ele>419.029</ele>
        <time>2018-01-07T08:20:40Z</time>
      </trkpt>
      <trkpt lat="47.51252" lon="6.77233">
        <ele>421.807</ele>
        <time>2018-01-07T08:20:45Z</time>
      </trkpt>
      <trkpt lat="47.51234" lon="6.772">
        <ele>426.068</ele>
        <time>2018-01-07T08:20:50Z</time>
      </trkpt>
      <trkpt lat="47.51215" lon="6.77159">
        <ele>429.842</ele>
        <time>2018-01-07T08:20:55Z</time>
      </trkpt>
      <trkpt lat="47.51198" lon="6.77126">
        <ele>431.388</ele>
        <time>2018-01-07T08:21:01Z</time>
      </trkpt>
      <trkpt lat="47.51176" lon="6.77085">
        <ele>431.886</ele>
        <time>2018-01-07T08:21:06Z</time>
      </trkpt>
      <trkpt lat="47.51152" lon="6.77053">
        <ele>432.362</ele>
        <time>2018-01-07T08:21:11Z</time>
      </trkpt>
      <trkpt lat="47.51127" lon="6.77032">
        <ele>429.145</ele>
        <time>2018-01-07T08:21:16Z</time>
      </trkpt>
      <trkpt lat="47.51088" lon="6.77002">
        <ele>428.889</ele>
        <time>2018-01-07T08:21:24Z</time>
      </trkpt>
      <trkpt lat="47.51062" lon="6.76979">
        <ele>431.138</ele>
        <time>2018-01-07T08:21:29Z</time>
      </trkpt>
      <trkpt lat="47.51035" lon="6.76957">
        <ele>426.564</ele>
        <time>2018-01-07T08:21:34Z</time>
      </trkpt>
      <trkpt lat="47.51014" lon="6.76936">
        <ele>424.837</ele>
        <time>2018-01-07T08:21:39Z</time>
      </trkpt>
      <trkpt lat="47.50996" lon="6.76915">
        <ele>420.121</ele>
        <time>2018-01-07T08:21:44Z</time>
      </trkpt>
      <trkpt lat="47.50977" lon="6.76904">
        <ele>419.677</ele>
        <time>2018-01-07T08:21:49Z</time>
      </trkpt>
      <trkpt lat="47.50962" lon="6.7689">
        <ele>418.531</ele>
        <time>2018-01-07T08:21:54Z</time>
      </trkpt>
      <trkpt lat="47.50943" lon="6.76872">
        <ele>417.029</ele>
        <time>2018-01-07T08:21:59Z</time>
      </trkpt>
      <trkpt lat="47.50927" lon="6.7685">
        <ele>416.929</ele>
        <time>2018-01-07T08:22:04Z</time>
      </trkpt>
      <trkpt lat="47.50915" lon="6.76817">
        <ele>413.788</ele>
        <time>2018-01-07T08:22:09Z</time>
      </trkpt>
      <trkpt lat="47.50901" lon="6.76786">
        <ele>415.248</ele>
        <time>2018-01-07T08:22:14Z</time>
      </trkpt>
      <trkpt lat="47.5089" lon="6.76758">
        <ele>415.786</ele>
        <time>2018-01-07T08:22:19Z</time>
      </trkpt>
      <trkpt lat="47.5088" lon="6.7673">
        <ele>417.259</ele>
        <time>2018-01-07T08:22:24Z</time>
      </trkpt>
      <trkpt lat="47.50872" lon="6.76711">
        <ele>417.724</ele>
        <time>2018-01-07T08:22:29Z</time>
      </trkpt>
      <trkpt lat="47.50864" lon="6.7669">
        <ele>418.538</ele>
        <time>2018-01-07T08:22:34Z</time>
      </trkpt>
      <trkpt lat="47.50855" lon="6.76668">
        <ele>419.911</ele>
        <time>2018-01-07T08:22:39Z</time>
      </trkpt>
      <trkpt lat="47.50846" lon="6.76642">
        <ele>420.473</ele>
        <time>2018-01-07T08:22:44Z</time>
      </trkpt>
      <trkpt lat="47.50836" lon="6.7662">
        <ele>423.18</ele>
        <time>2018-01-07T08:22:49Z</time>
      </trkpt>
      <trkpt lat="47.50827" lon="6.766">
        <ele>423.998</ele>
        <time>2018-01-07T08:22:54Z</time>
      </trkpt>
      <trkpt lat="47.50816" lon="6.76595">
        <ele>424.982</ele>
        <time>2018-01-07T08:22:59Z</time>
      </trkpt>
      <trkpt lat="47.50806" lon="6.76597">
        <ele>424.245</ele>
        <time>2018-01-07T08:23:09Z</time>
      </trkpt>
      <trkpt lat="47.50758" lon="6.7659">
        <ele>428.464</ele>
        <time>2018-01-07T08:23:45Z</time>
      </trkpt>
      <trkpt lat="47.50744" lon="6.7659">
        <ele>429.048</ele>
        <time>2018-01-07T08:23:50Z</time>
      </trkpt>
      <trkpt lat="47.50725" lon="6.76587">
        <ele>431.006</ele>
        <time>2018-01-07T08:23:55Z</time>
      </trkpt>
      <trkpt lat="47.50705" lon="6.76585">
        <ele>432.285</ele>
        <time>2018-01-07T08:24:00Z</time>
      </trkpt>
      <trkpt lat="47.5069" lon="6.76587">
        <ele>433.74</ele>
        <time>2018-01-07T08:24:05Z</time>
      </trkpt>
      <trkpt lat="47.50677" lon="6.76591">
        <ele>434.24</ele>
        <time>2018-01-07T08:24:10Z</time>
      </trkpt>
      <trkpt lat="47.50662" lon="6.76599">
        <ele>434.473</ele>
        <time>2018-01-07T08:24:15Z</time>
      </trkpt>
      <trkpt lat="47.50649" lon="6.76606">
        <ele>434.631</ele>
        <time>2018-01-07T08:24:20Z</time>
      </trkpt>
      <trkpt lat="47.50632" lon="6.76613">
        <ele>434.405</ele>
        <time>2018-01-07T08:24:25Z</time>
      </trkpt>
      <trkpt lat="47.50617" lon="6.76621">
        <ele>434.374</ele>
        <time>2018-01-07T08:24:30Z</time>
      </trkpt>
      <trkpt lat="47.50603" lon="6.76626">
        <ele>434.885</ele>
        <time>2018-01-07T08:24:35Z</time>
      </trkpt>
      <trkpt lat="47.50591" lon="6.76631">
        <ele>435.456</ele>
        <time>2018-01-07T08:24:40Z</time>
      </trkpt>
      <trkpt lat="47.50579" lon="6.76636">
        <ele>436.332</ele>
        <time>2018-01-07T08:24:45Z</time>
      </trkpt>
      <trkpt lat="47.50566" lon="6.76639">
        <ele>437.122</ele>
        <time>2018-01-07T08:24:50Z</time>
      </trkpt>
      <trkpt lat="47.50551" lon="6.76642">
        <ele>439.506</ele>
        <time>2018-01-07T08:24:55Z</time>
      </trkpt>
      <trkpt lat="47.50527" lon="6.76648">
        <ele>442.924</ele>
        <time>2018-01-07T08:25:00Z</time>
      </trkpt>
      <trkpt lat="47.50507" lon="6.76653">
        <ele>446.305</ele>
        <time>2018-01-07T08:25:05Z</time>
      </trkpt>
      <trkpt lat="47.50484" lon="6.76664">
        <ele>447.236</ele>
        <time>2018-01-07T08:25:10Z</time>
      </trkpt>
      <trkpt lat="47.50459" lon="6.76676">
        <ele>444.78</ele>
        <time>2018-01-07T08:25:15Z</time>
      </trkpt>
      <trkpt lat="47.50435" lon="6.76682">
        <ele>447.456</ele>
        <time>2018-01-07T08:25:20Z</time>
      </trkpt>
      <trkpt lat="47.50406" lon="6.76693">
        <ele>447.604</ele>
        <time>2018-01-07T08:25:30Z</time>
      </trkpt>
      <trkpt lat="47.50384" lon="6.76703">
        <ele>450.095</ele>
        <time>2018-01-07T08:25:35Z</time>
      </trkpt>
      <trkpt lat="47.50364" lon="6.76711">
        <ele>450.834</ele>
        <time>2018-01-07T08:25:40Z</time>
      </trkpt>
      <trkpt lat="47.50347" lon="6.7672">
        <ele>450.188</ele>
        <time>2018-01-07T08:25:45Z</time>
      </trkpt>
      <trkpt lat="47.50328" lon="6.76726">
        <ele>448.472</ele>
        <time>2018-01-07T08:25:50Z</time>
      </trkpt>
      <trkpt lat="47.50306" lon="6.76734">
        <ele>444.56</ele>
        <time>2018-01-07T08:25:55Z</time>
      </trkpt>
      <trkpt lat="47.50292" lon="6.76738">
        <ele>442.603</ele>
        <time>2018-01-07T08:26:00Z</time>
      </trkpt>
      <trkpt lat="47.50277" lon="6.76744">
        <ele>442.187</ele>
        <time>2018-01-07T08:26:05Z</time>
      </trkpt>
      <trkpt lat="47.50261" lon="6.76749">
        <ele>441.384</ele>
        <time>2018-01-07T08:26:10Z</time>
      </trkpt>
      <trkpt lat="47.50248" lon="6.76734">
        <ele>438.182</ele>
        <time>2018-01-07T08:26:15Z</time>
      </trkpt>
      <trkpt lat="47.50235" lon="6.76709">
        <ele>435.096</ele>
        <time>2018-01-07T08:26:20Z</time>
      </trkpt>
      <trkpt lat="47.50224" lon="6.7669">
        <ele>435.364</ele>
        <time>2018-01-07T08:26:26Z</time>
      </trkpt>
      <trkpt lat="47.50216" lon="6.76667">
        <ele>436.255</ele>
        <time>2018-01-07T08:26:32Z</time>
      </trkpt>
      <trkpt lat="47.50211" lon="6.7665">
        <ele>436.331</ele>
        <time>2018-01-07T08:26:38Z</time>
      </trkpt>
      <trkpt lat="47.50201" lon="6.76623">
        <ele>437.022</ele>
        <time>2018-01-07T08:26:44Z</time>
      </trkpt>
      <trkpt lat="47.50192" lon="6.76602">
        <ele>438.011</ele>
        <time>2018-01-07T08:26:49Z</time>
      </trkpt>
      <trkpt lat="47.50182" lon="6.76538">
        <ele>439.279</ele>
        <time>2018-01-07T08:27:02Z</time>
      </trkpt>
      <trkpt lat="47.50216" lon="6.76507">
        <ele>436.086</ele>
        <time>2018-01-07T08:27:14Z</time>
      </trkpt>
      <trkpt lat="47.50209" lon="6.76489">
        <ele>433.996</ele>
        <time>2018-01-07T08:27:19Z</time>
      </trkpt>
      <trkpt lat="47.5015" lon="6.76351">
        <ele>410.451</ele>
        <time>2018-01-07T08:27:40Z</time>
      </trkpt>
      <trkpt lat="47.50125" lon="6.76259">
        <ele>424.794</ele>
        <time>2018-01-07T08:27:50Z</time>
      </trkpt>
      <trkpt lat="47.5002" lon="6.75873">
        <ele>389.364</ele>
        <time>2018-01-07T08:28:21Z</time>
      </trkpt>
      <trkpt lat="47.4999" lon="6.75823">
        <ele>402.26</ele>
        <time>2018-01-07T08:28:27Z</time>
      </trkpt>
      <trkpt lat="47.49941" lon="6.7576">
        <ele>403.989</ele>
        <time>2018-01-07T08:28:36Z</time>
      </trkpt>
      <trkpt lat="47.49923" lon="6.75731">
        <ele>402.142</ele>
        <time>2018-01-07T08:28:41Z</time>
      </trkpt>
      <trkpt lat="47.49899" lon="6.75717">
        <ele>396.586</ele>
        <time>2018-01-07T08:28:46Z</time>
      </trkpt>
      <trkpt lat="47.49867" lon="6.75715">
        <ele>391.165</ele>
        <time>2018-01-07T08:28:51Z</time>
      </trkpt>
      <trkpt lat="47.49823" lon="6.75734">
        <ele>385.618</ele>
        <time>2018-01-07T08:28:56Z</time>
      </trkpt>
      <trkpt lat="47.49775" lon="6.75754">
        <ele>380.665</ele>
        <time>2018-01-07T08:29:01Z</time>
      </trkpt>
      <trkpt lat="47.49735" lon="6.75776">
        <ele>381.058</ele>
        <time>2018-01-07T08:29:06Z</time>
      </trkpt>
      <trkpt lat="47.49699" lon="6.75785">
        <ele>378.443</ele>
        <time>2018-01-07T08:29:11Z</time>
      </trkpt>
      <trkpt lat="47.49656" lon="6.75788">
        <ele>382.629</ele>
        <time>2018-01-07T08:29:16Z</time>
      </trkpt>
      <trkpt lat="47.49625" lon="6.75785">
        <ele>382.718</ele>
        <time>2018-01-07T08:29:21Z</time>
      </trkpt>
      <trkpt lat="47.49596" lon="6.7571">
        <ele>376.137</ele>
        <time>2018-01-07T08:30:16Z</time>
      </trkpt>
      <trkpt lat="47.4959" lon="6.75686">
        <ele>375.015</ele>
        <time>2018-01-07T08:30:21Z</time>
      </trkpt>
      <trkpt lat="47.49574" lon="6.7567">
        <ele>373.401</ele>
        <time>2018-01-07T08:30:26Z</time>
      </trkpt>
      <trkpt lat="47.49553" lon="6.75692">
        <ele>367.547</ele>
        <time>2018-01-07T08:30:33Z</time>
      </trkpt>
      <trkpt lat="47.49538" lon="6.75718">
        <ele>363.536</ele>
        <time>2018-01-07T08:30:38Z</time>
      </trkpt>
      <trkpt lat="47.49519" lon="6.75733">
        <ele>362.826</ele>
        <time>2018-01-07T08:30:44Z</time>
      </trkpt>
      <trkpt lat="47.49491" lon="6.75741">
        <ele>362.989</ele>
        <time>2018-01-07T08:30:49Z</time>
      </trkpt>
      <trkpt lat="47.49475" lon="6.75713">
        <ele>362.083</ele>
        <time>2018-01-07T08:30:54Z</time>
      </trkpt>
      <trkpt lat="47.49456" lon="6.75693">
        <ele>364.838</ele>
        <time>2018-01-07T08:30:59Z</time>
      </trkpt>
      <trkpt lat="47.49433" lon="6.75683">
        <ele>364.131</ele>
        <time>2018-01-07T08:31:07Z</time>
      </trkpt>
      <trkpt lat="47.49418" lon="6.75677">
        <ele>361.942</ele>
        <time>2018-01-07T08:31:12Z</time>
      </trkpt>
      <trkpt lat="47.49397" lon="6.75694">
        <ele>357.501</ele>
        <time>2018-01-07T08:31:17Z</time>
      </trkpt>
      <trkpt lat="47.49378" lon="6.75713">
        <ele>360.896</ele>
        <time>2018-01-07T08:31:22Z</time>
      </trkpt>
      <trkpt lat="47.49367" lon="6.75722">
        <ele>361.325</ele>
        <time>2018-01-07T08:31:27Z</time>
      </trkpt>
      <trkpt lat="47.49347" lon="6.7573">
        <ele>360.962</ele>
        <time>2018-01-07T08:31:32Z</time>
      </trkpt>
      <trkpt lat="47.4932" lon="6.7575">
        <ele>356.11</ele>
        <time>2018-01-07T08:31:37Z</time>
      </trkpt>
      <trkpt lat="47.49297" lon="6.75773">
        <ele>353.675</ele>
        <time>2018-01-07T08:31:42Z</time>
      </trkpt>
      <trkpt lat="47.49276" lon="6.75805">
        <ele>357.78</ele>
        <time>2018-01-07T08:31:47Z</time>
      </trkpt>
      <trkpt lat="47.49258" lon="6.75833">
        <ele>361.476</ele>
        <time>2018-01-07T08:31:52Z</time>
      </trkpt>
      <trkpt lat="47.49247" lon="6.75856">
        <ele>361.695</ele>
        <time>2018-01-07T08:31:57Z</time>
      </trkpt>
      <trkpt lat="47.49236" lon="6.75888">
        <ele>357.746</ele>
        <time>2018-01-07T08:32:02Z</time>
      </trkpt>
      <trkpt lat="47.4922" lon="6.7592">
        <ele>353.328</ele>
        <time>2018-01-07T08:32:07Z</time>
      </trkpt>
      <trkpt lat="47.49202" lon="6.75955">
        <ele>350.372</ele>
        <time>2018-01-07T08:32:12Z</time>
      </trkpt>
      <trkpt lat="47.49183" lon="6.75985">
        <ele>348.814</ele>
        <time>2018-01-07T08:32:17Z</time>
      </trkpt>
      <trkpt lat="47.49172" lon="6.7601">
        <ele>351.806</ele>
        <time>2018-01-07T08:32:22Z</time>
      </trkpt>
      <trkpt lat="47.49162" lon="6.76041">
        <ele>358.708</ele>
        <time>2018-01-07T08:32:27Z</time>
      </trkpt>
      <trkpt lat="47.49154" lon="6.76073">
        <ele>364.083</ele>
        <time>2018-01-07T08:32:32Z</time>
      </trkpt>
      <trkpt lat="47.49144" lon="6.76105">
        <ele>363.701</ele>
        <time>2018-01-07T08:32:37Z</time>
      </trkpt>
      <trkpt lat="47.49136" lon="6.76134">
        <ele>360.132</ele>
        <time>2018-01-07T08:32:42Z</time>
      </trkpt>
      <trkpt lat="47.49131" lon="6.76171">
        <ele>360.57</ele>
        <time>2018-01-07T08:32:47Z</time>
      </trkpt>
      <trkpt lat="47.49131" lon="6.76202">
        <ele>359.777</ele>
        <time>2018-01-07T08:32:52Z</time>
      </trkpt>
      <trkpt lat="47.49131" lon="6.76236">
        <ele>368.791</ele>
        <time>2018-01-07T08:32:57Z</time>
      </trkpt>
      <trkpt lat="47.49131" lon="6.76276">
        <ele>365.888</ele>
        <time>2018-01-07T08:33:02Z</time>
      </trkpt>
      <trkpt lat="47.49134" lon="6.76319">
        <ele>360.204</ele>
        <time>2018-01-07T08:33:07Z</time>
      </trkpt>
      <trkpt lat="47.49138" lon="6.76356">
        <ele>358.18</ele>
        <time>2018-01-07T08:33:12Z</time>
      </trkpt>
      <trkpt lat="47.49134" lon="6.76388">
        <ele>356.509</ele>
        <time>2018-01-07T08:33:17Z</time>
      </trkpt>
      <trkpt lat="47.49132" lon="6.76425">
        <ele>357.542</ele>
        <time>2018-01-07T08:33:22Z</time>
      </trkpt>
      <trkpt lat="47.4913" lon="6.7646">
        <ele>357.608</ele>
        <time>2018-01-07T08:33:27Z</time>
      </trkpt>
      <trkpt lat="47.49128" lon="6.76495">
        <ele>356.265</ele>
        <time>2018-01-07T08:33:32Z</time>
      </trkpt>
      <trkpt lat="47.49144" lon="6.76519">
        <ele>360.373</ele>
        <time>2018-01-07T08:33:37Z</time>
      </trkpt>
      <trkpt lat="47.49158" lon="6.76512">
        <ele>360.646</ele>
        <time>2018-01-07T08:33:42Z</time>
      </trkpt>
      <trkpt lat="47.49167" lon="6.76502">
        <ele>359.349</ele>
        <time>2018-01-07T08:33:52Z</time>
      </trkpt>
      <trkpt lat="47.49165" lon="6.76513">
        <ele>349.255</ele>
        <time>2018-01-07T08:36:49Z</time>
      </trkpt>
      <trkpt lat="47.49136" lon="6.76527">
        <ele>344.061</ele>
        <time>2018-01-07T08:36:54Z</time>
      </trkpt>
      <trkpt lat="47.49125" lon="6.76548">
        <ele>341.684</ele>
        <time>2018-01-07T08:36:59Z</time>
      </trkpt>
      <trkpt lat="47.4913" lon="6.76577">
        <ele>347.922</ele>
        <time>2018-01-07T08:37:04Z</time>
      </trkpt>
      <trkpt lat="47.4913" lon="6.76607">
        <ele>346.399</ele>
        <time>2018-01-07T08:37:09Z</time>
      </trkpt>
      <trkpt lat="47.49134" lon="6.76644">
        <ele>349.977</ele>
        <time>2018-01-07T08:37:15Z</time>
      </trkpt>
      <trkpt lat="47.49141" lon="6.76677">
        <ele>353.581</ele>
        <time>2018-01-07T08:37:20Z</time>
      </trkpt>
      <trkpt lat="47.49148" lon="6.76738">
        <ele>358.863</ele>
        <time>2018-01-07T08:37:28Z</time>
      </trkpt>
      <trkpt lat="47.4915" lon="6.76768">
        <ele>362.739</ele>
        <time>2018-01-07T08:37:33Z</time>
      </trkpt>
      <trkpt lat="47.49154" lon="6.76806">
        <ele>364.972</ele>
        <time>2018-01-07T08:37:38Z</time>
      </trkpt>
      <trkpt lat="47.49155" lon="6.76839">
        <ele>362.973</ele>
        <time>2018-01-07T08:37:43Z</time>
      </trkpt>
      <trkpt lat="47.49152" lon="6.76871">
        <ele>360.974</ele>
        <time>2018-01-07T08:37:48Z</time>
      </trkpt>
      <trkpt lat="47.4915" lon="6.76901">
        <ele>360.18</ele>
        <time>2018-01-07T08:37:53Z</time>
      </trkpt>
      <trkpt lat="47.49153" lon="6.76936">
        <ele>359.839</ele>
        <time>2018-01-07T08:37:58Z</time>
      </trkpt>
      <trkpt lat="47.49156" lon="6.76979">
        <ele>357.996</ele>
        <time>2018-01-07T08:38:04Z</time>
      </trkpt>
      <trkpt lat="47.49174" lon="6.77012">
        <ele>360.27</ele>
        <time>2018-01-07T08:38:10Z</time>
      </trkpt>
      <trkpt lat="47.49179" lon="6.77051">
        <ele>361.852</ele>
        <time>2018-01-07T08:38:15Z</time>
      </trkpt>
      <trkpt lat="47.49182" lon="6.77091">
        <ele>363.035</ele>
        <time>2018-01-07T08:38:20Z</time>
      </trkpt>
      <trkpt lat="47.49189" lon="6.77128">
        <ele>361.995</ele>
        <time>2018-01-07T08:38:25Z</time>
      </trkpt>
      <trkpt lat="47.49189" lon="6.77156">
        <ele>361.821</ele>
        <time>2018-01-07T08:38:30Z</time>
      </trkpt>
      <trkpt lat="47.4919" lon="6.77187">
        <ele>362.813</ele>
        <time>2018-01-07T08:38:35Z</time>
      </trkpt>
      <trkpt lat="47.4919" lon="6.77223">
        <ele>361.292</ele>
        <time>2018-01-07T08:38:40Z</time>
      </trkpt>
      <trkpt lat="47.49192" lon="6.77251">
        <ele>361.212</ele>
        <time>2018-01-07T08:38:45Z</time>
      </trkpt>
      <trkpt lat="47.4919" lon="6.7728">
        <ele>361.765</ele>
        <time>2018-01-07T08:38:50Z</time>
      </trkpt>
      <trkpt lat="47.49183" lon="6.77316">
        <ele>361.251</ele>
        <time>2018-01-07T08:38:55Z</time>
      </trkpt>
      <trkpt lat="47.4917" lon="6.77326">
        <ele>360.482</ele>
        <time>2018-01-07T08:39:00Z</time>
      </trkpt>
      <trkpt lat="47.49149" lon="6.77326">
        <ele>359.482</ele>
        <time>2018-01-07T08:39:05Z</time>
      </trkpt>
      <trkpt lat="47.49124" lon="6.77326">
        <ele>360.77</ele>
        <time>2018-01-07T08:39:10Z</time>
      </trkpt>
      <trkpt lat="47.49095" lon="6.77328">
        <ele>362.379</ele>
        <time>2018-01-07T08:39:15Z</time>
      </trkpt>
      <trkpt lat="47.49064" lon="6.77326">
        <ele>364.922</ele>
        <time>2018-01-07T08:39:20Z</time>
      </trkpt>
      <trkpt lat="47.49037" lon="6.77325">
        <ele>365.391</ele>
        <time>2018-01-07T08:39:25Z</time>
      </trkpt>
      <trkpt lat="47.49014" lon="6.77322">
        <ele>361.441</ele>
        <time>2018-01-07T08:39:30Z</time>
      </trkpt>
      <trkpt lat="47.48991" lon="6.77319">
        <ele>359.164</ele>
        <time>2018-01-07T08:39:35Z</time>
      </trkpt>
      <trkpt lat="47.48965" lon="6.77316">
        <ele>358.231</ele>
        <time>2018-01-07T08:39:40Z</time>
      </trkpt>
      <trkpt lat="47.4893" lon="6.77305">
        <ele>360.724</ele>
        <time>2018-01-07T08:39:45Z</time>
      </trkpt>
      <trkpt lat="47.48901" lon="6.77296">
        <ele>363.34</ele>
        <time>2018-01-07T08:39:50Z</time>
      </trkpt>
      <trkpt lat="47.48874" lon="6.77288">
        <ele>362.577</ele>
        <time>2018-01-07T08:39:55Z</time>
      </trkpt>
      <trkpt lat="47.48849" lon="6.77276">
        <ele>364.215</ele>
        <time>2018-01-07T08:40:00Z</time>
      </trkpt>
      <trkpt lat="47.48826" lon="6.77263">
        <ele>365.28</ele>
        <time>2018-01-07T08:40:05Z</time>
      </trkpt>
      <trkpt lat="47.48806" lon="6.77246">
        <ele>363.689</ele>
        <time>2018-01-07T08:40:10Z</time>
      </trkpt>
      <trkpt lat="47.48785" lon="6.77223">
        <ele>359.296</ele>
        <time>2018-01-07T08:40:15Z</time>
      </trkpt>
      <trkpt lat="47.48761" lon="6.77202">
        <ele>356.814</ele>
        <time>2018-01-07T08:40:20Z</time>
      </trkpt>
      <trkpt lat="47.48734" lon="6.77183">
        <ele>353.028</ele>
        <time>2018-01-07T08:40:25Z</time>
      </trkpt>
      <trkpt lat="47.48709" lon="6.77168">
        <ele>355.024</ele>
        <time>2018-01-07T08:40:30Z</time>
      </trkpt>
      <trkpt lat="47.48688" lon="6.77145">
        <ele>357.572</ele>
        <time>2018-01-07T08:40:35Z</time>
      </trkpt>
      <trkpt lat="47.48664" lon="6.77121">
        <ele>362.748</ele>
        <time>2018-01-07T08:40:40Z</time>
      </trkpt>
      <trkpt lat="47.48644" lon="6.77104">
        <ele>365.463</ele>
        <time>2018-01-07T08:40:45Z</time>
      </trkpt>
      <trkpt lat="47.48624" lon="6.77087">
        <ele>366.127</ele>
        <time>2018-01-07T08:40:50Z</time>
      </trkpt>
      <trkpt lat="47.48598" lon="6.77064">
        <ele>365.363</ele>
        <time>2018-01-07T08:40:55Z</time>
      </trkpt>
      <trkpt lat="47.48574" lon="6.77053">
        <ele>365.834</ele>
        <time>2018-01-07T08:41:00Z</time>
      </trkpt>
      <trkpt lat="47.48542" lon="6.77039">
        <ele>368.183</ele>
        <time>2018-01-07T08:41:07Z</time>
      </trkpt>
      <trkpt lat="47.4852" lon="6.7702">
        <ele>364.279</ele>
        <time>2018-01-07T08:41:12Z</time>
      </trkpt>
      <trkpt lat="47.48497" lon="6.77007">
        <ele>362.385</ele>
        <time>2018-01-07T08:41:17Z</time>
      </trkpt>
      <trkpt lat="47.48467" lon="6.76985">
        <ele>355.775</ele>
        <time>2018-01-07T08:41:22Z</time>
      </trkpt>
      <trkpt lat="47.48441" lon="6.76964">
        <ele>356.348</ele>
        <time>2018-01-07T08:41:27Z</time>
      </trkpt>
      <trkpt lat="47.48415" lon="6.76951">
        <ele>361.071</ele>
        <time>2018-01-07T08:41:32Z</time>
      </trkpt>
      <trkpt lat="47.48389" lon="6.76939">
        <ele>367.174</ele>
        <time>2018-01-07T08:41:37Z</time>
      </trkpt>
      <trkpt lat="47.48362" lon="6.76921">
        <ele>376.25</ele>
        <time>2018-01-07T08:41:42Z</time>
      </trkpt>
      <trkpt lat="47.48334" lon="6.76905">
        <ele>384.036</ele>
        <time>2018-01-07T08:41:47Z</time>
      </trkpt>
      <trkpt lat="47.48312" lon="6.76889">
        <ele>385.548</ele>
        <time>2018-01-07T08:41:52Z</time>
      </trkpt>
      <trkpt lat="47.48291" lon="6.76865">
        <ele>382.327</ele>
        <time>2018-01-07T08:41:57Z</time>
      </trkpt>
      <trkpt lat="47.4827" lon="6.7683">
        <ele>379.248</ele>
        <time>2018-01-07T08:42:02Z</time>
      </trkpt>
      <trkpt lat="47.48246" lon="6.76803">
        <ele>378.439</ele>
        <time>2018-01-07T08:42:07Z</time>
      </trkpt>
      <trkpt lat="47.4822" lon="6.76792">
        <ele>377.108</ele>
        <time>2018-01-07T08:42:12Z</time>
      </trkpt>
      <trkpt lat="47.48193" lon="6.76781">
        <ele>381.714</ele>
        <time>2018-01-07T08:42:17Z</time>
      </trkpt>
      <trkpt lat="47.48172" lon="6.76751">
        <ele>378.931</ele>
        <time>2018-01-07T08:42:22Z</time>
      </trkpt>
      <trkpt lat="47.48149" lon="6.76719">
        <ele>375.255</ele>
        <time>2018-01-07T08:42:27Z</time>
      </trkpt>
      <trkpt lat="47.48135" lon="6.76689">
        <ele>377.351</ele>
        <time>2018-01-07T08:42:32Z</time>
      </trkpt>
      <trkpt lat="47.48114" lon="6.76663">
        <ele>374.062</ele>
        <time>2018-01-07T08:42:37Z</time>
      </trkpt>
      <trkpt lat="47.48101" lon="6.76634">
        <ele>375.654</ele>
        <time>2018-01-07T08:42:42Z</time>
      </trkpt>
      <trkpt lat="47.48101" lon="6.76599">
        <ele>368.451</ele>
        <time>2018-01-07T08:42:47Z</time>
      </trkpt>
      <trkpt lat="47.48117" lon="6.76568">
        <ele>363.76</ele>
        <time>2018-01-07T08:42:52Z</time>
      </trkpt>
      <trkpt lat="47.4813" lon="6.76541">
        <ele>360.521</ele>
        <time>2018-01-07T08:42:57Z</time>
      </trkpt>
      <trkpt lat="47.4812" lon="6.76519">
        <ele>359.525</ele>
        <time>2018-01-07T08:43:02Z</time>
      </trkpt>
      <trkpt lat="47.48104" lon="6.76511">
        <ele>358.795</ele>
        <time>2018-01-07T08:43:07Z</time>
      </trkpt>
      <trkpt lat="47.48087" lon="6.76535">
        <ele>358.76</ele>
        <time>2018-01-07T08:43:12Z</time>
      </trkpt>
      <trkpt lat="47.48071" lon="6.76553">
        <ele>357.154</ele>
        <time>2018-01-07T08:43:17Z</time>
      </trkpt>
      <trkpt lat="47.48052" lon="6.76571">
        <ele>356.398</ele>
        <time>2018-01-07T08:43:22Z</time>
      </trkpt>
      <trkpt lat="47.48032" lon="6.76585">
        <ele>354.213</ele>
        <time>2018-01-07T08:43:27Z</time>
      </trkpt>
      <trkpt lat="47.48013" lon="6.76598">
        <ele>354.075</ele>
        <time>2018-01-07T08:43:33Z</time>
      </trkpt>
      <trkpt lat="47.47996" lon="6.76608">
        <ele>354.483</ele>
        <time>2018-01-07T08:43:38Z</time>
      </trkpt>
      <trkpt lat="47.47979" lon="6.76613">
        <ele>355.774</ele>
        <time>2018-01-07T08:43:43Z</time>
      </trkpt>
      <trkpt lat="47.4796" lon="6.7662">
        <ele>357.41</ele>
        <time>2018-01-07T08:43:48Z</time>
      </trkpt>
      <trkpt lat="47.47949" lon="6.76591">
        <ele>364.009</ele>
        <time>2018-01-07T08:43:53Z</time>
      </trkpt>
      <trkpt lat="47.4794" lon="6.76547">
        <ele>366.648</ele>
        <time>2018-01-07T08:43:58Z</time>
      </trkpt>
      <trkpt lat="47.47928" lon="6.7649">
        <ele>366.825</ele>
        <time>2018-01-07T08:44:04Z</time>
      </trkpt>
      <trkpt lat="47.47917" lon="6.76451">
        <ele>365.827</ele>
        <time>2018-01-07T08:44:09Z</time>
      </trkpt>
      <trkpt lat="47.47905" lon="6.76411">
        <ele>363.66</ele>
        <time>2018-01-07T08:44:14Z</time>
      </trkpt>
      <trkpt lat="47.47891" lon="6.76376">
        <ele>361.525</ele>
        <time>2018-01-07T08:44:19Z</time>
      </trkpt>
      <trkpt lat="47.47876" lon="6.76347">
        <ele>364.36</ele>
        <time>2018-01-07T08:44:24Z</time>
      </trkpt>
      <trkpt lat="47.4786" lon="6.76317">
        <ele>363.551</ele>
        <time>2018-01-07T08:44:29Z</time>
      </trkpt>
      <trkpt lat="47.47842" lon="6.7629">
        <ele>363.579</ele>
        <time>2018-01-07T08:44:34Z</time>
      </trkpt>
      <trkpt lat="47.47822" lon="6.76276">
        <ele>359.167</ele>
        <time>2018-01-07T08:44:39Z</time>
      </trkpt>
      <trkpt lat="47.47807" lon="6.76272">
        <ele>360.712</ele>
        <time>2018-01-07T08:44:44Z</time>
      </trkpt>
      <trkpt lat="47.47792" lon="6.76258">
        <ele>368.623</ele>
        <time>2018-01-07T08:44:49Z</time>
      </trkpt>
      <trkpt lat="47.4777" lon="6.7622">
        <ele>374.597</ele>
        <time>2018-01-07T08:44:54Z</time>
      </trkpt>
      <trkpt lat="47.47749" lon="6.76188">
        <ele>382.397</ele>
        <time>2018-01-07T08:44:59Z</time>
      </trkpt>
      <trkpt lat="47.4773" lon="6.76159">
        <ele>381.596</ele>
        <time>2018-01-07T08:45:04Z</time>
      </trkpt>
      <trkpt lat="47.47714" lon="6.76131">
        <ele>384.811</ele>
        <time>2018-01-07T08:45:09Z</time>
      </trkpt>
      <trkpt lat="47.47696" lon="6.76102">
        <ele>385.958</ele>
        <time>2018-01-07T08:45:14Z</time>
      </trkpt>
      <trkpt lat="47.47677" lon="6.76076">
        <ele>381.652</ele>
        <time>2018-01-07T08:45:19Z</time>
      </trkpt>
      <trkpt lat="47.47662" lon="6.76045">
        <ele>375.15</ele>
        <time>2018-01-07T08:45:24Z</time>
      </trkpt>
      <trkpt lat="47.47662" lon="6.76009">
        <ele>368.934</ele>
        <time>2018-01-07T08:45:29Z</time>
      </trkpt>
      <trkpt lat="47.47676" lon="6.75974">
        <ele>367.878</ele>
        <time>2018-01-07T08:45:34Z</time>
      </trkpt>
      <trkpt lat="47.47692" lon="6.75944">
        <ele>370.582</ele>
        <time>2018-01-07T08:45:39Z</time>
      </trkpt>
      <trkpt lat="47.47697" lon="6.75904">
        <ele>367.96</ele>
        <time>2018-01-07T08:45:44Z</time>
      </trkpt>
      <trkpt lat="47.47698" lon="6.75854">
        <ele>365.25</ele>
        <time>2018-01-07T08:45:49Z</time>
      </trkpt>
      <trkpt lat="47.47696" lon="6.75801">
        <ele>369.648</ele>
        <time>2018-01-07T08:45:56Z</time>
      </trkpt>
      <trkpt lat="47.47699" lon="6.75755">
        <ele>365.794</ele>
        <time>2018-01-07T08:46:01Z</time>
      </trkpt>
      <trkpt lat="47.47704" lon="6.75702">
        <ele>365.864</ele>
        <time>2018-01-07T08:46:09Z</time>
      </trkpt>
      <trkpt lat="47.47707" lon="6.75651">
        <ele>368.036</ele>
        <time>2018-01-07T08:46:15Z</time>
      </trkpt>
      <trkpt lat="47.47707" lon="6.75585">
        <ele>364.682</ele>
        <time>2018-01-07T08:46:21Z</time>
      </trkpt>
      <trkpt lat="47.47706" lon="6.75529">
        <ele>362.397</ele>
        <time>2018-01-07T08:46:27Z</time>
      </trkpt>
      <trkpt lat="47.47709" lon="6.75479">
        <ele>360.777</ele>
        <time>2018-01-07T08:46:32Z</time>
      </trkpt>
      <trkpt lat="47.47713" lon="6.75423">
        <ele>361.765</ele>
        <time>2018-01-07T08:46:38Z</time>
      </trkpt>
      <trkpt lat="47.47715" lon="6.75368">
        <ele>358.621</ele>
        <time>2018-01-07T08:46:44Z</time>
      </trkpt>
      <trkpt lat="47.47715" lon="6.75315">
        <ele>357.289</ele>
        <time>2018-01-07T08:46:50Z</time>
      </trkpt>
      <trkpt lat="47.47717" lon="6.75274">
        <ele>359.959</ele>
        <time>2018-01-07T08:46:55Z</time>
      </trkpt>
      <trkpt lat="47.47717" lon="6.75233">
        <ele>364.221</ele>
        <time>2018-01-07T08:47:00Z</time>
      </trkpt>
      <trkpt lat="47.47718" lon="6.75187">
        <ele>369.086</ele>
        <time>2018-01-07T08:47:05Z</time>
      </trkpt>
      <trkpt lat="47.4772" lon="6.75129">
        <ele>364.948</ele>
        <time>2018-01-07T08:47:11Z</time>
      </trkpt>
      <trkpt lat="47.47719" lon="6.75086">
        <ele>357.869</ele>
        <time>2018-01-07T08:47:16Z</time>
      </trkpt>
      <trkpt lat="47.4772" lon="6.75033">
        <ele>351.797</ele>
        <time>2018-01-07T08:47:22Z</time>
      </trkpt>
      <trkpt lat="47.47722" lon="6.74983">
        <ele>351.693</ele>
        <time>2018-01-07T08:47:27Z</time>
      </trkpt>
      <trkpt lat="47.47725" lon="6.74936">
        <ele>359.844</ele>
        <time>2018-01-07T08:47:32Z</time>
      </trkpt>
      <trkpt lat="47.47727" lon="6.74887">
        <ele>366.13</ele>
        <time>2018-01-07T08:47:37Z</time>
      </trkpt>
      <trkpt lat="47.4773" lon="6.74845">
        <ele>370.05</ele>
        <time>2018-01-07T08:47:42Z</time>
      </trkpt>
      <trkpt lat="47.4773" lon="6.74799">
        <ele>366.277</ele>
        <time>2018-01-07T08:47:47Z</time>
      </trkpt>
      <trkpt lat="47.47731" lon="6.74755">
        <ele>365.82</ele>
        <time>2018-01-07T08:47:52Z</time>
      </trkpt>
      <trkpt lat="47.47733" lon="6.74706">
        <ele>367.23</ele>
        <time>2018-01-07T08:47:57Z</time>
      </trkpt>
      <trkpt lat="47.47732" lon="6.74659">
        <ele>369.863</ele>
        <time>2018-01-07T08:48:02Z</time>
      </trkpt>
      <trkpt lat="47.47731" lon="6.74613">
        <ele>369.452</ele>
        <time>2018-01-07T08:48:07Z</time>
      </trkpt>
      <trkpt lat="47.47731" lon="6.74566">
        <ele>368.11</ele>
        <time>2018-01-07T08:48:12Z</time>
      </trkpt>
      <trkpt lat="47.47725" lon="6.74527">
        <ele>367.972</ele>
        <time>2018-01-07T08:48:17Z</time>
      </trkpt>
      <trkpt lat="47.47718" lon="6.7449">
        <ele>370.904</ele>
        <time>2018-01-07T08:48:22Z</time>
      </trkpt>
      <trkpt lat="47.47715" lon="6.74451">
        <ele>372.704</ele>
        <time>2018-01-07T08:48:27Z</time>
      </trkpt>
      <trkpt lat="47.47725" lon="6.74416">
        <ele>369.755</ele>
        <time>2018-01-07T08:48:32Z</time>
      </trkpt>
      <trkpt lat="47.47723" lon="6.74371">
        <ele>363.776</ele>
        <time>2018-01-07T08:48:37Z</time>
      </trkpt>
      <trkpt lat="47.47718" lon="6.7433">
        <ele>366.701</ele>
        <time>2018-01-07T08:48:42Z</time>
      </trkpt>
      <trkpt lat="47.47712" lon="6.74297">
        <ele>367.175</ele>
        <time>2018-01-07T08:48:47Z</time>
      </trkpt>
      <trkpt lat="47.47708" lon="6.74264">
        <ele>367.86</ele>
        <time>2018-01-07T08:48:52Z</time>
      </trkpt>
      <trkpt lat="47.47699" lon="6.74225">
        <ele>370.646</ele>
        <time>2018-01-07T08:48:57Z</time>
      </trkpt>
      <trkpt lat="47.47688" lon="6.74183">
        <ele>371.274</ele>
        <time>2018-01-07T08:49:02Z</time>
      </trkpt>
      <trkpt lat="47.47678" lon="6.74144">
        <ele>368.625</ele>
        <time>2018-01-07T08:49:07Z</time>
      </trkpt>
      <trkpt lat="47.47665" lon="6.74115">
        <ele>367.899</ele>
        <time>2018-01-07T08:49:12Z</time>
      </trkpt>
      <trkpt lat="47.47647" lon="6.74079">
        <ele>367.507</ele>
        <time>2018-01-07T08:49:17Z</time>
      </trkpt>
      <trkpt lat="47.47631" lon="6.74038">
        <ele>370.364</ele>
        <time>2018-01-07T08:49:25Z</time>
      </trkpt>
      <trkpt lat="47.47606" lon="6.74057">
        <ele>377.682</ele>
        <time>2018-01-07T08:49:30Z</time>
      </trkpt>
      <trkpt lat="47.47582" lon="6.74079">
        <ele>377.566</ele>
        <time>2018-01-07T08:49:35Z</time>
      </trkpt>
      <trkpt lat="47.47556" lon="6.74097">
        <ele>369.128</ele>
        <time>2018-01-07T08:49:40Z</time>
      </trkpt>
      <trkpt lat="47.47533" lon="6.74118">
        <ele>363.046</ele>
        <time>2018-01-07T08:49:45Z</time>
      </trkpt>
      <trkpt lat="47.47513" lon="6.74135">
        <ele>354.244</ele>
        <time>2018-01-07T08:49:50Z</time>
      </trkpt>
      <trkpt lat="47.47491" lon="6.74155">
        <ele>352.097</ele>
        <time>2018-01-07T08:49:55Z</time>
      </trkpt>
      <trkpt lat="47.47468" lon="6.74172">
        <ele>352.702</ele>
        <time>2018-01-07T08:50:00Z</time>
      </trkpt>
      <trkpt lat="47.47445" lon="6.74184">
        <ele>350.629</ele>
        <time>2018-01-07T08:50:05Z</time>
      </trkpt>
      <trkpt lat="47.47423" lon="6.74195">
        <ele>350.821</ele>
        <time>2018-01-07T08:50:10Z</time>
      </trkpt>
      <trkpt lat="47.47398" lon="6.74207">
        <ele>348.704</ele>
        <time>2018-01-07T08:50:15Z</time>
      </trkpt>
      <trkpt lat="47.47373" lon="6.74217">
        <ele>347.262</ele>
        <time>2018-01-07T08:50:20Z</time>
      </trkpt>
      <trkpt lat="47.4735" lon="6.7423">
        <ele>351.047</ele>
        <time>2018-01-07T08:50:25Z</time>
      </trkpt>
      <trkpt lat="47.47329" lon="6.7424">
        <ele>350.157</ele>
        <time>2018-01-07T08:50:30Z</time>
      </trkpt>
      <trkpt lat="47.47311" lon="6.74248">
        <ele>352.606</ele>
        <time>2018-01-07T08:50:35Z</time>
      </trkpt>
      <trkpt lat="47.47288" lon="6.74256">
        <ele>354.042</ele>
        <time>2018-01-07T08:50:40Z</time>
      </trkpt>
      <trkpt lat="47.47266" lon="6.74262">
        <ele>357.552</ele>
        <time>2018-01-07T08:50:45Z</time>
      </trkpt>
      <trkpt lat="47.4725" lon="6.74269">
        <ele>357.618</ele>
        <time>2018-01-07T08:50:50Z</time>
      </trkpt>
      <trkpt lat="47.47236" lon="6.74282">
        <ele>358.244</ele>
        <time>2018-01-07T08:50:55Z</time>
      </trkpt>
      <trkpt lat="47.47226" lon="6.74306">
        <ele>360.262</ele>
        <time>2018-01-07T08:51:00Z</time>
      </trkpt>
      <trkpt lat="47.4722" lon="6.74324">
        <ele>361.638</ele>
        <time>2018-01-07T08:51:06Z</time>
      </trkpt>
      <trkpt lat="47.47139" lon="6.7437">
        <ele>357.517</ele>
        <time>2018-01-07T08:51:39Z</time>
      </trkpt>
      <trkpt lat="47.47126" lon="6.74374">
        <ele>358.638</ele>
        <time>2018-01-07T08:51:44Z</time>
      </trkpt>
      <trkpt lat="47.47116" lon="6.74376">
        <ele>359.297</ele>
        <time>2018-01-07T08:51:49Z</time>
      </trkpt>
      <trkpt lat="47.47107" lon="6.7438">
        <ele>359.985</ele>
        <time>2018-01-07T08:51:54Z</time>
      </trkpt>
      <trkpt lat="47.47096" lon="6.74382">
        <ele>360.903</ele>
        <time>2018-01-07T08:51:59Z</time>
      </trkpt>
      <trkpt lat="47.47085" lon="6.74385">
        <ele>362.238</ele>
        <time>2018-01-07T08:52:04Z</time>
      </trkpt>
      <trkpt lat="47.47075" lon="6.74388">
        <ele>363.302</ele>
        <time>2018-01-07T08:52:09Z</time>
      </trkpt>
      <trkpt lat="47.47068" lon="6.74392">
        <ele>363.829</ele>
        <time>2018-01-07T08:52:14Z</time>
      </trkpt>
      <trkpt lat="47.47062" lon="6.74397">
        <ele>364.774</ele>
        <time>2018-01-07T08:52:19Z</time>
      </trkpt>
      <trkpt lat="47.47053" lon="6.74401">
        <ele>366.21</ele>
        <time>2018-01-07T08:52:24Z</time>
      </trkpt>
      <trkpt lat="47.47047" lon="6.74407">
        <ele>367.392</ele>
        <time>2018-01-07T08:52:29Z</time>
      </trkpt>
      <trkpt lat="47.47041" lon="6.74418">
        <ele>368.736</ele>
        <time>2018-01-07T08:52:34Z</time>
      </trkpt>
      <trkpt lat="47.47035" lon="6.74425">
        <ele>369.296</ele>
        <time>2018-01-07T08:52:39Z</time>
      </trkpt>
      <trkpt lat="47.47031" lon="6.74431">
        <ele>369.516</ele>
        <time>2018-01-07T08:52:44Z</time>
      </trkpt>
      <trkpt lat="47.47026" lon="6.74437">
        <ele>370.217</ele>
        <time>2018-01-07T08:52:49Z</time>
      </trkpt>
      <trkpt lat="47.46936" lon="6.74526">
        <ele>379.706</ele>
        <time>2018-01-07T08:53:49Z</time>
      </trkpt>
      <trkpt lat="47.46925" lon="6.7453">
        <ele>380.144</ele>
        <time>2018-01-07T08:53:54Z</time>
      </trkpt>
      <trkpt lat="47.46918" lon="6.74512">
        <ele>380.895</ele>
        <time>2018-01-07T08:53:59Z</time>
      </trkpt>
      <trkpt lat="47.46917" lon="6.74498">
        <ele>382.365</ele>
        <time>2018-01-07T08:54:04Z</time>
      </trkpt>
      <trkpt lat="47.46912" lon="6.74483">
        <ele>383.806</ele>
        <time>2018-01-07T08:54:09Z</time>
      </trkpt>
      <trkpt lat="47.46909" lon="6.74473">
        <ele>385.726</ele>
        <time>2018-01-07T08:54:14Z</time>
      </trkpt>
      <trkpt lat="47.46903" lon="6.74456">
        <ele>388.057</ele>
        <time>2018-01-07T08:54:19Z</time>
      </trkpt>
      <trkpt lat="47.46902" lon="6.74443">
        <ele>390.74</ele>
        <time>2018-01-07T08:54:24Z</time>
      </trkpt>
      <trkpt lat="47.46898" lon="6.7443">
        <ele>392.434</ele>
        <time>2018-01-07T08:54:29Z</time>
      </trkpt>
      <trkpt lat="47.46893" lon="6.74417">
        <ele>393.252</ele>
        <time>2018-01-07T08:54:34Z</time>
      </trkpt>
      <trkpt lat="47.4689" lon="6.74403">
        <ele>393.481</ele>
        <time>2018-01-07T08:54:39Z</time>
      </trkpt>
      <trkpt lat="47.46886" lon="6.74387">
        <ele>393.331</ele>
        <time>2018-01-07T08:54:45Z</time>
      </trkpt>
      <trkpt lat="47.46882" lon="6.74365">
        <ele>393.402</ele>
        <time>2018-01-07T08:54:53Z</time>
      </trkpt>
      <trkpt lat="47.46883" lon="6.74338">
        <ele>394.098</ele>
        <time>2018-01-07T08:55:05Z</time>
      </trkpt>
      <trkpt lat="47.46879" lon="6.74303">
        <ele>393.955</ele>
        <time>2018-01-07T08:55:16Z</time>
      </trkpt>
      <trkpt lat="47.46878" lon="6.74294">
        <ele>393.818</ele>
        <time>2018-01-07T08:55:21Z</time>
      </trkpt>
      <trkpt lat="47.46881" lon="6.74265">
        <ele>395.101</ele>
        <time>2018-01-07T08:55:34Z</time>
      </trkpt>
      <trkpt lat="47.46891" lon="6.74251">
        <ele>396.207</ele>
        <time>2018-01-07T08:55:39Z</time>
      </trkpt>
      <trkpt lat="47.46896" lon="6.74245">
        <ele>397.328</ele>
        <time>2018-01-07T08:55:44Z</time>
      </trkpt>
      <trkpt lat="47.46907" lon="6.74221">
        <ele>399.16</ele>
        <time>2018-01-07T08:55:57Z</time>
      </trkpt>
      <trkpt lat="47.46849" lon="6.73889">
        <ele>422.13</ele>
        <time>2018-01-07T08:58:29Z</time>
      </trkpt>
      <trkpt lat="47.46837" lon="6.73845">
        <ele>427.607</ele>
        <time>2018-01-07T08:58:50Z</time>
      </trkpt>
      <trkpt lat="47.46831" lon="6.73827">
        <ele>428.682</ele>
        <time>2018-01-07T08:58:55Z</time>
      </trkpt>
      <trkpt lat="47.46826" lon="6.73803">
        <ele>430.412</ele>
        <time>2018-01-07T08:59:00Z</time>
      </trkpt>
      <trkpt lat="47.46823" lon="6.73782">
        <ele>431.559</ele>
        <time>2018-01-07T08:59:05Z</time>
      </trkpt>
      <trkpt lat="47.46816" lon="6.73764">
        <ele>432.188</ele>
        <time>2018-01-07T08:59:10Z</time>
      </trkpt>
      <trkpt lat="47.46803" lon="6.73761">
        <ele>431.817</ele>
        <time>2018-01-07T08:59:17Z</time>
      </trkpt>
      <trkpt lat="47.46779" lon="6.73765">
        <ele>431.088</ele>
        <time>2018-01-07T08:59:22Z</time>
      </trkpt>
      <trkpt lat="47.46769" lon="6.73772">
        <ele>430.636</ele>
        <time>2018-01-07T08:59:27Z</time>
      </trkpt>
      <trkpt lat="47.46751" lon="6.73796">
        <ele>430.617</ele>
        <time>2018-01-07T08:59:32Z</time>
      </trkpt>
      <trkpt lat="47.46723" lon="6.73829">
        <ele>433.699</ele>
        <time>2018-01-07T08:59:37Z</time>
      </trkpt>
      <trkpt lat="47.46698" lon="6.73843">
        <ele>432.432</ele>
        <time>2018-01-07T08:59:42Z</time>
      </trkpt>
      <trkpt lat="47.46685" lon="6.73821">
        <ele>431.969</ele>
        <time>2018-01-07T08:59:47Z</time>
      </trkpt>
      <trkpt lat="47.46661" lon="6.73775">
        <ele>433.903</ele>
        <time>2018-01-07T09:00:01Z</time>
      </trkpt>
      <trkpt lat="47.46648" lon="6.73764">
        <ele>434.276</ele>
        <time>2018-01-07T09:00:06Z</time>
      </trkpt>
      <trkpt lat="47.46639" lon="6.73757">
        <ele>434.484</ele>
        <time>2018-01-07T09:00:11Z</time>
      </trkpt>
      <trkpt lat="47.46631" lon="6.73752">
        <ele>435.85</ele>
        <time>2018-01-07T09:00:16Z</time>
      </trkpt>
      <trkpt lat="47.46618" lon="6.73747">
        <ele>437.371</ele>
        <time>2018-01-07T09:00:21Z</time>
      </trkpt>
      <trkpt lat="47.46608" lon="6.73743">
        <ele>438.277</ele>
        <time>2018-01-07T09:00:26Z</time>
      </trkpt>
      <trkpt lat="47.46597" lon="6.73735">
        <ele>438.409</ele>
        <time>2018-01-07T09:00:33Z</time>
      </trkpt>
      <trkpt lat="47.46579" lon="6.73736">
        <ele>439.601</ele>
        <time>2018-01-07T09:00:41Z</time>
      </trkpt>
      <trkpt lat="47.46541" lon="6.73729">
        <ele>437.745</ele>
        <time>2018-01-07T09:00:53Z</time>
      </trkpt>
      <trkpt lat="47.46528" lon="6.73726">
        <ele>437.557</ele>
        <time>2018-01-07T09:00:58Z</time>
      </trkpt>
      <trkpt lat="47.46509" lon="6.73719">
        <ele>437.315</ele>
        <time>2018-01-07T09:01:03Z</time>
      </trkpt>
      <trkpt lat="47.46497" lon="6.73718">
        <ele>438.176</ele>
        <time>2018-01-07T09:01:08Z</time>
      </trkpt>
      <trkpt lat="47.46487" lon="6.73732">
        <ele>438.456</ele>
        <time>2018-01-07T09:01:13Z</time>
      </trkpt>
      <trkpt lat="47.46476" lon="6.73745">
        <ele>437.987</ele>
        <time>2018-01-07T09:01:18Z</time>
      </trkpt>
      <trkpt lat="47.46466" lon="6.73751">
        <ele>437.848</ele>
        <time>2018-01-07T09:01:24Z</time>
      </trkpt>
      <trkpt lat="47.4645" lon="6.7376">
        <ele>438.77</ele>
        <time>2018-01-07T09:01:35Z</time>
      </trkpt>
      <trkpt lat="47.46442" lon="6.73761">
        <ele>438.809</ele>
        <time>2018-01-07T09:01:39Z</time>
      </trkpt>
      <trkpt lat="47.46433" lon="6.73756">
        <ele>438.712</ele>
        <time>2018-01-07T09:01:44Z</time>
      </trkpt>
      <trkpt lat="47.46423" lon="6.73747">
        <ele>439.922</ele>
        <time>2018-01-07T09:01:54Z</time>
      </trkpt>
      <trkpt lat="47.46418" lon="6.73747">
        <ele>440.783</ele>
        <time>2018-01-07T09:02:00Z</time>
      </trkpt>
      <trkpt lat="47.46407" lon="6.73748">
        <ele>444.75</ele>
        <time>2018-01-07T09:02:12Z</time>
      </trkpt>
      <trkpt lat="47.464" lon="6.73749">
        <ele>446.503</ele>
        <time>2018-01-07T09:02:17Z</time>
      </trkpt>
      <trkpt lat="47.46388" lon="6.73752">
        <ele>447.563</ele>
        <time>2018-01-07T09:02:24Z</time>
      </trkpt>
      <trkpt lat="47.46377" lon="6.7375">
        <ele>449.037</ele>
        <time>2018-01-07T09:02:29Z</time>
      </trkpt>
      <trkpt lat="47.46373" lon="6.73746">
        <ele>449.946</ele>
        <time>2018-01-07T09:02:34Z</time>
      </trkpt>
      <trkpt lat="47.46359" lon="6.73745">
        <ele>452.635</ele>
        <time>2018-01-07T09:02:44Z</time>
      </trkpt>
      <trkpt lat="47.46351" lon="6.7375">
        <ele>453.863</ele>
        <time>2018-01-07T09:02:49Z</time>
      </trkpt>
      <trkpt lat="47.46341" lon="6.73747">
        <ele>454.633</ele>
        <time>2018-01-07T09:02:54Z</time>
      </trkpt>
      <trkpt lat="47.46336" lon="6.73742">
        <ele>455.406</ele>
        <time>2018-01-07T09:02:59Z</time>
      </trkpt>
      <trkpt lat="47.46331" lon="6.73706">
        <ele>460.676</ele>
        <time>2018-01-07T09:03:35Z</time>
      </trkpt>
      <trkpt lat="47.46328" lon="6.73717">
        <ele>461.157</ele>
        <time>2018-01-07T09:03:40Z</time>
      </trkpt>
      <trkpt lat="47.46323" lon="6.73714">
        <ele>461.498</ele>
        <time>2018-01-07T09:03:45Z</time>
      </trkpt>
      <trkpt lat="47.46314" lon="6.73713">
        <ele>462.11</ele>
        <time>2018-01-07T09:03:50Z</time>
      </trkpt>
      <trkpt lat="47.46309" lon="6.73708">
        <ele>462.28</ele>
        <time>2018-01-07T09:03:55Z</time>
      </trkpt>
      <trkpt lat="47.46317" lon="6.73716">
        <ele>464.843</ele>
        <time>2018-01-07T09:04:10Z</time>
      </trkpt>
      <trkpt lat="47.46283" lon="6.73713">
        <ele>467.403</ele>
        <time>2018-01-07T09:04:56Z</time>
      </trkpt>
      <trkpt lat="47.46271" lon="6.73709">
        <ele>466.868</ele>
        <time>2018-01-07T09:05:01Z</time>
      </trkpt>
      <trkpt lat="47.46259" lon="6.73705">
        <ele>466.864</ele>
        <time>2018-01-07T09:05:06Z</time>
      </trkpt>
      <trkpt lat="47.4625" lon="6.73705">
        <ele>466.697</ele>
        <time>2018-01-07T09:05:11Z</time>
      </trkpt>
      <trkpt lat="47.46243" lon="6.73706">
        <ele>466.328</ele>
        <time>2018-01-07T09:05:16Z</time>
      </trkpt>
      <trkpt lat="47.46233" lon="6.73707">
        <ele>466.304</ele>
        <time>2018-01-07T09:05:21Z</time>
      </trkpt>
      <trkpt lat="47.46223" lon="6.73707">
        <ele>467.039</ele>
        <time>2018-01-07T09:05:26Z</time>
      </trkpt>
      <trkpt lat="47.4621" lon="6.73707">
        <ele>467.524</ele>
        <time>2018-01-07T09:05:31Z</time>
      </trkpt>
      <trkpt lat="47.46201" lon="6.73706">
        <ele>467.664</ele>
        <time>2018-01-07T09:05:36Z</time>
      </trkpt>
      <trkpt lat="47.46193" lon="6.73707">
        <ele>467.811</ele>
        <time>2018-01-07T09:05:41Z</time>
      </trkpt>
      <trkpt lat="47.46182" lon="6.73711">
        <ele>467.965</ele>
        <time>2018-01-07T09:05:46Z</time>
      </trkpt>
      <trkpt lat="47.46172" lon="6.73711">
        <ele>468.801</ele>
        <time>2018-01-07T09:05:51Z</time>
      </trkpt>
      <trkpt lat="47.46158" lon="6.73702">
        <ele>468.957</ele>
        <time>2018-01-07T09:05:56Z</time>
      </trkpt>
      <trkpt lat="47.46148" lon="6.73692">
        <ele>468.901</ele>
        <time>2018-01-07T09:06:01Z</time>
      </trkpt>
      <trkpt lat="47.46141" lon="6.73684">
        <ele>468.678</ele>
        <time>2018-01-07T09:06:06Z</time>
      </trkpt>
      <trkpt lat="47.46136" lon="6.73679">
        <ele>468.464</ele>
        <time>2018-01-07T09:06:11Z</time>
      </trkpt>
      <trkpt lat="47.46124" lon="6.73667">
        <ele>469.187</ele>
        <time>2018-01-07T09:06:25Z</time>
      </trkpt>
      <trkpt lat="47.46094" lon="6.73641">
        <ele>470.641</ele>
        <time>2018-01-07T09:06:45Z</time>
      </trkpt>
      <trkpt lat="47.46087" lon="6.73635">
        <ele>470.724</ele>
        <time>2018-01-07T09:06:50Z</time>
      </trkpt>
      <trkpt lat="47.46078" lon="6.73631">
        <ele>471.052</ele>
        <time>2018-01-07T09:06:55Z</time>
      </trkpt>
      <trkpt lat="47.46071" lon="6.73624">
        <ele>471.293</ele>
        <time>2018-01-07T09:07:00Z</time>
      </trkpt>
      <trkpt lat="47.46063" lon="6.73619">
        <ele>472.143</ele>
        <time>2018-01-07T09:07:05Z</time>
      </trkpt>
      <trkpt lat="47.46054" lon="6.73611">
        <ele>473.416</ele>
        <time>2018-01-07T09:07:10Z</time>
      </trkpt>
      <trkpt lat="47.46044" lon="6.73605">
        <ele>474.408</ele>
        <time>2018-01-07T09:07:15Z</time>
      </trkpt>
      <trkpt lat="47.46036" lon="6.73603">
        <ele>475.281</ele>
        <time>2018-01-07T09:07:20Z</time>
      </trkpt>
      <trkpt lat="47.46026" lon="6.73602">
        <ele>475.403</ele>
        <time>2018-01-07T09:07:25Z</time>
      </trkpt>
      <trkpt lat="47.46017" lon="6.73604">
        <ele>475.382</ele>
        <time>2018-01-07T09:07:30Z</time>
      </trkpt>
      <trkpt lat="47.46006" lon="6.73607">
        <ele>475.529</ele>
        <time>2018-01-07T09:07:35Z</time>
      </trkpt>
      <trkpt lat="47.45995" lon="6.73609">
        <ele>475.148</ele>
        <time>2018-01-07T09:07:41Z</time>
      </trkpt>
      <trkpt lat="47.45989" lon="6.73611">
        <ele>474.473</ele>
        <time>2018-01-07T09:07:46Z</time>
      </trkpt>
      <trkpt lat="47.45977" lon="6.73613">
        <ele>474.81</ele>
        <time>2018-01-07T09:07:51Z</time>
      </trkpt>
      <trkpt lat="47.45969" lon="6.73616">
        <ele>475.137</ele>
        <time>2018-01-07T09:07:56Z</time>
      </trkpt>
      <trkpt lat="47.4596" lon="6.73619">
        <ele>476.196</ele>
        <time>2018-01-07T09:08:01Z</time>
      </trkpt>
      <trkpt lat="47.45953" lon="6.73623">
        <ele>476.733</ele>
        <time>2018-01-07T09:08:06Z</time>
      </trkpt>
      <trkpt lat="47.45941" lon="6.73629">
        <ele>477.084</ele>
        <time>2018-01-07T09:08:11Z</time>
      </trkpt>
      <trkpt lat="47.45932" lon="6.73637">
        <ele>477.462</ele>
        <time>2018-01-07T09:08:16Z</time>
      </trkpt>
      <trkpt lat="47.45923" lon="6.73644">
        <ele>478.293</ele>
        <time>2018-01-07T09:08:21Z</time>
      </trkpt>
      <trkpt lat="47.45913" lon="6.73648">
        <ele>479.3</ele>
        <time>2018-01-07T09:08:26Z</time>
      </trkpt>
      <trkpt lat="47.45902" lon="6.73651">
        <ele>480.314</ele>
        <time>2018-01-07T09:08:31Z</time>
      </trkpt>
      <trkpt lat="47.45891" lon="6.73652">
        <ele>481.518</ele>
        <time>2018-01-07T09:08:36Z</time>
      </trkpt>
      <trkpt lat="47.45882" lon="6.73648">
        <ele>482.44</ele>
        <time>2018-01-07T09:08:41Z</time>
      </trkpt>
      <trkpt lat="47.45871" lon="6.73643">
        <ele>483.351</ele>
        <time>2018-01-07T09:08:46Z</time>
      </trkpt>
      <trkpt lat="47.45858" lon="6.73639">
        <ele>484.189</ele>
        <time>2018-01-07T09:08:51Z</time>
      </trkpt>
      <trkpt lat="47.45848" lon="6.73646">
        <ele>485.435</ele>
        <time>2018-01-07T09:08:56Z</time>
      </trkpt>
      <trkpt lat="47.45837" lon="6.73649">
        <ele>486.857</ele>
        <time>2018-01-07T09:09:01Z</time>
      </trkpt>
      <trkpt lat="47.45827" lon="6.73652">
        <ele>487.42</ele>
        <time>2018-01-07T09:09:06Z</time>
      </trkpt>
      <trkpt lat="47.45815" lon="6.73656">
        <ele>488.005</ele>
        <time>2018-01-07T09:09:11Z</time>
      </trkpt>
      <trkpt lat="47.45801" lon="6.73657">
        <ele>488.635</ele>
        <time>2018-01-07T09:09:16Z</time>
      </trkpt>
      <trkpt lat="47.45787" lon="6.73657">
        <ele>489.032</ele>
        <time>2018-01-07T09:09:21Z</time>
      </trkpt>
      <trkpt lat="47.45778" lon="6.73657">
        <ele>489.548</ele>
        <time>2018-01-07T09:09:29Z</time>
      </trkpt>
      <trkpt lat="47.45767" lon="6.73661">
        <ele>489.923</ele>
        <time>2018-01-07T09:09:34Z</time>
      </trkpt>
      <trkpt lat="47.45755" lon="6.73665">
        <ele>490.07</ele>
        <time>2018-01-07T09:09:39Z</time>
      </trkpt>
      <trkpt lat="47.45744" lon="6.73666">
        <ele>490.384</ele>
        <time>2018-01-07T09:09:44Z</time>
      </trkpt>
      <trkpt lat="47.45732" lon="6.73663">
        <ele>490.335</ele>
        <time>2018-01-07T09:09:49Z</time>
      </trkpt>
      <trkpt lat="47.4572" lon="6.73661">
        <ele>490.088</ele>
        <time>2018-01-07T09:09:54Z</time>
      </trkpt>
      <trkpt lat="47.45707" lon="6.7366">
        <ele>490.434</ele>
        <time>2018-01-07T09:09:59Z</time>
      </trkpt>
      <trkpt lat="47.45696" lon="6.7366">
        <ele>491.594</ele>
        <time>2018-01-07T09:10:04Z</time>
      </trkpt>
      <trkpt lat="47.45683" lon="6.73661">
        <ele>492.738</ele>
        <time>2018-01-07T09:10:09Z</time>
      </trkpt>
      <trkpt lat="47.4567" lon="6.7366">
        <ele>493.612</ele>
        <time>2018-01-07T09:10:14Z</time>
      </trkpt>
      <trkpt lat="47.45656" lon="6.73664">
        <ele>494.889</ele>
        <time>2018-01-07T09:10:19Z</time>
      </trkpt>
      <trkpt lat="47.45643" lon="6.7367">
        <ele>495.389</ele>
        <time>2018-01-07T09:10:24Z</time>
      </trkpt>
      <trkpt lat="47.45631" lon="6.73675">
        <ele>495.604</ele>
        <time>2018-01-07T09:10:29Z</time>
      </trkpt>
      <trkpt lat="47.45596" lon="6.73687">
        <ele>494.8</ele>
        <time>2018-01-07T09:10:45Z</time>
      </trkpt>
      <trkpt lat="47.45563" lon="6.73695">
        <ele>494.434</ele>
        <time>2018-01-07T09:10:57Z</time>
      </trkpt>
      <trkpt lat="47.45541" lon="6.73688">
        <ele>493.797</ele>
        <time>2018-01-07T09:11:04Z</time>
      </trkpt>
      <trkpt lat="47.45532" lon="6.73694">
        <ele>493.007</ele>
        <time>2018-01-07T09:11:11Z</time>
      </trkpt>
      <trkpt lat="47.45469" lon="6.73539">
        <ele>488.487</ele>
        <time>2018-01-07T09:12:32Z</time>
      </trkpt>
      <trkpt lat="47.45468" lon="6.73514">
        <ele>487.57</ele>
        <time>2018-01-07T09:12:37Z</time>
      </trkpt>
      <trkpt lat="47.45469" lon="6.735">
        <ele>486.903</ele>
        <time>2018-01-07T09:12:42Z</time>
      </trkpt>
      <trkpt lat="47.45472" lon="6.73479">
        <ele>486.252</ele>
        <time>2018-01-07T09:12:47Z</time>
      </trkpt>
      <trkpt lat="47.45469" lon="6.7345">
        <ele>485.724</ele>
        <time>2018-01-07T09:12:52Z</time>
      </trkpt>
      <trkpt lat="47.4547" lon="6.73426">
        <ele>485.23</ele>
        <time>2018-01-07T09:12:57Z</time>
      </trkpt>
      <trkpt lat="47.45473" lon="6.73403">
        <ele>484.696</ele>
        <time>2018-01-07T09:13:02Z</time>
      </trkpt>
      <trkpt lat="47.45475" lon="6.73381">
        <ele>484.071</ele>
        <time>2018-01-07T09:13:07Z</time>
      </trkpt>
      <trkpt lat="47.45477" lon="6.73349">
        <ele>484.136</ele>
        <time>2018-01-07T09:13:13Z</time>
      </trkpt>
      <trkpt lat="47.45475" lon="6.73335">
        <ele>484.517</ele>
        <time>2018-01-07T09:13:18Z</time>
      </trkpt>
      <trkpt lat="47.45483" lon="6.73317">
        <ele>483.652</ele>
        <time>2018-01-07T09:13:24Z</time>
      </trkpt>
      <trkpt lat="47.45499" lon="6.73308">
        <ele>481.128</ele>
        <time>2018-01-07T09:13:31Z</time>
      </trkpt>
      <trkpt lat="47.45511" lon="6.73296">
        <ele>477.865</ele>
        <time>2018-01-07T09:13:37Z</time>
      </trkpt>
      <trkpt lat="47.45522" lon="6.73288">
        <ele>475.923</ele>
        <time>2018-01-07T09:13:42Z</time>
      </trkpt>
      <trkpt lat="47.45534" lon="6.73281">
        <ele>474.771</ele>
        <time>2018-01-07T09:13:47Z</time>
      </trkpt>
      <trkpt lat="47.4556" lon="6.73258">
        <ele>471.522</ele>
        <time>2018-01-07T09:13:52Z</time>
      </trkpt>
      <trkpt lat="47.4558" lon="6.73237">
        <ele>470.666</ele>
        <time>2018-01-07T09:13:59Z</time>
      </trkpt>
      <trkpt lat="47.45591" lon="6.73232">
        <ele>470.602</ele>
        <time>2018-01-07T09:14:04Z</time>
      </trkpt>
      <trkpt lat="47.456" lon="6.73224">
        <ele>471.833</ele>
        <time>2018-01-07T09:14:10Z</time>
      </trkpt>
      <trkpt lat="47.45597" lon="6.73172">
        <ele>473.25</ele>
        <time>2018-01-07T09:14:22Z</time>
      </trkpt>
      <trkpt lat="47.45594" lon="6.7315">
        <ele>474.113</ele>
        <time>2018-01-07T09:14:27Z</time>
      </trkpt>
      <trkpt lat="47.45593" lon="6.73128">
        <ele>475.58</ele>
        <time>2018-01-07T09:14:32Z</time>
      </trkpt>
      <trkpt lat="47.45589" lon="6.73109">
        <ele>477.539</ele>
        <time>2018-01-07T09:14:37Z</time>
      </trkpt>
      <trkpt lat="47.45589" lon="6.7309">
        <ele>478.887</ele>
        <time>2018-01-07T09:14:42Z</time>
      </trkpt>
      <trkpt lat="47.45585" lon="6.73069">
        <ele>480.562</ele>
        <time>2018-01-07T09:14:47Z</time>
      </trkpt>
      <trkpt lat="47.4558" lon="6.73046">
        <ele>481.984</ele>
        <time>2018-01-07T09:14:52Z</time>
      </trkpt>
      <trkpt lat="47.45573" lon="6.73028">
        <ele>482.501</ele>
        <time>2018-01-07T09:14:57Z</time>
      </trkpt>
      <trkpt lat="47.45565" lon="6.7301">
        <ele>483.573</ele>
        <time>2018-01-07T09:15:02Z</time>
      </trkpt>
      <trkpt lat="47.45533" lon="6.72959">
        <ele>490.826</ele>
        <time>2018-01-07T09:15:19Z</time>
      </trkpt>
      <trkpt lat="47.45525" lon="6.72941">
        <ele>491.887</ele>
        <time>2018-01-07T09:15:24Z</time>
      </trkpt>
      <trkpt lat="47.45508" lon="6.72917">
        <ele>493.118</ele>
        <time>2018-01-07T09:15:32Z</time>
      </trkpt>
      <trkpt lat="47.45484" lon="6.72883">
        <ele>493.559</ele>
        <time>2018-01-07T09:15:45Z</time>
      </trkpt>
      <trkpt lat="47.45478" lon="6.72863">
        <ele>493.35</ele>
        <time>2018-01-07T09:15:50Z</time>
      </trkpt>
      <trkpt lat="47.45471" lon="6.72837">
        <ele>492.734</ele>
        <time>2018-01-07T09:15:55Z</time>
      </trkpt>
      <trkpt lat="47.45466" lon="6.72818">
        <ele>492.231</ele>
        <time>2018-01-07T09:16:00Z</time>
      </trkpt>
      <trkpt lat="47.45459" lon="6.72803">
        <ele>491.467</ele>
        <time>2018-01-07T09:16:05Z</time>
      </trkpt>
      <trkpt lat="47.45452" lon="6.72782">
        <ele>490.468</ele>
        <time>2018-01-07T09:16:10Z</time>
      </trkpt>
      <trkpt lat="47.4545" lon="6.72751">
        <ele>485.61</ele>
        <time>2018-01-07T09:16:15Z</time>
      </trkpt>
      <trkpt lat="47.45433" lon="6.72737">
        <ele>485.823</ele>
        <time>2018-01-07T09:16:20Z</time>
      </trkpt>
      <trkpt lat="47.45416" lon="6.72728">
        <ele>486.914</ele>
        <time>2018-01-07T09:16:25Z</time>
      </trkpt>
      <trkpt lat="47.45397" lon="6.7271">
        <ele>488.742</ele>
        <time>2018-01-07T09:16:30Z</time>
      </trkpt>
      <trkpt lat="47.45377" lon="6.72683">
        <ele>496.554</ele>
        <time>2018-01-07T09:16:38Z</time>
      </trkpt>
      <trkpt lat="47.45366" lon="6.72664">
        <ele>499.805</ele>
        <time>2018-01-07T09:16:43Z</time>
      </trkpt>
      <trkpt lat="47.45353" lon="6.72654">
        <ele>500.205</ele>
        <time>2018-01-07T09:16:48Z</time>
      </trkpt>
      <trkpt lat="47.45342" lon="6.72642">
        <ele>500.762</ele>
        <time>2018-01-07T09:16:53Z</time>
      </trkpt>
      <trkpt lat="47.45322" lon="6.72624">
        <ele>502.745</ele>
        <time>2018-01-07T09:16:58Z</time>
      </trkpt>
      <trkpt lat="47.45304" lon="6.72605">
        <ele>502.575</ele>
        <time>2018-01-07T09:17:03Z</time>
      </trkpt>
      <trkpt lat="47.45285" lon="6.72591">
        <ele>506.553</ele>
        <time>2018-01-07T09:17:08Z</time>
      </trkpt>
      <trkpt lat="47.45264" lon="6.72577">
        <ele>507.132</ele>
        <time>2018-01-07T09:17:13Z</time>
      </trkpt>
      <trkpt lat="47.45244" lon="6.72564">
        <ele>508.149</ele>
        <time>2018-01-07T09:17:18Z</time>
      </trkpt>
      <trkpt lat="47.45217" lon="6.72544">
        <ele>512.24</ele>
        <time>2018-01-07T09:17:23Z</time>
      </trkpt>
      <trkpt lat="47.4519" lon="6.72525">
        <ele>506.066</ele>
        <time>2018-01-07T09:17:28Z</time>
      </trkpt>
      <trkpt lat="47.45162" lon="6.72507">
        <ele>498.292</ele>
        <time>2018-01-07T09:17:33Z</time>
      </trkpt>
      <trkpt lat="47.45138" lon="6.72489">
        <ele>500.328</ele>
        <time>2018-01-07T09:17:38Z</time>
      </trkpt>
      <trkpt lat="47.45115" lon="6.7247">
        <ele>505.682</ele>
        <time>2018-01-07T09:17:43Z</time>
      </trkpt>
      <trkpt lat="47.45092" lon="6.72452">
        <ele>505.87</ele>
        <time>2018-01-07T09:17:48Z</time>
      </trkpt>
      <trkpt lat="47.45071" lon="6.72437">
        <ele>506.244</ele>
        <time>2018-01-07T09:17:53Z</time>
      </trkpt>
      <trkpt lat="47.45051" lon="6.72425">
        <ele>507.749</ele>
        <time>2018-01-07T09:17:58Z</time>
      </trkpt>
      <trkpt lat="47.4503" lon="6.7241">
        <ele>507.814</ele>
        <time>2018-01-07T09:18:03Z</time>
      </trkpt>
      <trkpt lat="47.45011" lon="6.72397">
        <ele>500.753</ele>
        <time>2018-01-07T09:18:08Z</time>
      </trkpt>
      <trkpt lat="47.44994" lon="6.72383">
        <ele>497.559</ele>
        <time>2018-01-07T09:18:13Z</time>
      </trkpt>
      <trkpt lat="47.44976" lon="6.7237">
        <ele>497.405</ele>
        <time>2018-01-07T09:18:18Z</time>
      </trkpt>
      <trkpt lat="47.44957" lon="6.72354">
        <ele>498.193</ele>
        <time>2018-01-07T09:18:23Z</time>
      </trkpt>
      <trkpt lat="47.44941" lon="6.7234">
        <ele>499.608</ele>
        <time>2018-01-07T09:18:28Z</time>
      </trkpt>
      <trkpt lat="47.44925" lon="6.72327">
        <ele>500.971</ele>
        <time>2018-01-07T09:18:33Z</time>
      </trkpt>
      <trkpt lat="47.44909" lon="6.72316">
        <ele>500.553</ele>
        <time>2018-01-07T09:18:38Z</time>
      </trkpt>
      <trkpt lat="47.44891" lon="6.72305">
        <ele>500.541</ele>
        <time>2018-01-07T09:18:43Z</time>
      </trkpt>
      <trkpt lat="47.44872" lon="6.72294">
        <ele>500.78</ele>
        <time>2018-01-07T09:18:48Z</time>
      </trkpt>
      <trkpt lat="47.44858" lon="6.72287">
        <ele>500.844</ele>
        <time>2018-01-07T09:18:53Z</time>
      </trkpt>
      <trkpt lat="47.44848" lon="6.7228">
        <ele>500.87</ele>
        <time>2018-01-07T09:18:58Z</time>
      </trkpt>
      <trkpt lat="47.44825" lon="6.72275">
        <ele>501.713</ele>
        <time>2018-01-07T09:19:07Z</time>
      </trkpt>
      <trkpt lat="47.44813" lon="6.72277">
        <ele>502.158</ele>
        <time>2018-01-07T09:19:12Z</time>
      </trkpt>
      <trkpt lat="47.44801" lon="6.72279">
        <ele>502.81</ele>
        <time>2018-01-07T09:19:17Z</time>
      </trkpt>
      <trkpt lat="47.44791" lon="6.72283">
        <ele>503.151</ele>
        <time>2018-01-07T09:19:22Z</time>
      </trkpt>
      <trkpt lat="47.44782" lon="6.72284">
        <ele>503.246</ele>
        <time>2018-01-07T09:19:27Z</time>
      </trkpt>
      <trkpt lat="47.44761" lon="6.72291">
        <ele>503.115</ele>
        <time>2018-01-07T09:19:37Z</time>
      </trkpt>
      <trkpt lat="47.4475" lon="6.72296">
        <ele>504.143</ele>
        <time>2018-01-07T09:19:42Z</time>
      </trkpt>
      <trkpt lat="47.44738" lon="6.72303">
        <ele>504.791</ele>
        <time>2018-01-07T09:19:47Z</time>
      </trkpt>
      <trkpt lat="47.44723" lon="6.72314">
        <ele>504.832</ele>
        <time>2018-01-07T09:19:52Z</time>
      </trkpt>
      <trkpt lat="47.44706" lon="6.72318">
        <ele>504.917</ele>
        <time>2018-01-07T09:19:57Z</time>
      </trkpt>
      <trkpt lat="47.44691" lon="6.72319">
        <ele>505.517</ele>
        <time>2018-01-07T09:20:02Z</time>
      </trkpt>
      <trkpt lat="47.44674" lon="6.7232">
        <ele>508.855</ele>
        <time>2018-01-07T09:20:07Z</time>
      </trkpt>
      <trkpt lat="47.44654" lon="6.72327">
        <ele>513.544</ele>
        <time>2018-01-07T09:20:12Z</time>
      </trkpt>
      <trkpt lat="47.44631" lon="6.7233">
        <ele>515.889</ele>
        <time>2018-01-07T09:20:17Z</time>
      </trkpt>
      <trkpt lat="47.44606" lon="6.72329">
        <ele>520.929</ele>
        <time>2018-01-07T09:20:22Z</time>
      </trkpt>
      <trkpt lat="47.4458" lon="6.72327">
        <ele>525.413</ele>
        <time>2018-01-07T09:20:27Z</time>
      </trkpt>
      <trkpt lat="47.44551" lon="6.72329">
        <ele>522.141</ele>
        <time>2018-01-07T09:20:34Z</time>
      </trkpt>
      <trkpt lat="47.44536" lon="6.7233">
        <ele>517.955</ele>
        <time>2018-01-07T09:20:39Z</time>
      </trkpt>
      <trkpt lat="47.44522" lon="6.72334">
        <ele>517.706</ele>
        <time>2018-01-07T09:20:44Z</time>
      </trkpt>
      <trkpt lat="47.44498" lon="6.7234">
        <ele>517.514</ele>
        <time>2018-01-07T09:20:49Z</time>
      </trkpt>
      <trkpt lat="47.44467" lon="6.7235">
        <ele>516.454</ele>
        <time>2018-01-07T09:20:54Z</time>
      </trkpt>
      <trkpt lat="47.44441" lon="6.72354">
        <ele>521.024</ele>
        <time>2018-01-07T09:20:59Z</time>
      </trkpt>
      <trkpt lat="47.44414" lon="6.72355">
        <ele>521.358</ele>
        <time>2018-01-07T09:21:04Z</time>
      </trkpt>
      <trkpt lat="47.44388" lon="6.72361">
        <ele>517.362</ele>
        <time>2018-01-07T09:21:09Z</time>
      </trkpt>
      <trkpt lat="47.4436" lon="6.72371">
        <ele>516.63</ele>
        <time>2018-01-07T09:21:14Z</time>
      </trkpt>
      <trkpt lat="47.44341" lon="6.72379">
        <ele>513.381</ele>
        <time>2018-01-07T09:21:19Z</time>
      </trkpt>
      <trkpt lat="47.4432" lon="6.72384">
        <ele>509.579</ele>
        <time>2018-01-07T09:21:24Z</time>
      </trkpt>
      <trkpt lat="47.443" lon="6.72388">
        <ele>511.884</ele>
        <time>2018-01-07T09:21:29Z</time>
      </trkpt>
      <trkpt lat="47.44278" lon="6.7239">
        <ele>507.36</ele>
        <time>2018-01-07T09:21:34Z</time>
      </trkpt>
      <trkpt lat="47.44257" lon="6.72396">
        <ele>507.379</ele>
        <time>2018-01-07T09:21:39Z</time>
      </trkpt>
      <trkpt lat="47.44235" lon="6.72402">
        <ele>506.874</ele>
        <time>2018-01-07T09:21:44Z</time>
      </trkpt>
      <trkpt lat="47.44215" lon="6.72407">
        <ele>503.198</ele>
        <time>2018-01-07T09:21:49Z</time>
      </trkpt>
      <trkpt lat="47.44186" lon="6.72405">
        <ele>505.75</ele>
        <time>2018-01-07T09:21:54Z</time>
      </trkpt>
      <trkpt lat="47.44156" lon="6.72406">
        <ele>512.278</ele>
        <time>2018-01-07T09:21:59Z</time>
      </trkpt>
      <trkpt lat="47.44124" lon="6.72411">
        <ele>513.586</ele>
        <time>2018-01-07T09:22:04Z</time>
      </trkpt>
      <trkpt lat="47.44101" lon="6.72429">
        <ele>515.476</ele>
        <time>2018-01-07T09:22:09Z</time>
      </trkpt>
      <trkpt lat="47.4407" lon="6.72454">
        <ele>517.332</ele>
        <time>2018-01-07T09:22:14Z</time>
      </trkpt>
      <trkpt lat="47.44033" lon="6.72473">
        <ele>517.612</ele>
        <time>2018-01-07T09:22:19Z</time>
      </trkpt>
      <trkpt lat="47.44004" lon="6.72484">
        <ele>514.484</ele>
        <time>2018-01-07T09:22:24Z</time>
      </trkpt>
      <trkpt lat="47.43979" lon="6.72492">
        <ele>511.255</ele>
        <time>2018-01-07T09:22:29Z</time>
      </trkpt>
      <trkpt lat="47.43953" lon="6.725">
        <ele>510.629</ele>
        <time>2018-01-07T09:22:34Z</time>
      </trkpt>
      <trkpt lat="47.43925" lon="6.72492">
        <ele>508.841</ele>
        <time>2018-01-07T09:22:40Z</time>
      </trkpt>
      <trkpt lat="47.43891" lon="6.72462">
        <ele>516.734</ele>
        <time>2018-01-07T09:22:47Z</time>
      </trkpt>
      <trkpt lat="47.4386" lon="6.72439">
        <ele>517.163</ele>
        <time>2018-01-07T09:22:53Z</time>
      </trkpt>
      <trkpt lat="47.43832" lon="6.72418">
        <ele>513.158</ele>
        <time>2018-01-07T09:22:59Z</time>
      </trkpt>
      <trkpt lat="47.43813" lon="6.72393">
        <ele>514.038</ele>
        <time>2018-01-07T09:23:04Z</time>
      </trkpt>
      <trkpt lat="47.43794" lon="6.72364">
        <ele>512.76</ele>
        <time>2018-01-07T09:23:10Z</time>
      </trkpt>
      <trkpt lat="47.43778" lon="6.72337">
        <ele>512.274</ele>
        <time>2018-01-07T09:23:15Z</time>
      </trkpt>
      <trkpt lat="47.43759" lon="6.7231">
        <ele>513.304</ele>
        <time>2018-01-07T09:23:20Z</time>
      </trkpt>
      <trkpt lat="47.4373" lon="6.72298">
        <ele>515.077</ele>
        <time>2018-01-07T09:23:25Z</time>
      </trkpt>
      <trkpt lat="47.43694" lon="6.72319">
        <ele>514.199</ele>
        <time>2018-01-07T09:23:32Z</time>
      </trkpt>
      <trkpt lat="47.43675" lon="6.72337">
        <ele>516.942</ele>
        <time>2018-01-07T09:23:37Z</time>
      </trkpt>
      <trkpt lat="47.43652" lon="6.72353">
        <ele>516.077</ele>
        <time>2018-01-07T09:23:43Z</time>
      </trkpt>
      <trkpt lat="47.43634" lon="6.72363">
        <ele>516.351</ele>
        <time>2018-01-07T09:23:48Z</time>
      </trkpt>
      <trkpt lat="47.43617" lon="6.72372">
        <ele>516.062</ele>
        <time>2018-01-07T09:23:53Z</time>
      </trkpt>
      <trkpt lat="47.43602" lon="6.7238">
        <ele>515.962</ele>
        <time>2018-01-07T09:23:58Z</time>
      </trkpt>
      <trkpt lat="47.43589" lon="6.72388">
        <ele>515.972</ele>
        <time>2018-01-07T09:24:03Z</time>
      </trkpt>
      <trkpt lat="47.43568" lon="6.72394">
        <ele>516.408</ele>
        <time>2018-01-07T09:24:09Z</time>
      </trkpt>
      <trkpt lat="47.43553" lon="6.72402">
        <ele>516.885</ele>
        <time>2018-01-07T09:24:14Z</time>
      </trkpt>
      <trkpt lat="47.43545" lon="6.72407">
        <ele>517.144</ele>
        <time>2018-01-07T09:24:19Z</time>
      </trkpt>
      <trkpt lat="47.4353" lon="6.72418">
        <ele>517.721</ele>
        <time>2018-01-07T09:24:24Z</time>
      </trkpt>
      <trkpt lat="47.43516" lon="6.7242">
        <ele>517.542</ele>
        <time>2018-01-07T09:24:30Z</time>
      </trkpt>
      <trkpt lat="47.43506" lon="6.72404">
        <ele>517.267</ele>
        <time>2018-01-07T09:24:35Z</time>
      </trkpt>
      <trkpt lat="47.43492" lon="6.72382">
        <ele>516.727</ele>
        <time>2018-01-07T09:24:40Z</time>
      </trkpt>
      <trkpt lat="47.43474" lon="6.72359">
        <ele>513.613</ele>
        <time>2018-01-07T09:24:45Z</time>
      </trkpt>
      <trkpt lat="47.43459" lon="6.72337">
        <ele>514.553</ele>
        <time>2018-01-07T09:24:50Z</time>
      </trkpt>
      <trkpt lat="47.43443" lon="6.72314">
        <ele>520.898</ele>
        <time>2018-01-07T09:24:55Z</time>
      </trkpt>
      <trkpt lat="47.43425" lon="6.72289">
        <ele>522.805</ele>
        <time>2018-01-07T09:25:00Z</time>
      </trkpt>
      <trkpt lat="47.43408" lon="6.72267">
        <ele>518.77</ele>
        <time>2018-01-07T09:25:05Z</time>
      </trkpt>
      <trkpt lat="47.43393" lon="6.7224">
        <ele>522.121</ele>
        <time>2018-01-07T09:25:10Z</time>
      </trkpt>
      <trkpt lat="47.43371" lon="6.72204">
        <ele>523.798</ele>
        <time>2018-01-07T09:25:15Z</time>
      </trkpt>
      <trkpt lat="47.43343" lon="6.72168">
        <ele>522.688</ele>
        <time>2018-01-07T09:25:24Z</time>
      </trkpt>
      <trkpt lat="47.43329" lon="6.72145">
        <ele>524.357</ele>
        <time>2018-01-07T09:25:29Z</time>
      </trkpt>
      <trkpt lat="47.43312" lon="6.72118">
        <ele>520.09</ele>
        <time>2018-01-07T09:25:34Z</time>
      </trkpt>
      <trkpt lat="47.43297" lon="6.72093">
        <ele>520.413</ele>
        <time>2018-01-07T09:25:39Z</time>
      </trkpt>
      <trkpt lat="47.4328" lon="6.72065">
        <ele>520.063</ele>
        <time>2018-01-07T09:25:44Z</time>
      </trkpt>
      <trkpt lat="47.43264" lon="6.72039">
        <ele>522.756</ele>
        <time>2018-01-07T09:25:49Z</time>
      </trkpt>
      <trkpt lat="47.43249" lon="6.72012">
        <ele>521.966</ele>
        <time>2018-01-07T09:25:54Z</time>
      </trkpt>
      <trkpt lat="47.43237" lon="6.71995">
        <ele>522.944</ele>
        <time>2018-01-07T09:25:59Z</time>
      </trkpt>
      <trkpt lat="47.43228" lon="6.71974">
        <ele>521.859</ele>
        <time>2018-01-07T09:26:04Z</time>
      </trkpt>
      <trkpt lat="47.43216" lon="6.71953">
        <ele>522.298</ele>
        <time>2018-01-07T09:26:09Z</time>
      </trkpt>
      <trkpt lat="47.43207" lon="6.71934">
        <ele>521.975</ele>
        <time>2018-01-07T09:26:15Z</time>
      </trkpt>
      <trkpt lat="47.43197" lon="6.71916">
        <ele>521.451</ele>
        <time>2018-01-07T09:26:20Z</time>
      </trkpt>
      <trkpt lat="47.43187" lon="6.71898">
        <ele>521.54</ele>
        <time>2018-01-07T09:26:25Z</time>
      </trkpt>
      <trkpt lat="47.43176" lon="6.71898">
        <ele>521.791</ele>
        <time>2018-01-07T09:26:30Z</time>
      </trkpt>
      <trkpt lat="47.43169" lon="6.71906">
        <ele>522.173</ele>
        <time>2018-01-07T09:26:35Z</time>
      </trkpt>
      <trkpt lat="47.43164" lon="6.71914">
        <ele>522.411</ele>
        <time>2018-01-07T09:26:40Z</time>
      </trkpt>
      <trkpt lat="47.43158" lon="6.71922">
        <ele>522.568</ele>
        <time>2018-01-07T09:26:45Z</time>
      </trkpt>
      <trkpt lat="47.43153" lon="6.71928">
        <ele>522.532</ele>
        <time>2018-01-07T09:26:50Z</time>
      </trkpt>
      <trkpt lat="47.43146" lon="6.71935">
        <ele>522.3</ele>
        <time>2018-01-07T09:26:55Z</time>
      </trkpt>
      <trkpt lat="47.4314" lon="6.7194">
        <ele>521.961</ele>
        <time>2018-01-07T09:27:00Z</time>
      </trkpt>
      <trkpt lat="47.43133" lon="6.71947">
        <ele>522.18</ele>
        <time>2018-01-07T09:27:06Z</time>
      </trkpt>
      <trkpt lat="47.43129" lon="6.71953">
        <ele>522.41</ele>
        <time>2018-01-07T09:27:11Z</time>
      </trkpt>
      <trkpt lat="47.43099" lon="6.71978">
        <ele>526.341</ele>
        <time>2018-01-07T09:27:30Z</time>
      </trkpt>
      <trkpt lat="47.43091" lon="6.71983">
        <ele>526.631</ele>
        <time>2018-01-07T09:27:35Z</time>
      </trkpt>
      <trkpt lat="47.43083" lon="6.71989">
        <ele>526.61</ele>
        <time>2018-01-07T09:27:40Z</time>
      </trkpt>
      <trkpt lat="47.43076" lon="6.71996">
        <ele>527.17</ele>
        <time>2018-01-07T09:27:45Z</time>
      </trkpt>
      <trkpt lat="47.43068" lon="6.72003">
        <ele>527.078</ele>
        <time>2018-01-07T09:27:50Z</time>
      </trkpt>
      <trkpt lat="47.4306" lon="6.7201">
        <ele>526.634</ele>
        <time>2018-01-07T09:27:55Z</time>
      </trkpt>
      <trkpt lat="47.43049" lon="6.7202">
        <ele>526.297</ele>
        <time>2018-01-07T09:28:00Z</time>
      </trkpt>
      <trkpt lat="47.43038" lon="6.7203">
        <ele>526.908</ele>
        <time>2018-01-07T09:28:07Z</time>
      </trkpt>
      <trkpt lat="47.4303" lon="6.72037">
        <ele>527.814</ele>
        <time>2018-01-07T09:28:12Z</time>
      </trkpt>
      <trkpt lat="47.43021" lon="6.72043">
        <ele>528.949</ele>
        <time>2018-01-07T09:28:17Z</time>
      </trkpt>
      <trkpt lat="47.43008" lon="6.72049">
        <ele>529.42</ele>
        <time>2018-01-07T09:28:22Z</time>
      </trkpt>
      <trkpt lat="47.42999" lon="6.72031">
        <ele>529.959</ele>
        <time>2018-01-07T09:28:27Z</time>
      </trkpt>
      <trkpt lat="47.4299" lon="6.7201">
        <ele>532.894</ele>
        <time>2018-01-07T09:28:32Z</time>
      </trkpt>
      <trkpt lat="47.42981" lon="6.71991">
        <ele>534.205</ele>
        <time>2018-01-07T09:28:37Z</time>
      </trkpt>
      <trkpt lat="47.42971" lon="6.71969">
        <ele>536.84</ele>
        <time>2018-01-07T09:28:42Z</time>
      </trkpt>
      <trkpt lat="47.42958" lon="6.71942">
        <ele>533.263</ele>
        <time>2018-01-07T09:28:47Z</time>
      </trkpt>
      <trkpt lat="47.42945" lon="6.71912">
        <ele>530.92</ele>
        <time>2018-01-07T09:28:52Z</time>
      </trkpt>
      <trkpt lat="47.42926" lon="6.71874">
        <ele>532.626</ele>
        <time>2018-01-07T09:28:57Z</time>
      </trkpt>
      <trkpt lat="47.42915" lon="6.7184">
        <ele>534.858</ele>
        <time>2018-01-07T09:29:02Z</time>
      </trkpt>
      <trkpt lat="47.42907" lon="6.71807">
        <ele>538.9</ele>
        <time>2018-01-07T09:29:07Z</time>
      </trkpt>
      <trkpt lat="47.42893" lon="6.71769">
        <ele>534.315</ele>
        <time>2018-01-07T09:29:12Z</time>
      </trkpt>
      <trkpt lat="47.42877" lon="6.71731">
        <ele>532.416</ele>
        <time>2018-01-07T09:29:17Z</time>
      </trkpt>
      <trkpt lat="47.4286" lon="6.71689">
        <ele>533.817</ele>
        <time>2018-01-07T09:29:22Z</time>
      </trkpt>
      <trkpt lat="47.42838" lon="6.71654">
        <ele>537.496</ele>
        <time>2018-01-07T09:29:27Z</time>
      </trkpt>
      <trkpt lat="47.42817" lon="6.71628">
        <ele>539.46</ele>
        <time>2018-01-07T09:29:32Z</time>
      </trkpt>
      <trkpt lat="47.42799" lon="6.71604">
        <ele>537.701</ele>
        <time>2018-01-07T09:29:37Z</time>
      </trkpt>
      <trkpt lat="47.42778" lon="6.7158">
        <ele>538.708</ele>
        <time>2018-01-07T09:29:42Z</time>
      </trkpt>
      <trkpt lat="47.42756" lon="6.71555">
        <ele>543.234</ele>
        <time>2018-01-07T09:29:47Z</time>
      </trkpt>
      <trkpt lat="47.4274" lon="6.71513">
        <ele>539.331</ele>
        <time>2018-01-07T09:29:52Z</time>
      </trkpt>
      <trkpt lat="47.42723" lon="6.71468">
        <ele>535.513</ele>
        <time>2018-01-07T09:29:57Z</time>
      </trkpt>
      <trkpt lat="47.42706" lon="6.71415">
        <ele>533.365</ele>
        <time>2018-01-07T09:30:02Z</time>
      </trkpt>
      <trkpt lat="47.4269" lon="6.71361">
        <ele>532.115</ele>
        <time>2018-01-07T09:30:07Z</time>
      </trkpt>
      <trkpt lat="47.42671" lon="6.71316">
        <ele>529.314</ele>
        <time>2018-01-07T09:30:12Z</time>
      </trkpt>
      <trkpt lat="47.42653" lon="6.7127">
        <ele>524.893</ele>
        <time>2018-01-07T09:30:17Z</time>
      </trkpt>
      <trkpt lat="47.42632" lon="6.71264">
        <ele>529.302</ele>
        <time>2018-01-07T09:30:22Z</time>
      </trkpt>
      <trkpt lat="47.42616" lon="6.71292">
        <ele>529.355</ele>
        <time>2018-01-07T09:30:27Z</time>
      </trkpt>
      <trkpt lat="47.42601" lon="6.71305">
        <ele>529.805</ele>
        <time>2018-01-07T09:30:33Z</time>
      </trkpt>
      <trkpt lat="47.4258" lon="6.71315">
        <ele>530.764</ele>
        <time>2018-01-07T09:30:38Z</time>
      </trkpt>
      <trkpt lat="47.42563" lon="6.71325">
        <ele>531.377</ele>
        <time>2018-01-07T09:30:43Z</time>
      </trkpt>
      <trkpt lat="47.42547" lon="6.71332">
        <ele>531.677</ele>
        <time>2018-01-07T09:30:48Z</time>
      </trkpt>
      <trkpt lat="47.42532" lon="6.71341">
        <ele>532.081</ele>
        <time>2018-01-07T09:30:53Z</time>
      </trkpt>
      <trkpt lat="47.42516" lon="6.71349">
        <ele>532.126</ele>
        <time>2018-01-07T09:30:58Z</time>
      </trkpt>
      <trkpt lat="47.42503" lon="6.71354">
        <ele>531.858</ele>
        <time>2018-01-07T09:31:03Z</time>
      </trkpt>
      <trkpt lat="47.42495" lon="6.71357">
        <ele>531.704</ele>
        <time>2018-01-07T09:31:08Z</time>
      </trkpt>
      <trkpt lat="47.42482" lon="6.7128">
        <ele>526.857</ele>
        <time>2018-01-07T09:33:14Z</time>
      </trkpt>
      <trkpt lat="47.42479" lon="6.71199">
        <ele>524.435</ele>
        <time>2018-01-07T09:33:21Z</time>
      </trkpt>
      <trkpt lat="47.42469" lon="6.71135">
        <ele>521.883</ele>
        <time>2018-01-07T09:33:26Z</time>
      </trkpt>
      <trkpt lat="47.42464" lon="6.71074">
        <ele>512.214</ele>
        <time>2018-01-07T09:33:31Z</time>
      </trkpt>
      <trkpt lat="47.42459" lon="6.71011">
        <ele>508.497</ele>
        <time>2018-01-07T09:33:36Z</time>
      </trkpt>
      <trkpt lat="47.42443" lon="6.70957">
        <ele>495.497</ele>
        <time>2018-01-07T09:33:41Z</time>
      </trkpt>
      <trkpt lat="47.42416" lon="6.70899">
        <ele>489.086</ele>
        <time>2018-01-07T09:33:46Z</time>
      </trkpt>
      <trkpt lat="47.42386" lon="6.70845">
        <ele>481.007</ele>
        <time>2018-01-07T09:33:51Z</time>
      </trkpt>
      <trkpt lat="47.42354" lon="6.70805">
        <ele>472.657</ele>
        <time>2018-01-07T09:33:56Z</time>
      </trkpt>
      <trkpt lat="47.42318" lon="6.70761">
        <ele>462.107</ele>
        <time>2018-01-07T09:34:01Z</time>
      </trkpt>
      <trkpt lat="47.42283" lon="6.70702">
        <ele>454.826</ele>
        <time>2018-01-07T09:34:06Z</time>
      </trkpt>
      <trkpt lat="47.42249" lon="6.70631">
        <ele>455.494</ele>
        <time>2018-01-07T09:34:11Z</time>
      </trkpt>
      <trkpt lat="47.42228" lon="6.70565">
        <ele>455.964</ele>
        <time>2018-01-07T09:34:16Z</time>
      </trkpt>
      <trkpt lat="47.42225" lon="6.70495">
        <ele>454.313</ele>
        <time>2018-01-07T09:34:21Z</time>
      </trkpt>
      <trkpt lat="47.42223" lon="6.70439">
        <ele>450.776</ele>
        <time>2018-01-07T09:34:26Z</time>
      </trkpt>
      <trkpt lat="47.4222" lon="6.70386">
        <ele>452.922</ele>
        <time>2018-01-07T09:34:31Z</time>
      </trkpt>
      <trkpt lat="47.42219" lon="6.70326">
        <ele>450.389</ele>
        <time>2018-01-07T09:34:36Z</time>
      </trkpt>
      <trkpt lat="47.42222" lon="6.70263">
        <ele>447.319</ele>
        <time>2018-01-07T09:34:41Z</time>
      </trkpt>
      <trkpt lat="47.42223" lon="6.70191">
        <ele>448.854</ele>
        <time>2018-01-07T09:34:46Z</time>
      </trkpt>
      <trkpt lat="47.42233" lon="6.70123">
        <ele>447.772</ele>
        <time>2018-01-07T09:34:51Z</time>
      </trkpt>
      <trkpt lat="47.42247" lon="6.70053">
        <ele>447.199</ele>
        <time>2018-01-07T09:34:57Z</time>
      </trkpt>
      <trkpt lat="47.4225" lon="6.70016">
        <ele>445.155</ele>
        <time>2018-01-07T09:35:02Z</time>
      </trkpt>
      <trkpt lat="47.4225" lon="6.69963">
        <ele>434.708</ele>
        <time>2018-01-07T09:35:07Z</time>
      </trkpt>
      <trkpt lat="47.42246" lon="6.69901">
        <ele>429.721</ele>
        <time>2018-01-07T09:35:12Z</time>
      </trkpt>
      <trkpt lat="47.42236" lon="6.69846">
        <ele>428.534</ele>
        <time>2018-01-07T09:35:17Z</time>
      </trkpt>
      <trkpt lat="47.42219" lon="6.6981">
        <ele>423.902</ele>
        <time>2018-01-07T09:35:22Z</time>
      </trkpt>
      <trkpt lat="47.42187" lon="6.69825">
        <ele>423.725</ele>
        <time>2018-01-07T09:35:27Z</time>
      </trkpt>
      <trkpt lat="47.42154" lon="6.69859">
        <ele>423.699</ele>
        <time>2018-01-07T09:35:32Z</time>
      </trkpt>
      <trkpt lat="47.4213" lon="6.69878">
        <ele>414.36</ele>
        <time>2018-01-07T09:35:37Z</time>
      </trkpt>
      <trkpt lat="47.42117" lon="6.69882">
        <ele>411.137</ele>
        <time>2018-01-07T09:35:42Z</time>
      </trkpt>
      <trkpt lat="47.42107" lon="6.69894">
        <ele>412.58</ele>
        <time>2018-01-07T09:35:47Z</time>
      </trkpt>
      <trkpt lat="47.42098" lon="6.69905">
        <ele>413.821</ele>
        <time>2018-01-07T09:35:52Z</time>
      </trkpt>
      <trkpt lat="47.42088" lon="6.69912">
        <ele>414.078</ele>
        <time>2018-01-07T09:35:57Z</time>
      </trkpt>
      <trkpt lat="47.42076" lon="6.69916">
        <ele>414.137</ele>
        <time>2018-01-07T09:36:02Z</time>
      </trkpt>
      <trkpt lat="47.42066" lon="6.69917">
        <ele>414.114</ele>
        <time>2018-01-07T09:36:07Z</time>
      </trkpt>
      <trkpt lat="47.42058" lon="6.69919">
        <ele>414.051</ele>
        <time>2018-01-07T09:36:12Z</time>
      </trkpt>
      <trkpt lat="47.41999" lon="6.69963">
        <ele>412.869</ele>
        <time>2018-01-07T09:36:42Z</time>
      </trkpt>
      <trkpt lat="47.41982" lon="6.69976">
        <ele>412.481</ele>
        <time>2018-01-07T09:36:47Z</time>
      </trkpt>
      <trkpt lat="47.41845" lon="6.69994">
        <ele>410.337</ele>
        <time>2018-01-07T09:37:07Z</time>
      </trkpt>
      <trkpt lat="47.41824" lon="6.70002">
        <ele>409.179</ele>
        <time>2018-01-07T09:37:12Z</time>
      </trkpt>
      <trkpt lat="47.41797" lon="6.70008">
        <ele>405.674</ele>
        <time>2018-01-07T09:37:17Z</time>
      </trkpt>
      <trkpt lat="47.41773" lon="6.70003">
        <ele>405.819</ele>
        <time>2018-01-07T09:37:22Z</time>
      </trkpt>
      <trkpt lat="47.41752" lon="6.69995">
        <ele>405.457</ele>
        <time>2018-01-07T09:37:27Z</time>
      </trkpt>
      <trkpt lat="47.41731" lon="6.69994">
        <ele>405.193</ele>
        <time>2018-01-07T09:37:32Z</time>
      </trkpt>
      <trkpt lat="47.41711" lon="6.69992">
        <ele>407.184</ele>
        <time>2018-01-07T09:37:37Z</time>
      </trkpt>
      <trkpt lat="47.41697" lon="6.69992">
        <ele>406.562</ele>
        <time>2018-01-07T09:37:42Z</time>
      </trkpt>
      <trkpt lat="47.41669" lon="6.69996">
        <ele>407.293</ele>
        <time>2018-01-07T09:37:47Z</time>
      </trkpt>
      <trkpt lat="47.41659" lon="6.69994">
        <ele>409.057</ele>
        <time>2018-01-07T09:37:52Z</time>
      </trkpt>
      <trkpt lat="47.41646" lon="6.69995">
        <ele>408.862</ele>
        <time>2018-01-07T09:37:57Z</time>
      </trkpt>
      <trkpt lat="47.41621" lon="6.70003">
        <ele>408.389</ele>
        <time>2018-01-07T09:38:02Z</time>
      </trkpt>
      <trkpt lat="47.41609" lon="6.70012">
        <ele>407.91</ele>
        <time>2018-01-07T09:38:07Z</time>
      </trkpt>
      <trkpt lat="47.41599" lon="6.70027">
        <ele>407.493</ele>
        <time>2018-01-07T09:38:12Z</time>
      </trkpt>
      <trkpt lat="47.4159" lon="6.70046">
        <ele>406.726</ele>
        <time>2018-01-07T09:38:17Z</time>
      </trkpt>
      <trkpt lat="47.4158" lon="6.70065">
        <ele>405.086</ele>
        <time>2018-01-07T09:38:24Z</time>
      </trkpt>
      <trkpt lat="47.41572" lon="6.70089">
        <ele>403.503</ele>
        <time>2018-01-07T09:38:29Z</time>
      </trkpt>
      <trkpt lat="47.41563" lon="6.7011">
        <ele>402.638</ele>
        <time>2018-01-07T09:38:34Z</time>
      </trkpt>
      <trkpt lat="47.41554" lon="6.7012">
        <ele>403.566</ele>
        <time>2018-01-07T09:38:39Z</time>
      </trkpt>
      <trkpt lat="47.41539" lon="6.70134">
        <ele>404.655</ele>
        <time>2018-01-07T09:38:47Z</time>
      </trkpt>
      <trkpt lat="47.41518" lon="6.70145">
        <ele>405.456</ele>
        <time>2018-01-07T09:38:52Z</time>
      </trkpt>
      <trkpt lat="47.41501" lon="6.70142">
        <ele>412.301</ele>
        <time>2018-01-07T09:38:57Z</time>
      </trkpt>
      <trkpt lat="47.41488" lon="6.70138">
        <ele>412.931</ele>
        <time>2018-01-07T09:39:02Z</time>
      </trkpt>
      <trkpt lat="47.41479" lon="6.70129">
        <ele>415.522</ele>
        <time>2018-01-07T09:39:07Z</time>
      </trkpt>
      <trkpt lat="47.41482" lon="6.70203">
        <ele>427.66</ele>
        <time>2018-01-07T09:44:53Z</time>
      </trkpt>
      <trkpt lat="47.41476" lon="6.70201">
        <ele>425.138</ele>
        <time>2018-01-07T09:45:15Z</time>
      </trkpt>
      <trkpt lat="47.41452" lon="6.70204">
        <ele>421.888</ele>
        <time>2018-01-07T09:45:22Z</time>
      </trkpt>
      <trkpt lat="47.41421" lon="6.70265">
        <ele>404.503</ele>
        <time>2018-01-07T09:45:30Z</time>
      </trkpt>
      <trkpt lat="47.41412" lon="6.70272">
        <ele>404.247</ele>
        <time>2018-01-07T09:45:35Z</time>
      </trkpt>
      <trkpt lat="47.41398" lon="6.70321">
        <ele>406.453</ele>
        <time>2018-01-07T09:45:56Z</time>
      </trkpt>
      <trkpt lat="47.41306" lon="6.70458">
        <ele>401.794</ele>
        <time>2018-01-07T09:46:31Z</time>
      </trkpt>
      <trkpt lat="47.41048" lon="6.7084">
        <ele>397.643</ele>
        <time>2018-01-07T09:48:21Z</time>
      </trkpt>
      <trkpt lat="47.4104" lon="6.70872">
        <ele>397.242</ele>
        <time>2018-01-07T09:48:27Z</time>
      </trkpt>
      <trkpt lat="47.41039" lon="6.70898">
        <ele>396.918</ele>
        <time>2018-01-07T09:48:32Z</time>
      </trkpt>
      <trkpt lat="47.41047" lon="6.70932">
        <ele>397.147</ele>
        <time>2018-01-07T09:48:37Z</time>
      </trkpt>
      <trkpt lat="47.4106" lon="6.70963">
        <ele>397.421</ele>
        <time>2018-01-07T09:48:42Z</time>
      </trkpt>
      <trkpt lat="47.41065" lon="6.7099">
        <ele>397.49</ele>
        <time>2018-01-07T09:48:48Z</time>
      </trkpt>
      <trkpt lat="47.41056" lon="6.71017">
        <ele>399.064</ele>
        <time>2018-01-07T09:49:02Z</time>
      </trkpt>
      <trkpt lat="47.41045" lon="6.71046">
        <ele>400.696</ele>
        <time>2018-01-07T09:49:09Z</time>
      </trkpt>
      <trkpt lat="47.41042" lon="6.71069">
        <ele>401.153</ele>
        <time>2018-01-07T09:49:15Z</time>
      </trkpt>
      <trkpt lat="47.41034" lon="6.71093">
        <ele>401.645</ele>
        <time>2018-01-07T09:49:20Z</time>
      </trkpt>
      <trkpt lat="47.41024" lon="6.71123">
        <ele>407.126</ele>
        <time>2018-01-07T09:49:25Z</time>
      </trkpt>
      <trkpt lat="47.41021" lon="6.71152">
        <ele>407.26</ele>
        <time>2018-01-07T09:49:30Z</time>
      </trkpt>
      <trkpt lat="47.41013" lon="6.71181">
        <ele>407.024</ele>
        <time>2018-01-07T09:49:35Z</time>
      </trkpt>
      <trkpt lat="47.41007" lon="6.71213">
        <ele>406.994</ele>
        <time>2018-01-07T09:49:40Z</time>
      </trkpt>
      <trkpt lat="47.41002" lon="6.71246">
        <ele>406.679</ele>
        <time>2018-01-07T09:49:46Z</time>
      </trkpt>
      <trkpt lat="47.40989" lon="6.71299">
        <ele>404.592</ele>
        <time>2018-01-07T09:49:58Z</time>
      </trkpt>
      <trkpt lat="47.40979" lon="6.71457">
        <ele>405.421</ele>
        <time>2018-01-07T09:50:39Z</time>
      </trkpt>
      <trkpt lat="47.4099" lon="6.71502">
        <ele>405.244</ele>
        <time>2018-01-07T09:50:53Z</time>
      </trkpt>
      <trkpt lat="47.40957" lon="6.71718">
        <ele>405.037</ele>
        <time>2018-01-07T09:51:44Z</time>
      </trkpt>
      <trkpt lat="47.40935" lon="6.71741">
        <ele>405.844</ele>
        <time>2018-01-07T09:51:52Z</time>
      </trkpt>
      <trkpt lat="47.40843" lon="6.71843">
        <ele>406.558</ele>
        <time>2018-01-07T09:52:26Z</time>
      </trkpt>
      <trkpt lat="47.40742" lon="6.71949">
        <ele>410.003</ele>
        <time>2018-01-07T09:53:19Z</time>
      </trkpt>
      <trkpt lat="47.40732" lon="6.71928">
        <ele>409.693</ele>
        <time>2018-01-07T09:53:26Z</time>
      </trkpt>
      <trkpt lat="47.40728" lon="6.71919">
        <ele>409.484</ele>
        <time>2018-01-07T09:53:31Z</time>
      </trkpt>
      <trkpt lat="47.40717" lon="6.71911">
        <ele>409.826</ele>
        <time>2018-01-07T09:53:36Z</time>
      </trkpt>
      <trkpt lat="47.40713" lon="6.71911">
        <ele>410.437</ele>
        <time>2018-01-07T09:53:45Z</time>
      </trkpt>
      <trkpt lat="47.40121" lon="6.71946">
        <ele>543.241</ele>
        <time>2018-01-07T10:07:08Z</time>
      </trkpt>
      <trkpt lat="47.39936" lon="6.71926">
        <ele>525.404</ele>
        <time>2018-01-07T10:08:47Z</time>
      </trkpt>
      <trkpt lat="47.39923" lon="6.71929">
        <ele>526.845</ele>
        <time>2018-01-07T10:08:55Z</time>
      </trkpt>
      <trkpt lat="47.39917" lon="6.71939">
        <ele>528.259</ele>
        <time>2018-01-07T10:09:00Z</time>
      </trkpt>
      <trkpt lat="47.39915" lon="6.71941">
        <ele>529.905</ele>
        <time>2018-01-07T10:09:05Z</time>
      </trkpt>
      <trkpt lat="47.39916" lon="6.71929">
        <ele>532.872</ele>
        <time>2018-01-07T10:09:12Z</time>
      </trkpt>
      <trkpt lat="47.39909" lon="6.71925">
        <ele>534.884</ele>
        <time>2018-01-07T10:09:17Z</time>
      </trkpt>
      <trkpt lat="47.39898" lon="6.71921">
        <ele>536.957</ele>
        <time>2018-01-07T10:09:24Z</time>
      </trkpt>
      <trkpt lat="47.39888" lon="6.7192">
        <ele>538.019</ele>
        <time>2018-01-07T10:09:30Z</time>
      </trkpt>
      <trkpt lat="47.39883" lon="6.71919">
        <ele>537.705</ele>
        <time>2018-01-07T10:09:35Z</time>
      </trkpt>
      <trkpt lat="47.39877" lon="6.71918">
        <ele>537.771</ele>
        <time>2018-01-07T10:09:40Z</time>
      </trkpt>
      <trkpt lat="47.39864" lon="6.71912">
        <ele>540.561</ele>
        <time>2018-01-07T10:09:51Z</time>
      </trkpt>
      <trkpt lat="47.39847" lon="6.71886">
        <ele>541.392</ele>
        <time>2018-01-07T10:10:00Z</time>
      </trkpt>
      <trkpt lat="47.3984" lon="6.71888">
        <ele>541.092</ele>
        <time>2018-01-07T10:10:05Z</time>
      </trkpt>
      <trkpt lat="47.39833" lon="6.71888">
        <ele>541.764</ele>
        <time>2018-01-07T10:10:15Z</time>
      </trkpt>
      <trkpt lat="47.3977" lon="6.7184">
        <ele>543.466</ele>
        <time>2018-01-07T10:10:53Z</time>
      </trkpt>
      <trkpt lat="47.39751" lon="6.71829">
        <ele>544.328</ele>
        <time>2018-01-07T10:11:03Z</time>
      </trkpt>
      <trkpt lat="47.39742" lon="6.71826">
        <ele>545.867</ele>
        <time>2018-01-07T10:11:08Z</time>
      </trkpt>
      <trkpt lat="47.39729" lon="6.7182">
        <ele>547.15</ele>
        <time>2018-01-07T10:11:14Z</time>
      </trkpt>
      <trkpt lat="47.39713" lon="6.71813">
        <ele>547.45</ele>
        <time>2018-01-07T10:11:19Z</time>
      </trkpt>
      <trkpt lat="47.39703" lon="6.71805">
        <ele>548.13</ele>
        <time>2018-01-07T10:11:24Z</time>
      </trkpt>
      <trkpt lat="47.39694" lon="6.71802">
        <ele>548.71</ele>
        <time>2018-01-07T10:11:29Z</time>
      </trkpt>
      <trkpt lat="47.39683" lon="6.71808">
        <ele>549.229</ele>
        <time>2018-01-07T10:11:34Z</time>
      </trkpt>
      <trkpt lat="47.39673" lon="6.71821">
        <ele>550.044</ele>
        <time>2018-01-07T10:11:39Z</time>
      </trkpt>
      <trkpt lat="47.3966" lon="6.71835">
        <ele>549.874</ele>
        <time>2018-01-07T10:11:46Z</time>
      </trkpt>
      <trkpt lat="47.3965" lon="6.71843">
        <ele>549.19</ele>
        <time>2018-01-07T10:11:51Z</time>
      </trkpt>
      <trkpt lat="47.39577" lon="6.71804">
        <ele>547.172</ele>
        <time>2018-01-07T10:12:31Z</time>
      </trkpt>
      <trkpt lat="47.39589" lon="6.71748">
        <ele>544.823</ele>
        <time>2018-01-07T10:12:48Z</time>
      </trkpt>
      <trkpt lat="47.39599" lon="6.7172">
        <ele>545.025</ele>
        <time>2018-01-07T10:12:57Z</time>
      </trkpt>
      <trkpt lat="47.39604" lon="6.71706">
        <ele>545.583</ele>
        <time>2018-01-07T10:13:02Z</time>
      </trkpt>
      <trkpt lat="47.39708" lon="6.71441">
        <ele>582.195</ele>
        <time>2018-01-07T10:18:04Z</time>
      </trkpt>
      <trkpt lat="47.39734" lon="6.71407">
        <ele>581.555</ele>
        <time>2018-01-07T10:18:09Z</time>
      </trkpt>
      <trkpt lat="47.39764" lon="6.71374">
        <ele>576.269</ele>
        <time>2018-01-07T10:18:14Z</time>
      </trkpt>
      <trkpt lat="47.39801" lon="6.71345">
        <ele>573.924</ele>
        <time>2018-01-07T10:18:19Z</time>
      </trkpt>
      <trkpt lat="47.39843" lon="6.71314">
        <ele>566.596</ele>
        <time>2018-01-07T10:18:24Z</time>
      </trkpt>
      <trkpt lat="47.39897" lon="6.71303">
        <ele>564.678</ele>
        <time>2018-01-07T10:18:29Z</time>
      </trkpt>
      <trkpt lat="47.39955" lon="6.71287">
        <ele>556.869</ele>
        <time>2018-01-07T10:18:39Z</time>
      </trkpt>
      <trkpt lat="47.39982" lon="6.7126">
        <ele>557.183</ele>
        <time>2018-01-07T10:18:44Z</time>
      </trkpt>
      <trkpt lat="47.40007" lon="6.71231">
        <ele>561.516</ele>
        <time>2018-01-07T10:18:49Z</time>
      </trkpt>
      <trkpt lat="47.4003" lon="6.71197">
        <ele>562.6</ele>
        <time>2018-01-07T10:18:54Z</time>
      </trkpt>
      <trkpt lat="47.40038" lon="6.7118">
        <ele>558.166</ele>
        <time>2018-01-07T10:19:00Z</time>
      </trkpt>
      <trkpt lat="47.40043" lon="6.71157">
        <ele>555.049</ele>
        <time>2018-01-07T10:19:05Z</time>
      </trkpt>
      <trkpt lat="47.40035" lon="6.71136">
        <ele>553.605</ele>
        <time>2018-01-07T10:19:10Z</time>
      </trkpt>
      <trkpt lat="47.4003" lon="6.71124">
        <ele>553.153</ele>
        <time>2018-01-07T10:19:15Z</time>
      </trkpt>
      <trkpt lat="47.40019" lon="6.71094">
        <ele>547.058</ele>
        <time>2018-01-07T10:19:20Z</time>
      </trkpt>
      <trkpt lat="47.40007" lon="6.71071">
        <ele>547.575</ele>
        <time>2018-01-07T10:19:25Z</time>
      </trkpt>
      <trkpt lat="47.39983" lon="6.71053">
        <ele>548.107</ele>
        <time>2018-01-07T10:19:30Z</time>
      </trkpt>
      <trkpt lat="47.3998" lon="6.71036">
        <ele>548.685</ele>
        <time>2018-01-07T10:19:35Z</time>
      </trkpt>
      <trkpt lat="47.39975" lon="6.71012">
        <ele>549.291</ele>
        <time>2018-01-07T10:19:42Z</time>
      </trkpt>
      <trkpt lat="47.39969" lon="6.70973">
        <ele>550.554</ele>
        <time>2018-01-07T10:19:47Z</time>
      </trkpt>
      <trkpt lat="47.39974" lon="6.70908">
        <ele>552.349</ele>
        <time>2018-01-07T10:19:52Z</time>
      </trkpt>
      <trkpt lat="47.39972" lon="6.70884">
        <ele>552.974</ele>
        <time>2018-01-07T10:19:57Z</time>
      </trkpt>
      <trkpt lat="47.39977" lon="6.70854">
        <ele>552.878</ele>
        <time>2018-01-07T10:20:02Z</time>
      </trkpt>
      <trkpt lat="47.39982" lon="6.70844">
        <ele>553.497</ele>
        <time>2018-01-07T10:20:07Z</time>
      </trkpt>
      <trkpt lat="47.39995" lon="6.70815">
        <ele>554.031</ele>
        <time>2018-01-07T10:20:12Z</time>
      </trkpt>
      <trkpt lat="47.40016" lon="6.70809">
        <ele>555.617</ele>
        <time>2018-01-07T10:20:17Z</time>
      </trkpt>
      <trkpt lat="47.40095" lon="6.70382">
        <ele>551.445</ele>
        <time>2018-01-07T10:21:42Z</time>
      </trkpt>
      <trkpt lat="47.40097" lon="6.70384">
        <ele>550.972</ele>
        <time>2018-01-07T10:21:47Z</time>
      </trkpt>
      <trkpt lat="47.40123" lon="6.70397">
        <ele>548.811</ele>
        <time>2018-01-07T10:21:52Z</time>
      </trkpt>
      <trkpt lat="47.40139" lon="6.70396">
        <ele>545.666</ele>
        <time>2018-01-07T10:21:57Z</time>
      </trkpt>
      <trkpt lat="47.40155" lon="6.70398">
        <ele>542.588</ele>
        <time>2018-01-07T10:22:02Z</time>
      </trkpt>
      <trkpt lat="47.40164" lon="6.704">
        <ele>540.359</ele>
        <time>2018-01-07T10:22:07Z</time>
      </trkpt>
      <trkpt lat="47.40187" lon="6.70403">
        <ele>536.908</ele>
        <time>2018-01-07T10:22:13Z</time>
      </trkpt>
      <trkpt lat="47.40221" lon="6.70411">
        <ele>537.368</ele>
        <time>2018-01-07T10:22:18Z</time>
      </trkpt>
      <trkpt lat="47.40301" lon="6.7047">
        <ele>532.782</ele>
        <time>2018-01-07T10:22:35Z</time>
      </trkpt>
      <trkpt lat="47.40335" lon="6.70528">
        <ele>529.77</ele>
        <time>2018-01-07T10:22:43Z</time>
      </trkpt>
      <trkpt lat="47.40362" lon="6.70545">
        <ele>530.24</ele>
        <time>2018-01-07T10:22:48Z</time>
      </trkpt>
      <trkpt lat="47.40391" lon="6.70566">
        <ele>528.298</ele>
        <time>2018-01-07T10:22:53Z</time>
      </trkpt>
      <trkpt lat="47.40415" lon="6.70583">
        <ele>525.235</ele>
        <time>2018-01-07T10:22:58Z</time>
      </trkpt>
      <trkpt lat="47.40442" lon="6.70611">
        <ele>514.924</ele>
        <time>2018-01-07T10:23:03Z</time>
      </trkpt>
      <trkpt lat="47.40472" lon="6.70642">
        <ele>507.953</ele>
        <time>2018-01-07T10:23:08Z</time>
      </trkpt>
      <trkpt lat="47.40518" lon="6.70673">
        <ele>512.227</ele>
        <time>2018-01-07T10:23:16Z</time>
      </trkpt>
      <trkpt lat="47.40569" lon="6.70666">
        <ele>516.663</ele>
        <time>2018-01-07T10:23:21Z</time>
      </trkpt>
      <trkpt lat="47.40603" lon="6.70647">
        <ele>517.427</ele>
        <time>2018-01-07T10:23:26Z</time>
      </trkpt>
      <trkpt lat="47.40626" lon="6.70635">
        <ele>518.298</ele>
        <time>2018-01-07T10:23:31Z</time>
      </trkpt>
      <trkpt lat="47.40649" lon="6.70623">
        <ele>520.138</ele>
        <time>2018-01-07T10:23:36Z</time>
      </trkpt>
      <trkpt lat="47.40668" lon="6.70586">
        <ele>522.636</ele>
        <time>2018-01-07T10:23:41Z</time>
      </trkpt>
      <trkpt lat="47.40679" lon="6.7055">
        <ele>520.019</ele>
        <time>2018-01-07T10:23:46Z</time>
      </trkpt>
      <trkpt lat="47.4069" lon="6.70524">
        <ele>519.153</ele>
        <time>2018-01-07T10:23:51Z</time>
      </trkpt>
      <trkpt lat="47.40701" lon="6.70508">
        <ele>518.539</ele>
        <time>2018-01-07T10:23:56Z</time>
      </trkpt>
      <trkpt lat="47.40715" lon="6.70478">
        <ele>515.655</ele>
        <time>2018-01-07T10:24:01Z</time>
      </trkpt>
      <trkpt lat="47.40725" lon="6.70442">
        <ele>512.367</ele>
        <time>2018-01-07T10:24:07Z</time>
      </trkpt>
      <trkpt lat="47.40731" lon="6.70409">
        <ele>512.45</ele>
        <time>2018-01-07T10:24:12Z</time>
      </trkpt>
      <trkpt lat="47.40736" lon="6.7038">
        <ele>505.691</ele>
        <time>2018-01-07T10:24:17Z</time>
      </trkpt>
      <trkpt lat="47.4074" lon="6.70353">
        <ele>501.427</ele>
        <time>2018-01-07T10:24:22Z</time>
      </trkpt>
      <trkpt lat="47.40746" lon="6.70334">
        <ele>501.11</ele>
        <time>2018-01-07T10:24:27Z</time>
      </trkpt>
      <trkpt lat="47.40796" lon="6.70359">
        <ele>498.78</ele>
        <time>2018-01-07T10:24:46Z</time>
      </trkpt>
      <trkpt lat="47.40819" lon="6.70359">
        <ele>489.7</ele>
        <time>2018-01-07T10:24:51Z</time>
      </trkpt>
      <trkpt lat="47.40845" lon="6.70366">
        <ele>484.077</ele>
        <time>2018-01-07T10:24:56Z</time>
      </trkpt>
      <trkpt lat="47.40871" lon="6.70373">
        <ele>478.403</ele>
        <time>2018-01-07T10:25:01Z</time>
      </trkpt>
      <trkpt lat="47.40901" lon="6.70372">
        <ele>471.783</ele>
        <time>2018-01-07T10:25:06Z</time>
      </trkpt>
      <trkpt lat="47.40913" lon="6.70366">
        <ele>471.245</ele>
        <time>2018-01-07T10:25:11Z</time>
      </trkpt>
      <trkpt lat="47.40931" lon="6.70361">
        <ele>470.496</ele>
        <time>2018-01-07T10:25:16Z</time>
      </trkpt>
      <trkpt lat="47.40948" lon="6.70363">
        <ele>469.924</ele>
        <time>2018-01-07T10:25:21Z</time>
      </trkpt>
      <trkpt lat="47.40951" lon="6.70366">
        <ele>469.697</ele>
        <time>2018-01-07T10:25:26Z</time>
      </trkpt>
      <trkpt lat="47.40913" lon="6.70425">
        <ele>463.023</ele>
        <time>2018-01-07T10:25:57Z</time>
      </trkpt>
      <trkpt lat="47.40907" lon="6.70431">
        <ele>460.749</ele>
        <time>2018-01-07T10:26:07Z</time>
      </trkpt>
      <trkpt lat="47.411" lon="6.70263">
        <ele>427.938</ele>
        <time>2018-01-07T10:29:50Z</time>
      </trkpt>
      <trkpt lat="47.41177" lon="6.70146">
        <ele>426.308</ele>
        <time>2018-01-07T10:30:20Z</time>
      </trkpt>
      <trkpt lat="47.41201" lon="6.70157">
        <ele>425.479</ele>
        <time>2018-01-07T10:30:29Z</time>
      </trkpt>
      <trkpt lat="47.41215" lon="6.70168">
        <ele>424.579</ele>
        <time>2018-01-07T10:30:39Z</time>
      </trkpt>
      <trkpt lat="47.4129" lon="6.70173">
        <ele>423.505</ele>
        <time>2018-01-07T10:31:00Z</time>
      </trkpt>
      <trkpt lat="47.41515" lon="6.70015">
        <ele>478.084</ele>
        <time>2018-01-07T10:32:12Z</time>
      </trkpt>
      <trkpt lat="47.41517" lon="6.70004">
        <ele>472.98</ele>
        <time>2018-01-07T10:32:17Z</time>
      </trkpt>
      <trkpt lat="47.41527" lon="6.6999">
        <ele>462.822</ele>
        <time>2018-01-07T10:32:24Z</time>
      </trkpt>
      <trkpt lat="47.41548" lon="6.69978">
        <ele>455.849</ele>
        <time>2018-01-07T10:32:29Z</time>
      </trkpt>
      <trkpt lat="47.41575" lon="6.69962">
        <ele>430.385</ele>
        <time>2018-01-07T10:32:34Z</time>
      </trkpt>
      <trkpt lat="47.41601" lon="6.69951">
        <ele>398.735</ele>
        <time>2018-01-07T10:32:39Z</time>
      </trkpt>
      <trkpt lat="47.41658" lon="6.69954">
        <ele>379.137</ele>
        <time>2018-01-07T10:32:47Z</time>
      </trkpt>
      <trkpt lat="47.41686" lon="6.69969">
        <ele>382.263</ele>
        <time>2018-01-07T10:32:52Z</time>
      </trkpt>
      <trkpt lat="47.417" lon="6.69991">
        <ele>384.807</ele>
        <time>2018-01-07T10:32:59Z</time>
      </trkpt>
      <trkpt lat="47.41714" lon="6.70001">
        <ele>385.845</ele>
        <time>2018-01-07T10:33:03Z</time>
      </trkpt>
      <trkpt lat="47.41791" lon="6.6999">
        <ele>396.433</ele>
        <time>2018-01-07T10:33:17Z</time>
      </trkpt>
      <trkpt lat="47.41813" lon="6.69986">
        <ele>391.797</ele>
        <time>2018-01-07T10:33:22Z</time>
      </trkpt>
      <trkpt lat="47.41834" lon="6.69976">
        <ele>392.757</ele>
        <time>2018-01-07T10:33:27Z</time>
      </trkpt>
      <trkpt lat="47.41854" lon="6.69978">
        <ele>396.709</ele>
        <time>2018-01-07T10:33:32Z</time>
      </trkpt>
      <trkpt lat="47.41872" lon="6.69967">
        <ele>398.956</ele>
        <time>2018-01-07T10:33:37Z</time>
      </trkpt>
      <trkpt lat="47.41892" lon="6.69953">
        <ele>396.563</ele>
        <time>2018-01-07T10:33:42Z</time>
      </trkpt>
      <trkpt lat="47.4192" lon="6.69944">
        <ele>396.666</ele>
        <time>2018-01-07T10:33:48Z</time>
      </trkpt>
      <trkpt lat="47.41952" lon="6.69945">
        <ele>396.537</ele>
        <time>2018-01-07T10:33:58Z</time>
      </trkpt>
      <trkpt lat="47.41988" lon="6.69942">
        <ele>403.823</ele>
        <time>2018-01-07T10:34:03Z</time>
      </trkpt>
      <trkpt lat="47.42013" lon="6.69942">
        <ele>411.177</ele>
        <time>2018-01-07T10:34:14Z</time>
      </trkpt>
      <trkpt lat="47.4208" lon="6.69932">
        <ele>400.724</ele>
        <time>2018-01-07T10:34:31Z</time>
      </trkpt>
      <trkpt lat="47.42111" lon="6.69915">
        <ele>401.558</ele>
        <time>2018-01-07T10:34:36Z</time>
      </trkpt>
      <trkpt lat="47.42146" lon="6.69889">
        <ele>403.688</ele>
        <time>2018-01-07T10:34:41Z</time>
      </trkpt>
      <trkpt lat="47.42181" lon="6.69853">
        <ele>409.094</ele>
        <time>2018-01-07T10:34:46Z</time>
      </trkpt>
      <trkpt lat="47.42204" lon="6.69843">
        <ele>409.334</ele>
        <time>2018-01-07T10:34:51Z</time>
      </trkpt>
      <trkpt lat="47.42216" lon="6.69835">
        <ele>410.085</ele>
        <time>2018-01-07T10:34:56Z</time>
      </trkpt>
      <trkpt lat="47.4223" lon="6.69831">
        <ele>410.043</ele>
        <time>2018-01-07T10:35:01Z</time>
      </trkpt>
      <trkpt lat="47.42237" lon="6.6984">
        <ele>410.563</ele>
        <time>2018-01-07T10:35:11Z</time>
      </trkpt>
      <trkpt lat="47.42254" lon="6.6985">
        <ele>410.887</ele>
        <time>2018-01-07T10:35:16Z</time>
      </trkpt>
      <trkpt lat="47.42266" lon="6.69856">
        <ele>408.96</ele>
        <time>2018-01-07T10:35:21Z</time>
      </trkpt>
      <trkpt lat="47.42338" lon="6.69859">
        <ele>406.888</ele>
        <time>2018-01-07T10:35:45Z</time>
      </trkpt>
      <trkpt lat="47.4234" lon="6.69844">
        <ele>406.758</ele>
        <time>2018-01-07T10:35:50Z</time>
      </trkpt>
      <trkpt lat="47.42343" lon="6.69821">
        <ele>407.125</ele>
        <time>2018-01-07T10:35:55Z</time>
      </trkpt>
      <trkpt lat="47.42344" lon="6.69799">
        <ele>407.774</ele>
        <time>2018-01-07T10:36:00Z</time>
      </trkpt>
      <trkpt lat="47.42344" lon="6.69786">
        <ele>408.335</ele>
        <time>2018-01-07T10:36:05Z</time>
      </trkpt>
      <trkpt lat="47.42345" lon="6.69769">
        <ele>408.415</ele>
        <time>2018-01-07T10:36:10Z</time>
      </trkpt>
      <trkpt lat="47.42344" lon="6.69752">
        <ele>407.951</ele>
        <time>2018-01-07T10:36:20Z</time>
      </trkpt>
      <trkpt lat="47.42402" lon="6.69641">
        <ele>405.346</ele>
        <time>2018-01-07T10:37:06Z</time>
      </trkpt>
      <trkpt lat="47.42408" lon="6.69633">
        <ele>405.303</ele>
        <time>2018-01-07T10:37:11Z</time>
      </trkpt>
      <trkpt lat="47.42416" lon="6.69759">
        <ele>416.38</ele>
        <time>2018-01-07T10:38:41Z</time>
      </trkpt>
      <trkpt lat="47.42413" lon="6.69775">
        <ele>417.657</ele>
        <time>2018-01-07T10:38:46Z</time>
      </trkpt>
      <trkpt lat="47.42412" lon="6.69791">
        <ele>419.293</ele>
        <time>2018-01-07T10:38:51Z</time>
      </trkpt>
      <trkpt lat="47.42408" lon="6.69812">
        <ele>420.268</ele>
        <time>2018-01-07T10:38:57Z</time>
      </trkpt>
      <trkpt lat="47.42407" lon="6.69828">
        <ele>420.595</ele>
        <time>2018-01-07T10:39:02Z</time>
      </trkpt>
      <trkpt lat="47.42408" lon="6.69846">
        <ele>420.57</ele>
        <time>2018-01-07T10:39:08Z</time>
      </trkpt>
      <trkpt lat="47.42411" lon="6.69856">
        <ele>420.351</ele>
        <time>2018-01-07T10:39:13Z</time>
      </trkpt>
      <trkpt lat="47.42416" lon="6.69881">
        <ele>419.283</ele>
        <time>2018-01-07T10:39:18Z</time>
      </trkpt>
      <trkpt lat="47.42419" lon="6.69892">
        <ele>418.586</ele>
        <time>2018-01-07T10:39:23Z</time>
      </trkpt>
      <trkpt lat="47.42431" lon="6.6992">
        <ele>418.729</ele>
        <time>2018-01-07T10:39:28Z</time>
      </trkpt>
      <trkpt lat="47.42483" lon="6.6999">
        <ele>421.641</ele>
        <time>2018-01-07T10:40:06Z</time>
      </trkpt>
      <trkpt lat="47.42491" lon="6.69997">
        <ele>421.988</ele>
        <time>2018-01-07T10:40:11Z</time>
      </trkpt>
      <trkpt lat="47.42548" lon="6.70042">
        <ele>427.599</ele>
        <time>2018-01-07T10:40:40Z</time>
      </trkpt>
      <trkpt lat="47.42564" lon="6.70048">
        <ele>429.464</ele>
        <time>2018-01-07T10:40:49Z</time>
      </trkpt>
      <trkpt lat="47.42574" lon="6.70054">
        <ele>430.897</ele>
        <time>2018-01-07T10:40:55Z</time>
      </trkpt>
      <trkpt lat="47.4259" lon="6.70063">
        <ele>433.292</ele>
        <time>2018-01-07T10:41:04Z</time>
      </trkpt>
      <trkpt lat="47.42613" lon="6.70079">
        <ele>436.25</ele>
        <time>2018-01-07T10:41:15Z</time>
      </trkpt>
      <trkpt lat="47.42625" lon="6.7009">
        <ele>437.525</ele>
        <time>2018-01-07T10:41:20Z</time>
      </trkpt>
      <trkpt lat="47.42635" lon="6.70097">
        <ele>438.165</ele>
        <time>2018-01-07T10:41:25Z</time>
      </trkpt>
      <trkpt lat="47.42644" lon="6.70106">
        <ele>439.137</ele>
        <time>2018-01-07T10:41:30Z</time>
      </trkpt>
      <trkpt lat="47.42651" lon="6.70121">
        <ele>439.744</ele>
        <time>2018-01-07T10:41:35Z</time>
      </trkpt>
      <trkpt lat="47.42659" lon="6.70134">
        <ele>440.77</ele>
        <time>2018-01-07T10:41:40Z</time>
      </trkpt>
      <trkpt lat="47.42664" lon="6.70144">
        <ele>441</ele>
        <time>2018-01-07T10:41:45Z</time>
      </trkpt>
      <trkpt lat="47.42669" lon="6.70152">
        <ele>440.752</ele>
        <time>2018-01-07T10:41:50Z</time>
      </trkpt>
      <trkpt lat="47.42676" lon="6.70164">
        <ele>440.216</ele>
        <time>2018-01-07T10:41:56Z</time>
      </trkpt>
      <trkpt lat="47.42685" lon="6.70172">
        <ele>439.936</ele>
        <time>2018-01-07T10:42:02Z</time>
      </trkpt>
      <trkpt lat="47.42707" lon="6.70172">
        <ele>440.151</ele>
        <time>2018-01-07T10:42:07Z</time>
      </trkpt>
      <trkpt lat="47.42717" lon="6.7017">
        <ele>440.674</ele>
        <time>2018-01-07T10:42:12Z</time>
      </trkpt>
      <trkpt lat="47.42725" lon="6.70172">
        <ele>441.273</ele>
        <time>2018-01-07T10:42:17Z</time>
      </trkpt>
      <trkpt lat="47.42732" lon="6.70183">
        <ele>441.465</ele>
        <time>2018-01-07T10:42:22Z</time>
      </trkpt>
      <trkpt lat="47.42744" lon="6.70197">
        <ele>441.386</ele>
        <time>2018-01-07T10:42:29Z</time>
      </trkpt>
      <trkpt lat="47.42762" lon="6.7022">
        <ele>442.594</ele>
        <time>2018-01-07T10:42:40Z</time>
      </trkpt>
      <trkpt lat="47.42787" lon="6.70266">
        <ele>449.199</ele>
        <time>2018-01-07T10:42:58Z</time>
      </trkpt>
      <trkpt lat="47.42797" lon="6.70277">
        <ele>451.341</ele>
        <time>2018-01-07T10:43:05Z</time>
      </trkpt>
      <trkpt lat="47.42804" lon="6.70282">
        <ele>452.54</ele>
        <time>2018-01-07T10:43:10Z</time>
      </trkpt>
      <trkpt lat="47.42816" lon="6.70291">
        <ele>454.239</ele>
        <time>2018-01-07T10:43:18Z</time>
      </trkpt>
      <trkpt lat="47.42829" lon="6.70297">
        <ele>455.794</ele>
        <time>2018-01-07T10:43:26Z</time>
      </trkpt>
      <trkpt lat="47.42846" lon="6.70307">
        <ele>455.925</ele>
        <time>2018-01-07T10:43:31Z</time>
      </trkpt>
      <trkpt lat="47.42856" lon="6.70321">
        <ele>455.118</ele>
        <time>2018-01-07T10:43:35Z</time>
      </trkpt>
      <trkpt lat="47.42881" lon="6.70354">
        <ele>452.566</ele>
        <time>2018-01-07T10:43:54Z</time>
      </trkpt>
      <trkpt lat="47.42881" lon="6.70365">
        <ele>452.399</ele>
        <time>2018-01-07T10:43:59Z</time>
      </trkpt>
      <trkpt lat="47.42882" lon="6.70378">
        <ele>452.74</ele>
        <time>2018-01-07T10:44:04Z</time>
      </trkpt>
      <trkpt lat="47.42885" lon="6.70396">
        <ele>453.524</ele>
        <time>2018-01-07T10:44:09Z</time>
      </trkpt>
      <trkpt lat="47.42883" lon="6.70425">
        <ele>454.496</ele>
        <time>2018-01-07T10:44:14Z</time>
      </trkpt>
      <trkpt lat="47.42873" lon="6.7045">
        <ele>455.738</ele>
        <time>2018-01-07T10:44:19Z</time>
      </trkpt>
      <trkpt lat="47.42867" lon="6.70466">
        <ele>457.635</ele>
        <time>2018-01-07T10:44:24Z</time>
      </trkpt>
      <trkpt lat="47.42864" lon="6.70474">
        <ele>458.838</ele>
        <time>2018-01-07T10:44:29Z</time>
      </trkpt>
      <trkpt lat="47.42857" lon="6.70483">
        <ele>460.045</ele>
        <time>2018-01-07T10:44:34Z</time>
      </trkpt>
      <trkpt lat="47.42851" lon="6.70491">
        <ele>461.476</ele>
        <time>2018-01-07T10:44:39Z</time>
      </trkpt>
      <trkpt lat="47.42843" lon="6.70501">
        <ele>462.976</ele>
        <time>2018-01-07T10:44:44Z</time>
      </trkpt>
      <trkpt lat="47.42835" lon="6.70514">
        <ele>464.143</ele>
        <time>2018-01-07T10:44:49Z</time>
      </trkpt>
      <trkpt lat="47.42827" lon="6.70522">
        <ele>465.115</ele>
        <time>2018-01-07T10:44:54Z</time>
      </trkpt>
      <trkpt lat="47.4282" lon="6.7053">
        <ele>466.223</ele>
        <time>2018-01-07T10:44:59Z</time>
      </trkpt>
      <trkpt lat="47.42821" lon="6.70547">
        <ele>468.934</ele>
        <time>2018-01-07T10:45:09Z</time>
      </trkpt>
      <trkpt lat="47.42828" lon="6.70561">
        <ele>469.655</ele>
        <time>2018-01-07T10:45:14Z</time>
      </trkpt>
      <trkpt lat="47.42834" lon="6.70575">
        <ele>470.38</ele>
        <time>2018-01-07T10:45:19Z</time>
      </trkpt>
      <trkpt lat="47.42841" lon="6.70587">
        <ele>470.708</ele>
        <time>2018-01-07T10:45:24Z</time>
      </trkpt>
      <trkpt lat="47.42848" lon="6.70608">
        <ele>471.043</ele>
        <time>2018-01-07T10:45:29Z</time>
      </trkpt>
      <trkpt lat="47.42855" lon="6.70622">
        <ele>471.151</ele>
        <time>2018-01-07T10:45:34Z</time>
      </trkpt>
      <trkpt lat="47.42861" lon="6.70636">
        <ele>470.869</ele>
        <time>2018-01-07T10:45:39Z</time>
      </trkpt>
      <trkpt lat="47.42867" lon="6.70652">
        <ele>471.572</ele>
        <time>2018-01-07T10:45:44Z</time>
      </trkpt>
      <trkpt lat="47.42874" lon="6.70672">
        <ele>471.863</ele>
        <time>2018-01-07T10:45:49Z</time>
      </trkpt>
      <trkpt lat="47.42882" lon="6.70686">
        <ele>472.659</ele>
        <time>2018-01-07T10:45:54Z</time>
      </trkpt>
      <trkpt lat="47.42888" lon="6.70701">
        <ele>473.733</ele>
        <time>2018-01-07T10:45:59Z</time>
      </trkpt>
      <trkpt lat="47.42896" lon="6.70712">
        <ele>474.745</ele>
        <time>2018-01-07T10:46:04Z</time>
      </trkpt>
      <trkpt lat="47.42904" lon="6.70725">
        <ele>475.725</ele>
        <time>2018-01-07T10:46:09Z</time>
      </trkpt>
      <trkpt lat="47.42912" lon="6.70739">
        <ele>476.407</ele>
        <time>2018-01-07T10:46:14Z</time>
      </trkpt>
      <trkpt lat="47.4292" lon="6.7075">
        <ele>477.056</ele>
        <time>2018-01-07T10:46:19Z</time>
      </trkpt>
      <trkpt lat="47.42928" lon="6.70766">
        <ele>477.426</ele>
        <time>2018-01-07T10:46:24Z</time>
      </trkpt>
      <trkpt lat="47.42935" lon="6.70781">
        <ele>477.307</ele>
        <time>2018-01-07T10:46:29Z</time>
      </trkpt>
      <trkpt lat="47.42942" lon="6.70795">
        <ele>477.282</ele>
        <time>2018-01-07T10:46:34Z</time>
      </trkpt>
      <trkpt lat="47.42949" lon="6.7081">
        <ele>477.33</ele>
        <time>2018-01-07T10:46:39Z</time>
      </trkpt>
      <trkpt lat="47.42952" lon="6.70823">
        <ele>478.352</ele>
        <time>2018-01-07T10:46:44Z</time>
      </trkpt>
      <trkpt lat="47.42956" lon="6.70835">
        <ele>479.388</ele>
        <time>2018-01-07T10:46:49Z</time>
      </trkpt>
      <trkpt lat="47.42961" lon="6.70852">
        <ele>479.406</ele>
        <time>2018-01-07T10:46:54Z</time>
      </trkpt>
      <trkpt lat="47.42963" lon="6.7087">
        <ele>479.509</ele>
        <time>2018-01-07T10:46:59Z</time>
      </trkpt>
      <trkpt lat="47.4297" lon="6.70888">
        <ele>479.895</ele>
        <time>2018-01-07T10:47:04Z</time>
      </trkpt>
      <trkpt lat="47.42979" lon="6.70928">
        <ele>484.878</ele>
        <time>2018-01-07T10:47:12Z</time>
      </trkpt>
      <trkpt lat="47.42989" lon="6.70955">
        <ele>488.228</ele>
        <time>2018-01-07T10:47:17Z</time>
      </trkpt>
      <trkpt lat="47.43" lon="6.70986">
        <ele>490.148</ele>
        <time>2018-01-07T10:47:22Z</time>
      </trkpt>
      <trkpt lat="47.43013" lon="6.71013">
        <ele>491.949</ele>
        <time>2018-01-07T10:47:27Z</time>
      </trkpt>
      <trkpt lat="47.4302" lon="6.7104">
        <ele>491.702</ele>
        <time>2018-01-07T10:47:32Z</time>
      </trkpt>
      <trkpt lat="47.43028" lon="6.71071">
        <ele>489.094</ele>
        <time>2018-01-07T10:47:37Z</time>
      </trkpt>
      <trkpt lat="47.43037" lon="6.71093">
        <ele>488.393</ele>
        <time>2018-01-07T10:47:42Z</time>
      </trkpt>
      <trkpt lat="47.43049" lon="6.71109">
        <ele>488.659</ele>
        <time>2018-01-07T10:47:47Z</time>
      </trkpt>
      <trkpt lat="47.4306" lon="6.71133">
        <ele>492.812</ele>
        <time>2018-01-07T10:47:52Z</time>
      </trkpt>
      <trkpt lat="47.4307" lon="6.71151">
        <ele>492.241</ele>
        <time>2018-01-07T10:47:57Z</time>
      </trkpt>
      <trkpt lat="47.4308" lon="6.71167">
        <ele>491.193</ele>
        <time>2018-01-07T10:48:02Z</time>
      </trkpt>
      <trkpt lat="47.43094" lon="6.71184">
        <ele>489.695</ele>
        <time>2018-01-07T10:48:08Z</time>
      </trkpt>
      <trkpt lat="47.431" lon="6.71192">
        <ele>488.866</ele>
        <time>2018-01-07T10:48:13Z</time>
      </trkpt>
      <trkpt lat="47.43111" lon="6.71199">
        <ele>487.839</ele>
        <time>2018-01-07T10:48:23Z</time>
      </trkpt>
      <trkpt lat="47.43121" lon="6.71209">
        <ele>486.935</ele>
        <time>2018-01-07T10:48:28Z</time>
      </trkpt>
      <trkpt lat="47.43131" lon="6.71222">
        <ele>486.582</ele>
        <time>2018-01-07T10:48:33Z</time>
      </trkpt>
      <trkpt lat="47.43142" lon="6.71233">
        <ele>485.775</ele>
        <time>2018-01-07T10:48:37Z</time>
      </trkpt>
      <trkpt lat="47.4315" lon="6.71245">
        <ele>485.142</ele>
        <time>2018-01-07T10:48:42Z</time>
      </trkpt>
      <trkpt lat="47.43157" lon="6.71257">
        <ele>484.949</ele>
        <time>2018-01-07T10:48:48Z</time>
      </trkpt>
      <trkpt lat="47.43166" lon="6.71278">
        <ele>485.205</ele>
        <time>2018-01-07T10:48:53Z</time>
      </trkpt>
      <trkpt lat="47.4317" lon="6.71298">
        <ele>485.515</ele>
        <time>2018-01-07T10:48:58Z</time>
      </trkpt>
      <trkpt lat="47.43176" lon="6.71313">
        <ele>486.244</ele>
        <time>2018-01-07T10:49:03Z</time>
      </trkpt>
      <trkpt lat="47.43183" lon="6.71329">
        <ele>487.149</ele>
        <time>2018-01-07T10:49:08Z</time>
      </trkpt>
      <trkpt lat="47.4319" lon="6.71341">
        <ele>487.596</ele>
        <time>2018-01-07T10:49:13Z</time>
      </trkpt>
      <trkpt lat="47.43197" lon="6.71358">
        <ele>487.902</ele>
        <time>2018-01-07T10:49:18Z</time>
      </trkpt>
      <trkpt lat="47.43203" lon="6.71377">
        <ele>488.362</ele>
        <time>2018-01-07T10:49:23Z</time>
      </trkpt>
      <trkpt lat="47.43208" lon="6.71391">
        <ele>488.842</ele>
        <time>2018-01-07T10:49:28Z</time>
      </trkpt>
      <trkpt lat="47.43214" lon="6.71406">
        <ele>489.346</ele>
        <time>2018-01-07T10:49:33Z</time>
      </trkpt>
      <trkpt lat="47.4322" lon="6.71416">
        <ele>489.592</ele>
        <time>2018-01-07T10:49:38Z</time>
      </trkpt>
      <trkpt lat="47.43227" lon="6.71427">
        <ele>489.434</ele>
        <time>2018-01-07T10:49:43Z</time>
      </trkpt>
      <trkpt lat="47.43236" lon="6.71435">
        <ele>489.221</ele>
        <time>2018-01-07T10:49:48Z</time>
      </trkpt>
      <trkpt lat="47.43245" lon="6.71444">
        <ele>489.448</ele>
        <time>2018-01-07T10:49:53Z</time>
      </trkpt>
      <trkpt lat="47.43259" lon="6.71463">
        <ele>490.702</ele>
        <time>2018-01-07T10:49:58Z</time>
      </trkpt>
      <trkpt lat="47.43276" lon="6.71487">
        <ele>496.906</ele>
        <time>2018-01-07T10:50:03Z</time>
      </trkpt>
      <trkpt lat="47.43294" lon="6.71519">
        <ele>498.308</ele>
        <time>2018-01-07T10:50:08Z</time>
      </trkpt>
      <trkpt lat="47.43312" lon="6.71547">
        <ele>497.787</ele>
        <time>2018-01-07T10:50:13Z</time>
      </trkpt>
      <trkpt lat="47.43332" lon="6.71577">
        <ele>495.099</ele>
        <time>2018-01-07T10:50:18Z</time>
      </trkpt>
      <trkpt lat="47.43351" lon="6.71605">
        <ele>491.453</ele>
        <time>2018-01-07T10:50:23Z</time>
      </trkpt>
      <trkpt lat="47.43371" lon="6.71628">
        <ele>495.151</ele>
        <time>2018-01-07T10:50:28Z</time>
      </trkpt>
      <trkpt lat="47.43385" lon="6.71651">
        <ele>499.188</ele>
        <time>2018-01-07T10:50:33Z</time>
      </trkpt>
      <trkpt lat="47.43401" lon="6.71673">
        <ele>496.964</ele>
        <time>2018-01-07T10:50:38Z</time>
      </trkpt>
      <trkpt lat="47.43416" lon="6.71703">
        <ele>493.888</ele>
        <time>2018-01-07T10:50:43Z</time>
      </trkpt>
      <trkpt lat="47.43429" lon="6.71724">
        <ele>486.531</ele>
        <time>2018-01-07T10:50:48Z</time>
      </trkpt>
      <trkpt lat="47.43441" lon="6.71743">
        <ele>481.942</ele>
        <time>2018-01-07T10:50:53Z</time>
      </trkpt>
      <trkpt lat="47.43449" lon="6.71771">
        <ele>481.294</ele>
        <time>2018-01-07T10:50:58Z</time>
      </trkpt>
      <trkpt lat="47.43455" lon="6.71797">
        <ele>477.129</ele>
        <time>2018-01-07T10:51:03Z</time>
      </trkpt>
      <trkpt lat="47.4346" lon="6.71821">
        <ele>476.865</ele>
        <time>2018-01-07T10:51:08Z</time>
      </trkpt>
      <trkpt lat="47.43462" lon="6.71843">
        <ele>477.372</ele>
        <time>2018-01-07T10:51:13Z</time>
      </trkpt>
      <trkpt lat="47.43468" lon="6.71864">
        <ele>477.837</ele>
        <time>2018-01-07T10:51:18Z</time>
      </trkpt>
      <trkpt lat="47.43473" lon="6.71883">
        <ele>478.699</ele>
        <time>2018-01-07T10:51:23Z</time>
      </trkpt>
      <trkpt lat="47.43479" lon="6.71905">
        <ele>480.449</ele>
        <time>2018-01-07T10:51:28Z</time>
      </trkpt>
      <trkpt lat="47.43486" lon="6.71921">
        <ele>481.339</ele>
        <time>2018-01-07T10:51:33Z</time>
      </trkpt>
      <trkpt lat="47.4349" lon="6.71941">
        <ele>481.966</ele>
        <time>2018-01-07T10:51:38Z</time>
      </trkpt>
      <trkpt lat="47.43498" lon="6.71959">
        <ele>482.784</ele>
        <time>2018-01-07T10:51:45Z</time>
      </trkpt>
      <trkpt lat="47.43502" lon="6.71971">
        <ele>483.172</ele>
        <time>2018-01-07T10:51:50Z</time>
      </trkpt>
      <trkpt lat="47.43507" lon="6.71984">
        <ele>483.895</ele>
        <time>2018-01-07T10:51:55Z</time>
      </trkpt>
      <trkpt lat="47.43512" lon="6.71998">
        <ele>484.373</ele>
        <time>2018-01-07T10:52:00Z</time>
      </trkpt>
      <trkpt lat="47.43514" lon="6.72015">
        <ele>485.535</ele>
        <time>2018-01-07T10:52:05Z</time>
      </trkpt>
      <trkpt lat="47.43517" lon="6.72031">
        <ele>486.756</ele>
        <time>2018-01-07T10:52:10Z</time>
      </trkpt>
      <trkpt lat="47.43521" lon="6.72046">
        <ele>487.288</ele>
        <time>2018-01-07T10:52:15Z</time>
      </trkpt>
      <trkpt lat="47.43525" lon="6.7206">
        <ele>488.384</ele>
        <time>2018-01-07T10:52:20Z</time>
      </trkpt>
      <trkpt lat="47.43531" lon="6.72073">
        <ele>489.672</ele>
        <time>2018-01-07T10:52:25Z</time>
      </trkpt>
      <trkpt lat="47.43538" lon="6.72088">
        <ele>491.29</ele>
        <time>2018-01-07T10:52:31Z</time>
      </trkpt>
      <trkpt lat="47.43544" lon="6.72099">
        <ele>493.145</ele>
        <time>2018-01-07T10:52:36Z</time>
      </trkpt>
      <trkpt lat="47.4355" lon="6.72115">
        <ele>495.248</ele>
        <time>2018-01-07T10:52:41Z</time>
      </trkpt>
      <trkpt lat="47.43556" lon="6.72128">
        <ele>496.52</ele>
        <time>2018-01-07T10:52:46Z</time>
      </trkpt>
      <trkpt lat="47.43561" lon="6.72142">
        <ele>497.903</ele>
        <time>2018-01-07T10:52:51Z</time>
      </trkpt>
      <trkpt lat="47.43564" lon="6.72155">
        <ele>498.595</ele>
        <time>2018-01-07T10:52:56Z</time>
      </trkpt>
      <trkpt lat="47.43569" lon="6.72165">
        <ele>498.038</ele>
        <time>2018-01-07T10:53:01Z</time>
      </trkpt>
      <trkpt lat="47.43572" lon="6.7218">
        <ele>497.135</ele>
        <time>2018-01-07T10:53:06Z</time>
      </trkpt>
      <trkpt lat="47.43575" lon="6.722">
        <ele>496.753</ele>
        <time>2018-01-07T10:53:11Z</time>
      </trkpt>
      <trkpt lat="47.4358" lon="6.72213">
        <ele>496.107</ele>
        <time>2018-01-07T10:53:16Z</time>
      </trkpt>
      <trkpt lat="47.43587" lon="6.72227">
        <ele>496.042</ele>
        <time>2018-01-07T10:53:23Z</time>
      </trkpt>
      <trkpt lat="47.43595" lon="6.72238">
        <ele>495.769</ele>
        <time>2018-01-07T10:53:29Z</time>
      </trkpt>
      <trkpt lat="47.436" lon="6.72247">
        <ele>495.873</ele>
        <time>2018-01-07T10:53:34Z</time>
      </trkpt>
      <trkpt lat="47.43607" lon="6.72262">
        <ele>496.003</ele>
        <time>2018-01-07T10:53:40Z</time>
      </trkpt>
      <trkpt lat="47.43616" lon="6.72274">
        <ele>495.476</ele>
        <time>2018-01-07T10:53:45Z</time>
      </trkpt>
      <trkpt lat="47.43621" lon="6.72286">
        <ele>495.346</ele>
        <time>2018-01-07T10:53:50Z</time>
      </trkpt>
      <trkpt lat="47.43631" lon="6.72299">
        <ele>495.433</ele>
        <time>2018-01-07T10:53:55Z</time>
      </trkpt>
      <trkpt lat="47.43639" lon="6.72311">
        <ele>496.102</ele>
        <time>2018-01-07T10:54:00Z</time>
      </trkpt>
      <trkpt lat="47.43646" lon="6.72322">
        <ele>496.606</ele>
        <time>2018-01-07T10:54:05Z</time>
      </trkpt>
      <trkpt lat="47.43652" lon="6.72335">
        <ele>497.151</ele>
        <time>2018-01-07T10:54:10Z</time>
      </trkpt>
      <trkpt lat="47.43662" lon="6.72349">
        <ele>497.398</ele>
        <time>2018-01-07T10:54:18Z</time>
      </trkpt>
      <trkpt lat="47.43671" lon="6.72345">
        <ele>497.574</ele>
        <time>2018-01-07T10:54:23Z</time>
      </trkpt>
      <trkpt lat="47.43683" lon="6.72336">
        <ele>497.305</ele>
        <time>2018-01-07T10:54:28Z</time>
      </trkpt>
      <trkpt lat="47.437" lon="6.72321">
        <ele>497.436</ele>
        <time>2018-01-07T10:54:33Z</time>
      </trkpt>
      <trkpt lat="47.43724" lon="6.72308">
        <ele>498.146</ele>
        <time>2018-01-07T10:54:38Z</time>
      </trkpt>
      <trkpt lat="47.43747" lon="6.72302">
        <ele>499.376</ele>
        <time>2018-01-07T10:54:43Z</time>
      </trkpt>
      <trkpt lat="47.43755" lon="6.72316">
        <ele>499.923</ele>
        <time>2018-01-07T10:54:48Z</time>
      </trkpt>
      <trkpt lat="47.43763" lon="6.72337">
        <ele>499.918</ele>
        <time>2018-01-07T10:54:53Z</time>
      </trkpt>
      <trkpt lat="47.43773" lon="6.72356">
        <ele>499.822</ele>
        <time>2018-01-07T10:54:58Z</time>
      </trkpt>
      <trkpt lat="47.43786" lon="6.72366">
        <ele>499.919</ele>
        <time>2018-01-07T10:55:03Z</time>
      </trkpt>
      <trkpt lat="47.43797" lon="6.72375">
        <ele>499.984</ele>
        <time>2018-01-07T10:55:08Z</time>
      </trkpt>
      <trkpt lat="47.43809" lon="6.7239">
        <ele>499.744</ele>
        <time>2018-01-07T10:55:13Z</time>
      </trkpt>
      <trkpt lat="47.43822" lon="6.72413">
        <ele>499.251</ele>
        <time>2018-01-07T10:55:18Z</time>
      </trkpt>
      <trkpt lat="47.43835" lon="6.72429">
        <ele>498.971</ele>
        <time>2018-01-07T10:55:23Z</time>
      </trkpt>
      <trkpt lat="47.43851" lon="6.72442">
        <ele>498.568</ele>
        <time>2018-01-07T10:55:28Z</time>
      </trkpt>
      <trkpt lat="47.43868" lon="6.72456">
        <ele>497.394</ele>
        <time>2018-01-07T10:55:33Z</time>
      </trkpt>
      <trkpt lat="47.43886" lon="6.72469">
        <ele>496.184</ele>
        <time>2018-01-07T10:55:38Z</time>
      </trkpt>
      <trkpt lat="47.43903" lon="6.72473">
        <ele>495.813</ele>
        <time>2018-01-07T10:55:43Z</time>
      </trkpt>
      <trkpt lat="47.43918" lon="6.72476">
        <ele>495.334</ele>
        <time>2018-01-07T10:55:48Z</time>
      </trkpt>
      <trkpt lat="47.43936" lon="6.72484">
        <ele>495.02</ele>
        <time>2018-01-07T10:55:53Z</time>
      </trkpt>
      <trkpt lat="47.43954" lon="6.72487">
        <ele>495.592</ele>
        <time>2018-01-07T10:55:58Z</time>
      </trkpt>
      <trkpt lat="47.4397" lon="6.72484">
        <ele>495.731</ele>
        <time>2018-01-07T10:56:04Z</time>
      </trkpt>
      <trkpt lat="47.43985" lon="6.72483">
        <ele>495.443</ele>
        <time>2018-01-07T10:56:09Z</time>
      </trkpt>
      <trkpt lat="47.43997" lon="6.72481">
        <ele>495.529</ele>
        <time>2018-01-07T10:56:14Z</time>
      </trkpt>
      <trkpt lat="47.44011" lon="6.72471">
        <ele>495.914</ele>
        <time>2018-01-07T10:56:19Z</time>
      </trkpt>
      <trkpt lat="47.4403" lon="6.72465">
        <ele>496.697</ele>
        <time>2018-01-07T10:56:24Z</time>
      </trkpt>
      <trkpt lat="47.44051" lon="6.72458">
        <ele>498.019</ele>
        <time>2018-01-07T10:56:29Z</time>
      </trkpt>
      <trkpt lat="47.44074" lon="6.7245">
        <ele>499.552</ele>
        <time>2018-01-07T10:56:34Z</time>
      </trkpt>
      <trkpt lat="47.44091" lon="6.72447">
        <ele>500.26</ele>
        <time>2018-01-07T10:56:40Z</time>
      </trkpt>
      <trkpt lat="47.44323" lon="6.72386">
        <ele>505.922</ele>
        <time>2018-01-07T10:57:58Z</time>
      </trkpt>
      <trkpt lat="47.44347" lon="6.72385">
        <ele>506.275</ele>
        <time>2018-01-07T10:58:07Z</time>
      </trkpt>
      <trkpt lat="47.44375" lon="6.72375">
        <ele>505.323</ele>
        <time>2018-01-07T10:58:12Z</time>
      </trkpt>
      <trkpt lat="47.44398" lon="6.72371">
        <ele>506.658</ele>
        <time>2018-01-07T10:58:17Z</time>
      </trkpt>
      <trkpt lat="47.44417" lon="6.72367">
        <ele>505.574</ele>
        <time>2018-01-07T10:58:22Z</time>
      </trkpt>
      <trkpt lat="47.44442" lon="6.72361">
        <ele>502.144</ele>
        <time>2018-01-07T10:58:27Z</time>
      </trkpt>
      <trkpt lat="47.44493" lon="6.72353">
        <ele>498.238</ele>
        <time>2018-01-07T10:58:37Z</time>
      </trkpt>
      <trkpt lat="47.44545" lon="6.7235">
        <ele>501.19</ele>
        <time>2018-01-07T10:58:44Z</time>
      </trkpt>
      <trkpt lat="47.44614" lon="6.72329">
        <ele>507.456</ele>
        <time>2018-01-07T10:59:03Z</time>
      </trkpt>
      <trkpt lat="47.44631" lon="6.72328">
        <ele>507.07</ele>
        <time>2018-01-07T10:59:08Z</time>
      </trkpt>
      <trkpt lat="47.4465" lon="6.72324">
        <ele>505.466</ele>
        <time>2018-01-07T10:59:13Z</time>
      </trkpt>
      <trkpt lat="47.44665" lon="6.72316">
        <ele>505.079</ele>
        <time>2018-01-07T10:59:18Z</time>
      </trkpt>
      <trkpt lat="47.44678" lon="6.72309">
        <ele>504.678</ele>
        <time>2018-01-07T10:59:23Z</time>
      </trkpt>
      <trkpt lat="47.44691" lon="6.72299">
        <ele>504.809</ele>
        <time>2018-01-07T10:59:28Z</time>
      </trkpt>
      <trkpt lat="47.44708" lon="6.72288">
        <ele>504.45</ele>
        <time>2018-01-07T10:59:33Z</time>
      </trkpt>
      <trkpt lat="47.44733" lon="6.72274">
        <ele>511.212</ele>
        <time>2018-01-07T10:59:38Z</time>
      </trkpt>
      <trkpt lat="47.4476" lon="6.72268">
        <ele>511.46</ele>
        <time>2018-01-07T10:59:43Z</time>
      </trkpt>
      <trkpt lat="47.44807" lon="6.72256">
        <ele>503.903</ele>
        <time>2018-01-07T10:59:50Z</time>
      </trkpt>
      <trkpt lat="47.44846" lon="6.7225">
        <ele>505.311</ele>
        <time>2018-01-07T10:59:55Z</time>
      </trkpt>
      <trkpt lat="47.44889" lon="6.72254">
        <ele>504.952</ele>
        <time>2018-01-07T11:00:00Z</time>
      </trkpt>
      <trkpt lat="47.44981" lon="6.72358">
        <ele>496.71</ele>
        <time>2018-01-07T11:00:08Z</time>
      </trkpt>
      <trkpt lat="47.45011" lon="6.72397">
        <ele>498.114</ele>
        <time>2018-01-07T11:00:13Z</time>
      </trkpt>
      <trkpt lat="47.45049" lon="6.72424">
        <ele>498.907</ele>
        <time>2018-01-07T11:00:21Z</time>
      </trkpt>
      <trkpt lat="47.45071" lon="6.72445">
        <ele>498.766</ele>
        <time>2018-01-07T11:00:26Z</time>
      </trkpt>
      <trkpt lat="47.45088" lon="6.72464">
        <ele>498.043</ele>
        <time>2018-01-07T11:00:31Z</time>
      </trkpt>
      <trkpt lat="47.45106" lon="6.72475">
        <ele>497.787</ele>
        <time>2018-01-07T11:00:36Z</time>
      </trkpt>
      <trkpt lat="47.45125" lon="6.72483">
        <ele>497.512</ele>
        <time>2018-01-07T11:00:41Z</time>
      </trkpt>
      <trkpt lat="47.45145" lon="6.72492">
        <ele>496.65</ele>
        <time>2018-01-07T11:00:46Z</time>
      </trkpt>
      <trkpt lat="47.45165" lon="6.72517">
        <ele>496.353</ele>
        <time>2018-01-07T11:00:51Z</time>
      </trkpt>
      <trkpt lat="47.45183" lon="6.72531">
        <ele>495.574</ele>
        <time>2018-01-07T11:00:57Z</time>
      </trkpt>
      <trkpt lat="47.45202" lon="6.72544">
        <ele>495.566</ele>
        <time>2018-01-07T11:01:02Z</time>
      </trkpt>
      <trkpt lat="47.45216" lon="6.72555">
        <ele>496.207</ele>
        <time>2018-01-07T11:01:07Z</time>
      </trkpt>
      <trkpt lat="47.45229" lon="6.7256">
        <ele>496.165</ele>
        <time>2018-01-07T11:01:13Z</time>
      </trkpt>
      <trkpt lat="47.45242" lon="6.72564">
        <ele>496.089</ele>
        <time>2018-01-07T11:01:18Z</time>
      </trkpt>
      <trkpt lat="47.45307" lon="6.72618">
        <ele>497.661</ele>
        <time>2018-01-07T11:01:47Z</time>
      </trkpt>
      <trkpt lat="47.45321" lon="6.72628">
        <ele>498.443</ele>
        <time>2018-01-07T11:01:52Z</time>
      </trkpt>
      <trkpt lat="47.45335" lon="6.72645">
        <ele>498.879</ele>
        <time>2018-01-07T11:01:57Z</time>
      </trkpt>
      <trkpt lat="47.4535" lon="6.72662">
        <ele>498.758</ele>
        <time>2018-01-07T11:02:02Z</time>
      </trkpt>
      <trkpt lat="47.45363" lon="6.7268">
        <ele>498.727</ele>
        <time>2018-01-07T11:02:07Z</time>
      </trkpt>
      <trkpt lat="47.45372" lon="6.72691">
        <ele>498.466</ele>
        <time>2018-01-07T11:02:12Z</time>
      </trkpt>
      <trkpt lat="47.45387" lon="6.72706">
        <ele>498.236</ele>
        <time>2018-01-07T11:02:17Z</time>
      </trkpt>
      <trkpt lat="47.45394" lon="6.72719">
        <ele>498.25</ele>
        <time>2018-01-07T11:02:22Z</time>
      </trkpt>
      <trkpt lat="47.45428" lon="6.72731">
        <ele>496.87</ele>
        <time>2018-01-07T11:02:32Z</time>
      </trkpt>
      <trkpt lat="47.45444" lon="6.72737">
        <ele>496.324</ele>
        <time>2018-01-07T11:02:37Z</time>
      </trkpt>
      <trkpt lat="47.45443" lon="6.72754">
        <ele>496.259</ele>
        <time>2018-01-07T11:02:47Z</time>
      </trkpt>
      <trkpt lat="47.45453" lon="6.72827">
        <ele>497.603</ele>
        <time>2018-01-07T11:03:15Z</time>
      </trkpt>
      <trkpt lat="47.45459" lon="6.72844">
        <ele>497.243</ele>
        <time>2018-01-07T11:03:20Z</time>
      </trkpt>
      <trkpt lat="47.45465" lon="6.7286">
        <ele>496.178</ele>
        <time>2018-01-07T11:03:25Z</time>
      </trkpt>
      <trkpt lat="47.4547" lon="6.7287">
        <ele>495.737</ele>
        <time>2018-01-07T11:03:30Z</time>
      </trkpt>
      <trkpt lat="47.45477" lon="6.72881">
        <ele>494.958</ele>
        <time>2018-01-07T11:03:35Z</time>
      </trkpt>
      <trkpt lat="47.45484" lon="6.72892">
        <ele>493.97</ele>
        <time>2018-01-07T11:03:40Z</time>
      </trkpt>
      <trkpt lat="47.4549" lon="6.72905">
        <ele>492.861</ele>
        <time>2018-01-07T11:03:45Z</time>
      </trkpt>
      <trkpt lat="47.45497" lon="6.72921">
        <ele>491.864</ele>
        <time>2018-01-07T11:03:50Z</time>
      </trkpt>
      <trkpt lat="47.45501" lon="6.72942">
        <ele>491.043</ele>
        <time>2018-01-07T11:03:55Z</time>
      </trkpt>
      <trkpt lat="47.45507" lon="6.72961">
        <ele>489.773</ele>
        <time>2018-01-07T11:04:00Z</time>
      </trkpt>
      <trkpt lat="47.45516" lon="6.7298">
        <ele>488.772</ele>
        <time>2018-01-07T11:04:05Z</time>
      </trkpt>
      <trkpt lat="47.45525" lon="6.73002">
        <ele>488.104</ele>
        <time>2018-01-07T11:04:10Z</time>
      </trkpt>
      <trkpt lat="47.45532" lon="6.73023">
        <ele>487.143</ele>
        <time>2018-01-07T11:04:15Z</time>
      </trkpt>
      <trkpt lat="47.45544" lon="6.73048">
        <ele>486.517</ele>
        <time>2018-01-07T11:04:20Z</time>
      </trkpt>
      <trkpt lat="47.45556" lon="6.73064">
        <ele>486.428</ele>
        <time>2018-01-07T11:04:25Z</time>
      </trkpt>
      <trkpt lat="47.45571" lon="6.73074">
        <ele>485.902</ele>
        <time>2018-01-07T11:04:30Z</time>
      </trkpt>
      <trkpt lat="47.45581" lon="6.73085">
        <ele>485.819</ele>
        <time>2018-01-07T11:04:35Z</time>
      </trkpt>
      <trkpt lat="47.45591" lon="6.73101">
        <ele>485.509</ele>
        <time>2018-01-07T11:04:40Z</time>
      </trkpt>
      <trkpt lat="47.45596" lon="6.73116">
        <ele>485.084</ele>
        <time>2018-01-07T11:04:45Z</time>
      </trkpt>
      <trkpt lat="47.45601" lon="6.73131">
        <ele>484.529</ele>
        <time>2018-01-07T11:04:50Z</time>
      </trkpt>
      <trkpt lat="47.45607" lon="6.7315">
        <ele>485.151</ele>
        <time>2018-01-07T11:04:55Z</time>
      </trkpt>
      <trkpt lat="47.45609" lon="6.73166">
        <ele>485.571</ele>
        <time>2018-01-07T11:05:00Z</time>
      </trkpt>
      <trkpt lat="47.45611" lon="6.7319">
        <ele>485.465</ele>
        <time>2018-01-07T11:05:05Z</time>
      </trkpt>
      <trkpt lat="47.4561" lon="6.73219">
        <ele>485.024</ele>
        <time>2018-01-07T11:05:10Z</time>
      </trkpt>
      <trkpt lat="47.45582" lon="6.73265">
        <ele>482.527</ele>
        <time>2018-01-07T11:05:15Z</time>
      </trkpt>
      <trkpt lat="47.45551" lon="6.73315">
        <ele>482.906</ele>
        <time>2018-01-07T11:05:22Z</time>
      </trkpt>
      <trkpt lat="47.45532" lon="6.73318">
        <ele>484.662</ele>
        <time>2018-01-07T11:05:31Z</time>
      </trkpt>
      <trkpt lat="47.45459" lon="6.73377">
        <ele>481.313</ele>
        <time>2018-01-07T11:06:02Z</time>
      </trkpt>
      <trkpt lat="47.45458" lon="6.73394">
        <ele>479.359</ele>
        <time>2018-01-07T11:06:10Z</time>
      </trkpt>
      <trkpt lat="47.45456" lon="6.73405">
        <ele>477.756</ele>
        <time>2018-01-07T11:06:15Z</time>
      </trkpt>
      <trkpt lat="47.45456" lon="6.73428">
        <ele>475.664</ele>
        <time>2018-01-07T11:06:23Z</time>
      </trkpt>
      <trkpt lat="47.45459" lon="6.73447">
        <ele>475.293</ele>
        <time>2018-01-07T11:06:28Z</time>
      </trkpt>
      <trkpt lat="47.45464" lon="6.73464">
        <ele>474.34</ele>
        <time>2018-01-07T11:06:34Z</time>
      </trkpt>
      <trkpt lat="47.45477" lon="6.73513">
        <ele>469.098</ele>
        <time>2018-01-07T11:06:44Z</time>
      </trkpt>
      <trkpt lat="47.45521" lon="6.73708">
        <ele>472.513</ele>
        <time>2018-01-07T11:07:31Z</time>
      </trkpt>
      <trkpt lat="47.45611" lon="6.73687">
        <ele>477.368</ele>
        <time>2018-01-07T11:08:33Z</time>
      </trkpt>
      <trkpt lat="47.45621" lon="6.7369">
        <ele>478.633</ele>
        <time>2018-01-07T11:08:38Z</time>
      </trkpt>
      <trkpt lat="47.4563" lon="6.73687">
        <ele>479.968</ele>
        <time>2018-01-07T11:08:43Z</time>
      </trkpt>
      <trkpt lat="47.45639" lon="6.73692">
        <ele>481.397</ele>
        <time>2018-01-07T11:08:48Z</time>
      </trkpt>
      <trkpt lat="47.4564" lon="6.73692">
        <ele>481.656</ele>
        <time>2018-01-07T11:08:53Z</time>
      </trkpt>
      <trkpt lat="47.45655" lon="6.73669">
        <ele>481.841</ele>
        <time>2018-01-07T11:09:51Z</time>
      </trkpt>
      <trkpt lat="47.45657" lon="6.73665">
        <ele>480.587</ele>
        <time>2018-01-07T11:09:57Z</time>
      </trkpt>
      <trkpt lat="47.45611" lon="6.73802">
        <ele>479.678</ele>
        <time>2018-01-07T11:10:42Z</time>
      </trkpt>
      <trkpt lat="47.45607" lon="6.7382">
        <ele>480.082</ele>
        <time>2018-01-07T11:10:47Z</time>
      </trkpt>
      <trkpt lat="47.45604" lon="6.73858">
        <ele>479.335</ele>
        <time>2018-01-07T11:10:52Z</time>
      </trkpt>
      <trkpt lat="47.45607" lon="6.73881">
        <ele>478.103</ele>
        <time>2018-01-07T11:10:57Z</time>
      </trkpt>
      <trkpt lat="47.45618" lon="6.73905">
        <ele>475.337</ele>
        <time>2018-01-07T11:11:03Z</time>
      </trkpt>
      <trkpt lat="47.45646" lon="6.73947">
        <ele>475.397</ele>
        <time>2018-01-07T11:11:12Z</time>
      </trkpt>
      <trkpt lat="47.45678" lon="6.73999">
        <ele>481.151</ele>
        <time>2018-01-07T11:11:17Z</time>
      </trkpt>
      <trkpt lat="47.45694" lon="6.74017">
        <ele>477.983</ele>
        <time>2018-01-07T11:11:24Z</time>
      </trkpt>
      <trkpt lat="47.45784" lon="6.74104">
        <ele>462.272</ele>
        <time>2018-01-07T11:11:45Z</time>
      </trkpt>
      <trkpt lat="47.46097" lon="6.74218">
        <ele>451.969</ele>
        <time>2018-01-07T11:13:52Z</time>
      </trkpt>
      <trkpt lat="47.4619" lon="6.74239">
        <ele>450.566</ele>
        <time>2018-01-07T11:14:42Z</time>
      </trkpt>
      <trkpt lat="47.46289" lon="6.74271">
        <ele>450.515</ele>
        <time>2018-01-07T11:15:12Z</time>
      </trkpt>
      <trkpt lat="47.46315" lon="6.74285">
        <ele>449.716</ele>
        <time>2018-01-07T11:15:21Z</time>
      </trkpt>
      <trkpt lat="47.46373" lon="6.74297">
        <ele>446.625</ele>
        <time>2018-01-07T11:15:57Z</time>
      </trkpt>
      <trkpt lat="47.46373" lon="6.74289">
        <ele>445.341</ele>
        <time>2018-01-07T11:16:11Z</time>
      </trkpt>
      <trkpt lat="47.46722" lon="6.74742">
        <ele>411.895</ele>
        <time>2018-01-07T11:17:49Z</time>
      </trkpt>
      <trkpt lat="47.46721" lon="6.74758">
        <ele>409.142</ele>
        <time>2018-01-07T11:18:01Z</time>
      </trkpt>
      <trkpt lat="47.46718" lon="6.74765">
        <ele>406.253</ele>
        <time>2018-01-07T11:18:11Z</time>
      </trkpt>
      <trkpt lat="47.46709" lon="6.74783">
        <ele>402.082</ele>
        <time>2018-01-07T11:18:21Z</time>
      </trkpt>
      <trkpt lat="47.46705" lon="6.7479">
        <ele>400.646</ele>
        <time>2018-01-07T11:18:26Z</time>
      </trkpt>
      <trkpt lat="47.46701" lon="6.74798">
        <ele>398.674</ele>
        <time>2018-01-07T11:18:33Z</time>
      </trkpt>
      <trkpt lat="47.46653" lon="6.74878">
        <ele>409.872</ele>
        <time>2018-01-07T11:20:25Z</time>
      </trkpt>
      <trkpt lat="47.4666" lon="6.74896">
        <ele>409.884</ele>
        <time>2018-01-07T11:20:30Z</time>
      </trkpt>
      <trkpt lat="47.46665" lon="6.74915">
        <ele>409.875</ele>
        <time>2018-01-07T11:20:35Z</time>
      </trkpt>
      <trkpt lat="47.46676" lon="6.7494">
        <ele>409.929</ele>
        <time>2018-01-07T11:20:44Z</time>
      </trkpt>
      <trkpt lat="47.46685" lon="6.74953">
        <ele>409.567</ele>
        <time>2018-01-07T11:20:50Z</time>
      </trkpt>
      <trkpt lat="47.46694" lon="6.74974">
        <ele>409.679</ele>
        <time>2018-01-07T11:20:56Z</time>
      </trkpt>
      <trkpt lat="47.46714" lon="6.75027">
        <ele>407.712</ele>
        <time>2018-01-07T11:21:14Z</time>
      </trkpt>
      <trkpt lat="47.46712" lon="6.75047">
        <ele>407.872</ele>
        <time>2018-01-07T11:21:19Z</time>
      </trkpt>
      <trkpt lat="47.46711" lon="6.75085">
        <ele>409.402</ele>
        <time>2018-01-07T11:21:34Z</time>
      </trkpt>
      <trkpt lat="47.46716" lon="6.75107">
        <ele>409.551</ele>
        <time>2018-01-07T11:21:40Z</time>
      </trkpt>
      <trkpt lat="47.46719" lon="6.75133">
        <ele>409.415</ele>
        <time>2018-01-07T11:21:45Z</time>
      </trkpt>
      <trkpt lat="47.46719" lon="6.75176">
        <ele>409.607</ele>
        <time>2018-01-07T11:21:54Z</time>
      </trkpt>
      <trkpt lat="47.46719" lon="6.7519">
        <ele>410.211</ele>
        <time>2018-01-07T11:21:59Z</time>
      </trkpt>
      <trkpt lat="47.46727" lon="6.75258">
        <ele>414.243</ele>
        <time>2018-01-07T11:22:22Z</time>
      </trkpt>
      <trkpt lat="47.46722" lon="6.75288">
        <ele>415.152</ele>
        <time>2018-01-07T11:22:32Z</time>
      </trkpt>
      <trkpt lat="47.46716" lon="6.75303">
        <ele>414.892</ele>
        <time>2018-01-07T11:22:37Z</time>
      </trkpt>
      <trkpt lat="47.46716" lon="6.75322">
        <ele>414.215</ele>
        <time>2018-01-07T11:22:44Z</time>
      </trkpt>
      <trkpt lat="47.46716" lon="6.75366">
        <ele>405.742</ele>
        <time>2018-01-07T11:22:50Z</time>
      </trkpt>
      <trkpt lat="47.46718" lon="6.75394">
        <ele>402.566</ele>
        <time>2018-01-07T11:22:55Z</time>
      </trkpt>
      <trkpt lat="47.46709" lon="6.75424">
        <ele>401.549</ele>
        <time>2018-01-07T11:23:00Z</time>
      </trkpt>
      <trkpt lat="47.46697" lon="6.75463">
        <ele>394.696</ele>
        <time>2018-01-07T11:23:05Z</time>
      </trkpt>
      <trkpt lat="47.46688" lon="6.75476">
        <ele>393.096</ele>
        <time>2018-01-07T11:23:10Z</time>
      </trkpt>
      <trkpt lat="47.46681" lon="6.7548">
        <ele>392.846</ele>
        <time>2018-01-07T11:23:16Z</time>
      </trkpt>
      <trkpt lat="47.46685" lon="6.75488">
        <ele>392.994</ele>
        <time>2018-01-07T11:23:21Z</time>
      </trkpt>
      <trkpt lat="47.4668" lon="6.75504">
        <ele>393.436</ele>
        <time>2018-01-07T11:23:26Z</time>
      </trkpt>
      <trkpt lat="47.46676" lon="6.7552">
        <ele>394.362</ele>
        <time>2018-01-07T11:23:31Z</time>
      </trkpt>
      <trkpt lat="47.4667" lon="6.75533">
        <ele>395.184</ele>
        <time>2018-01-07T11:23:36Z</time>
      </trkpt>
      <trkpt lat="47.46663" lon="6.75555">
        <ele>396.213</ele>
        <time>2018-01-07T11:23:42Z</time>
      </trkpt>
      <trkpt lat="47.46657" lon="6.75574">
        <ele>397.114</ele>
        <time>2018-01-07T11:23:47Z</time>
      </trkpt>
      <trkpt lat="47.46654" lon="6.75591">
        <ele>397.665</ele>
        <time>2018-01-07T11:23:52Z</time>
      </trkpt>
      <trkpt lat="47.46651" lon="6.7561">
        <ele>398.479</ele>
        <time>2018-01-07T11:23:57Z</time>
      </trkpt>
      <trkpt lat="47.46648" lon="6.75631">
        <ele>398.772</ele>
        <time>2018-01-07T11:24:02Z</time>
      </trkpt>
      <trkpt lat="47.46647" lon="6.75652">
        <ele>398.486</ele>
        <time>2018-01-07T11:24:07Z</time>
      </trkpt>
      <trkpt lat="47.46656" lon="6.75682">
        <ele>397.835</ele>
        <time>2018-01-07T11:24:13Z</time>
      </trkpt>
      <trkpt lat="47.46671" lon="6.75705">
        <ele>397.187</ele>
        <time>2018-01-07T11:24:18Z</time>
      </trkpt>
      <trkpt lat="47.46687" lon="6.75725">
        <ele>398.024</ele>
        <time>2018-01-07T11:24:23Z</time>
      </trkpt>
      <trkpt lat="47.46695" lon="6.75758">
        <ele>396.561</ele>
        <time>2018-01-07T11:24:28Z</time>
      </trkpt>
      <trkpt lat="47.46698" lon="6.75797">
        <ele>394.981</ele>
        <time>2018-01-07T11:24:33Z</time>
      </trkpt>
      <trkpt lat="47.46702" lon="6.75836">
        <ele>390.887</ele>
        <time>2018-01-07T11:24:38Z</time>
      </trkpt>
      <trkpt lat="47.46705" lon="6.75877">
        <ele>389.992</ele>
        <time>2018-01-07T11:24:44Z</time>
      </trkpt>
      <trkpt lat="47.46704" lon="6.75891">
        <ele>390.273</ele>
        <time>2018-01-07T11:24:49Z</time>
      </trkpt>
      <trkpt lat="47.46701" lon="6.75898">
        <ele>391.211</ele>
        <time>2018-01-07T11:24:55Z</time>
      </trkpt>
      <trkpt lat="47.46687" lon="6.7594">
        <ele>393.196</ele>
        <time>2018-01-07T11:25:31Z</time>
      </trkpt>
      <trkpt lat="47.46685" lon="6.7596">
        <ele>393.143</ele>
        <time>2018-01-07T11:25:36Z</time>
      </trkpt>
      <trkpt lat="47.46686" lon="6.75974">
        <ele>393.156</ele>
        <time>2018-01-07T11:25:44Z</time>
      </trkpt>
      <trkpt lat="47.46689" lon="6.75986">
        <ele>392.874</ele>
        <time>2018-01-07T11:25:49Z</time>
      </trkpt>
      <trkpt lat="47.46707" lon="6.76016">
        <ele>392.291</ele>
        <time>2018-01-07T11:25:56Z</time>
      </trkpt>
      <trkpt lat="47.46737" lon="6.76014">
        <ele>384.73</ele>
        <time>2018-01-07T11:26:01Z</time>
      </trkpt>
      <trkpt lat="47.46757" lon="6.76014">
        <ele>379.942</ele>
        <time>2018-01-07T11:26:08Z</time>
      </trkpt>
      <trkpt lat="47.46758" lon="6.7607">
        <ele>374.651</ele>
        <time>2018-01-07T11:26:22Z</time>
      </trkpt>
      <trkpt lat="47.46748" lon="6.76095">
        <ele>372.526</ele>
        <time>2018-01-07T11:26:27Z</time>
      </trkpt>
      <trkpt lat="47.46746" lon="6.76113">
        <ele>371.145</ele>
        <time>2018-01-07T11:26:32Z</time>
      </trkpt>
      <trkpt lat="47.46743" lon="6.76139">
        <ele>370.113</ele>
        <time>2018-01-07T11:26:38Z</time>
      </trkpt>
      <trkpt lat="47.46739" lon="6.76156">
        <ele>369.336</ele>
        <time>2018-01-07T11:26:43Z</time>
      </trkpt>
      <trkpt lat="47.46734" lon="6.76176">
        <ele>368.821</ele>
        <time>2018-01-07T11:26:48Z</time>
      </trkpt>
      <trkpt lat="47.46732" lon="6.76195">
        <ele>368.19</ele>
        <time>2018-01-07T11:26:53Z</time>
      </trkpt>
      <trkpt lat="47.4673" lon="6.76215">
        <ele>367.09</ele>
        <time>2018-01-07T11:26:58Z</time>
      </trkpt>
      <trkpt lat="47.46729" lon="6.76238">
        <ele>366.021</ele>
        <time>2018-01-07T11:27:03Z</time>
      </trkpt>
      <trkpt lat="47.46727" lon="6.76255">
        <ele>365.44</ele>
        <time>2018-01-07T11:27:08Z</time>
      </trkpt>
      <trkpt lat="47.46726" lon="6.76286">
        <ele>365.233</ele>
        <time>2018-01-07T11:27:13Z</time>
      </trkpt>
      <trkpt lat="47.46733" lon="6.76306">
        <ele>365.1</ele>
        <time>2018-01-07T11:27:18Z</time>
      </trkpt>
      <trkpt lat="47.46756" lon="6.76368">
        <ele>364.877</ele>
        <time>2018-01-07T11:27:30Z</time>
      </trkpt>
      <trkpt lat="47.46792" lon="6.76299">
        <ele>364.468</ele>
        <time>2018-01-07T11:27:36Z</time>
      </trkpt>
      <trkpt lat="47.46814" lon="6.76308">
        <ele>365.975</ele>
        <time>2018-01-07T11:27:41Z</time>
      </trkpt>
      <trkpt lat="47.46835" lon="6.76319">
        <ele>369.06</ele>
        <time>2018-01-07T11:27:46Z</time>
      </trkpt>
      <trkpt lat="47.46853" lon="6.76335">
        <ele>370.32</ele>
        <time>2018-01-07T11:27:51Z</time>
      </trkpt>
      <trkpt lat="47.46872" lon="6.7634">
        <ele>374.569</ele>
        <time>2018-01-07T11:27:56Z</time>
      </trkpt>
      <trkpt lat="47.46896" lon="6.76336">
        <ele>373.341</ele>
        <time>2018-01-07T11:28:01Z</time>
      </trkpt>
      <trkpt lat="47.46922" lon="6.76332">
        <ele>366.362</ele>
        <time>2018-01-07T11:28:06Z</time>
      </trkpt>
      <trkpt lat="47.46947" lon="6.76336">
        <ele>363.498</ele>
        <time>2018-01-07T11:28:11Z</time>
      </trkpt>
      <trkpt lat="47.46964" lon="6.76346">
        <ele>361.297</ele>
        <time>2018-01-07T11:28:16Z</time>
      </trkpt>
      <trkpt lat="47.46981" lon="6.76346">
        <ele>359.483</ele>
        <time>2018-01-07T11:28:21Z</time>
      </trkpt>
      <trkpt lat="47.47002" lon="6.76351">
        <ele>358.949</ele>
        <time>2018-01-07T11:28:26Z</time>
      </trkpt>
      <trkpt lat="47.47023" lon="6.76355">
        <ele>360.021</ele>
        <time>2018-01-07T11:28:31Z</time>
      </trkpt>
      <trkpt lat="47.47048" lon="6.76359">
        <ele>360.028</ele>
        <time>2018-01-07T11:28:36Z</time>
      </trkpt>
      <trkpt lat="47.47089" lon="6.76358">
        <ele>361.102</ele>
        <time>2018-01-07T11:28:45Z</time>
      </trkpt>
      <trkpt lat="47.47114" lon="6.76365">
        <ele>365.452</ele>
        <time>2018-01-07T11:28:50Z</time>
      </trkpt>
      <trkpt lat="47.47137" lon="6.76372">
        <ele>364.967</ele>
        <time>2018-01-07T11:28:55Z</time>
      </trkpt>
      <trkpt lat="47.47161" lon="6.76378">
        <ele>371.422</ele>
        <time>2018-01-07T11:29:00Z</time>
      </trkpt>
      <trkpt lat="47.47196" lon="6.7639">
        <ele>368.67</ele>
        <time>2018-01-07T11:29:07Z</time>
      </trkpt>
      <trkpt lat="47.47214" lon="6.76396">
        <ele>366.405</ele>
        <time>2018-01-07T11:29:12Z</time>
      </trkpt>
      <trkpt lat="47.4724" lon="6.76395">
        <ele>360.557</ele>
        <time>2018-01-07T11:29:18Z</time>
      </trkpt>
      <trkpt lat="47.47263" lon="6.76389">
        <ele>357.219</ele>
        <time>2018-01-07T11:29:23Z</time>
      </trkpt>
      <trkpt lat="47.47288" lon="6.76379">
        <ele>356.309</ele>
        <time>2018-01-07T11:29:29Z</time>
      </trkpt>
      <trkpt lat="47.47319" lon="6.76373">
        <ele>353.823</ele>
        <time>2018-01-07T11:29:34Z</time>
      </trkpt>
      <trkpt lat="47.47339" lon="6.76379">
        <ele>356.964</ele>
        <time>2018-01-07T11:29:39Z</time>
      </trkpt>
      <trkpt lat="47.47359" lon="6.7639">
        <ele>354.604</ele>
        <time>2018-01-07T11:29:44Z</time>
      </trkpt>
      <trkpt lat="47.47381" lon="6.76405">
        <ele>357.367</ele>
        <time>2018-01-07T11:29:49Z</time>
      </trkpt>
      <trkpt lat="47.47403" lon="6.76417">
        <ele>360.62</ele>
        <time>2018-01-07T11:29:54Z</time>
      </trkpt>
      <trkpt lat="47.47419" lon="6.76435">
        <ele>357.884</ele>
        <time>2018-01-07T11:29:59Z</time>
      </trkpt>
      <trkpt lat="47.47432" lon="6.76454">
        <ele>358.626</ele>
        <time>2018-01-07T11:30:04Z</time>
      </trkpt>
      <trkpt lat="47.4744" lon="6.7645">
        <ele>359.826</ele>
        <time>2018-01-07T11:30:09Z</time>
      </trkpt>
      <trkpt lat="47.47451" lon="6.7644">
        <ele>360.278</ele>
        <time>2018-01-07T11:30:14Z</time>
      </trkpt>
      <trkpt lat="47.47478" lon="6.76448">
        <ele>359.78</ele>
        <time>2018-01-07T11:30:22Z</time>
      </trkpt>
      <trkpt lat="47.47494" lon="6.76448">
        <ele>359.181</ele>
        <time>2018-01-07T11:30:27Z</time>
      </trkpt>
      <trkpt lat="47.475" lon="6.76436">
        <ele>358.154</ele>
        <time>2018-01-07T11:30:32Z</time>
      </trkpt>
      <trkpt lat="47.47504" lon="6.76408">
        <ele>356.626</ele>
        <time>2018-01-07T11:30:37Z</time>
      </trkpt>
      <trkpt lat="47.47519" lon="6.76406">
        <ele>355.657</ele>
        <time>2018-01-07T11:30:42Z</time>
      </trkpt>
      <trkpt lat="47.47498" lon="6.76405">
        <ele>347.031</ele>
        <time>2018-01-07T11:31:17Z</time>
      </trkpt>
      <trkpt lat="47.4748" lon="6.76418">
        <ele>341.945</ele>
        <time>2018-01-07T11:31:46Z</time>
      </trkpt>
      <trkpt lat="47.47472" lon="6.76425">
        <ele>340.375</ele>
        <time>2018-01-07T11:31:51Z</time>
      </trkpt>
      <trkpt lat="47.47471" lon="6.7644">
        <ele>340.018</ele>
        <time>2018-01-07T11:31:57Z</time>
      </trkpt>
      <trkpt lat="47.47456" lon="6.76446">
        <ele>339.26</ele>
        <time>2018-01-07T11:32:02Z</time>
      </trkpt>
      <trkpt lat="47.47454" lon="6.76431">
        <ele>338.782</ele>
        <time>2018-01-07T11:32:07Z</time>
      </trkpt>
      <trkpt lat="47.47457" lon="6.76398">
        <ele>338.209</ele>
        <time>2018-01-07T11:32:12Z</time>
      </trkpt>
      <trkpt lat="47.47465" lon="6.76372">
        <ele>339.532</ele>
        <time>2018-01-07T11:32:17Z</time>
      </trkpt>
      <trkpt lat="47.47472" lon="6.76338">
        <ele>344.452</ele>
        <time>2018-01-07T11:32:22Z</time>
      </trkpt>
      <trkpt lat="47.47481" lon="6.76298">
        <ele>351.214</ele>
        <time>2018-01-07T11:32:27Z</time>
      </trkpt>
      <trkpt lat="47.47499" lon="6.76268">
        <ele>351.071</ele>
        <time>2018-01-07T11:32:37Z</time>
      </trkpt>
      <trkpt lat="47.47519" lon="6.76269">
        <ele>350.35</ele>
        <time>2018-01-07T11:32:43Z</time>
      </trkpt>
      <trkpt lat="47.47532" lon="6.76286">
        <ele>349.726</ele>
        <time>2018-01-07T11:32:48Z</time>
      </trkpt>
      <trkpt lat="47.47554" lon="6.76321">
        <ele>348.467</ele>
        <time>2018-01-07T11:32:56Z</time>
      </trkpt>
      <trkpt lat="47.47562" lon="6.76335">
        <ele>348.027</ele>
        <time>2018-01-07T11:33:01Z</time>
      </trkpt>
      <trkpt lat="47.4757" lon="6.76339">
        <ele>347.747</ele>
        <time>2018-01-07T11:33:06Z</time>
      </trkpt>
      <trkpt lat="47.47572" lon="6.76339">
        <ele>348.181</ele>
        <time>2018-01-07T11:33:11Z</time>
      </trkpt>
      <trkpt lat="47.47581" lon="6.76319">
        <ele>351.437</ele>
        <time>2018-01-07T11:33:16Z</time>
      </trkpt>
      <trkpt lat="47.47592" lon="6.76299">
        <ele>353.82</ele>
        <time>2018-01-07T11:33:21Z</time>
      </trkpt>
      <trkpt lat="47.47602" lon="6.76281">
        <ele>353.77</ele>
        <time>2018-01-07T11:33:26Z</time>
      </trkpt>
      <trkpt lat="47.47621" lon="6.76259">
        <ele>361.422</ele>
        <time>2018-01-07T11:33:31Z</time>
      </trkpt>
      <trkpt lat="47.47635" lon="6.76222">
        <ele>360.929</ele>
        <time>2018-01-07T11:33:37Z</time>
      </trkpt>
      <trkpt lat="47.47644" lon="6.76197">
        <ele>364.03</ele>
        <time>2018-01-07T11:33:42Z</time>
      </trkpt>
      <trkpt lat="47.47654" lon="6.76167">
        <ele>359.431</ele>
        <time>2018-01-07T11:33:47Z</time>
      </trkpt>
      <trkpt lat="47.47665" lon="6.76147">
        <ele>349.768</ele>
        <time>2018-01-07T11:33:52Z</time>
      </trkpt>
      <trkpt lat="47.47669" lon="6.76124">
        <ele>340.677</ele>
        <time>2018-01-07T11:33:57Z</time>
      </trkpt>
      <trkpt lat="47.47673" lon="6.76096">
        <ele>339.017</ele>
        <time>2018-01-07T11:34:02Z</time>
      </trkpt>
      <trkpt lat="47.47678" lon="6.76082">
        <ele>339.794</ele>
        <time>2018-01-07T11:34:07Z</time>
      </trkpt>
      <trkpt lat="47.47693" lon="6.761">
        <ele>339.472</ele>
        <time>2018-01-07T11:34:12Z</time>
      </trkpt>
      <trkpt lat="47.47706" lon="6.76118">
        <ele>340.347</ele>
        <time>2018-01-07T11:34:17Z</time>
      </trkpt>
      <trkpt lat="47.47714" lon="6.7614">
        <ele>341.658</ele>
        <time>2018-01-07T11:34:22Z</time>
      </trkpt>
      <trkpt lat="47.47723" lon="6.76161">
        <ele>342.608</ele>
        <time>2018-01-07T11:34:27Z</time>
      </trkpt>
      <trkpt lat="47.47733" lon="6.76178">
        <ele>343.437</ele>
        <time>2018-01-07T11:34:32Z</time>
      </trkpt>
      <trkpt lat="47.47744" lon="6.76194">
        <ele>344.687</ele>
        <time>2018-01-07T11:34:37Z</time>
      </trkpt>
      <trkpt lat="47.47758" lon="6.76215">
        <ele>346.03</ele>
        <time>2018-01-07T11:34:42Z</time>
      </trkpt>
      <trkpt lat="47.4777" lon="6.76238">
        <ele>348.577</ele>
        <time>2018-01-07T11:34:47Z</time>
      </trkpt>
      <trkpt lat="47.47786" lon="6.76261">
        <ele>351.947</ele>
        <time>2018-01-07T11:34:52Z</time>
      </trkpt>
      <trkpt lat="47.47806" lon="6.76282">
        <ele>352.984</ele>
        <time>2018-01-07T11:34:57Z</time>
      </trkpt>
      <trkpt lat="47.47823" lon="6.76294">
        <ele>352.101</ele>
        <time>2018-01-07T11:35:02Z</time>
      </trkpt>
      <trkpt lat="47.47843" lon="6.76299">
        <ele>346.933</ele>
        <time>2018-01-07T11:35:07Z</time>
      </trkpt>
      <trkpt lat="47.47859" lon="6.76312">
        <ele>346.646</ele>
        <time>2018-01-07T11:35:12Z</time>
      </trkpt>
      <trkpt lat="47.4787" lon="6.76327">
        <ele>351.799</ele>
        <time>2018-01-07T11:35:17Z</time>
      </trkpt>
      <trkpt lat="47.47881" lon="6.7635">
        <ele>352.692</ele>
        <time>2018-01-07T11:35:22Z</time>
      </trkpt>
      <trkpt lat="47.47893" lon="6.76375">
        <ele>356.724</ele>
        <time>2018-01-07T11:35:27Z</time>
      </trkpt>
      <trkpt lat="47.47906" lon="6.76408">
        <ele>361.226</ele>
        <time>2018-01-07T11:35:32Z</time>
      </trkpt>
      <trkpt lat="47.4791" lon="6.76435">
        <ele>364.248</ele>
        <time>2018-01-07T11:35:37Z</time>
      </trkpt>
      <trkpt lat="47.47918" lon="6.76467">
        <ele>361.818</ele>
        <time>2018-01-07T11:35:42Z</time>
      </trkpt>
      <trkpt lat="47.47922" lon="6.76491">
        <ele>360.173</ele>
        <time>2018-01-07T11:35:47Z</time>
      </trkpt>
      <trkpt lat="47.47931" lon="6.76519">
        <ele>360.706</ele>
        <time>2018-01-07T11:35:52Z</time>
      </trkpt>
      <trkpt lat="47.47937" lon="6.76544">
        <ele>361.033</ele>
        <time>2018-01-07T11:35:57Z</time>
      </trkpt>
      <trkpt lat="47.47945" lon="6.76574">
        <ele>357.437</ele>
        <time>2018-01-07T11:36:06Z</time>
      </trkpt>
      <trkpt lat="47.47951" lon="6.76597">
        <ele>356.928</ele>
        <time>2018-01-07T11:36:11Z</time>
      </trkpt>
      <trkpt lat="47.47955" lon="6.76613">
        <ele>356.874</ele>
        <time>2018-01-07T11:36:16Z</time>
      </trkpt>
      <trkpt lat="47.47958" lon="6.76621">
        <ele>356.733</ele>
        <time>2018-01-07T11:36:21Z</time>
      </trkpt>
      <trkpt lat="47.4797" lon="6.7662">
        <ele>356.951</ele>
        <time>2018-01-07T11:36:26Z</time>
      </trkpt>
      <trkpt lat="47.47982" lon="6.7661">
        <ele>356.345</ele>
        <time>2018-01-07T11:36:31Z</time>
      </trkpt>
      <trkpt lat="47.47994" lon="6.76601">
        <ele>355.544</ele>
        <time>2018-01-07T11:36:36Z</time>
      </trkpt>
      <trkpt lat="47.48012" lon="6.76592">
        <ele>355.056</ele>
        <time>2018-01-07T11:36:41Z</time>
      </trkpt>
      <trkpt lat="47.48027" lon="6.76583">
        <ele>354.686</ele>
        <time>2018-01-07T11:36:46Z</time>
      </trkpt>
      <trkpt lat="47.48047" lon="6.76565">
        <ele>354.145</ele>
        <time>2018-01-07T11:36:51Z</time>
      </trkpt>
      <trkpt lat="47.4806" lon="6.76554">
        <ele>353.863</ele>
        <time>2018-01-07T11:36:56Z</time>
      </trkpt>
      <trkpt lat="47.48075" lon="6.76538">
        <ele>353.729</ele>
        <time>2018-01-07T11:37:01Z</time>
      </trkpt>
      <trkpt lat="47.48094" lon="6.7652">
        <ele>350.491</ele>
        <time>2018-01-07T11:37:06Z</time>
      </trkpt>
      <trkpt lat="47.4811" lon="6.7651">
        <ele>351.822</ele>
        <time>2018-01-07T11:37:11Z</time>
      </trkpt>
      <trkpt lat="47.48128" lon="6.76565">
        <ele>354.628</ele>
        <time>2018-01-07T11:37:21Z</time>
      </trkpt>
      <trkpt lat="47.48113" lon="6.766">
        <ele>353.751</ele>
        <time>2018-01-07T11:37:26Z</time>
      </trkpt>
      <trkpt lat="47.48108" lon="6.76621">
        <ele>353.035</ele>
        <time>2018-01-07T11:37:31Z</time>
      </trkpt>
      <trkpt lat="47.48114" lon="6.7665">
        <ele>351.792</ele>
        <time>2018-01-07T11:37:38Z</time>
      </trkpt>
      <trkpt lat="47.48124" lon="6.76677">
        <ele>347.446</ele>
        <time>2018-01-07T11:37:43Z</time>
      </trkpt>
      <trkpt lat="47.48137" lon="6.7671">
        <ele>349.924</ele>
        <time>2018-01-07T11:37:48Z</time>
      </trkpt>
      <trkpt lat="47.48142" lon="6.76743">
        <ele>350.951</ele>
        <time>2018-01-07T11:37:53Z</time>
      </trkpt>
      <trkpt lat="47.48151" lon="6.7677">
        <ele>350.075</ele>
        <time>2018-01-07T11:37:58Z</time>
      </trkpt>
      <trkpt lat="47.48163" lon="6.76793">
        <ele>346.144</ele>
        <time>2018-01-07T11:38:03Z</time>
      </trkpt>
      <trkpt lat="47.48174" lon="6.76815">
        <ele>345.95</ele>
        <time>2018-01-07T11:38:08Z</time>
      </trkpt>
      <trkpt lat="47.48194" lon="6.76815">
        <ele>346.101</ele>
        <time>2018-01-07T11:38:13Z</time>
      </trkpt>
      <trkpt lat="47.48215" lon="6.76812">
        <ele>345.3</ele>
        <time>2018-01-07T11:38:18Z</time>
      </trkpt>
      <trkpt lat="47.48234" lon="6.76814">
        <ele>345.045</ele>
        <time>2018-01-07T11:38:24Z</time>
      </trkpt>
      <trkpt lat="47.48252" lon="6.76829">
        <ele>345.256</ele>
        <time>2018-01-07T11:38:29Z</time>
      </trkpt>
      <trkpt lat="47.48268" lon="6.76846">
        <ele>346.79</ele>
        <time>2018-01-07T11:38:34Z</time>
      </trkpt>
      <trkpt lat="47.48282" lon="6.76869">
        <ele>348.418</ele>
        <time>2018-01-07T11:38:39Z</time>
      </trkpt>
      <trkpt lat="47.48298" lon="6.76886">
        <ele>349.469</ele>
        <time>2018-01-07T11:38:44Z</time>
      </trkpt>
      <trkpt lat="47.48311" lon="6.769">
        <ele>352.568</ele>
        <time>2018-01-07T11:38:49Z</time>
      </trkpt>
      <trkpt lat="47.48322" lon="6.76914">
        <ele>353.581</ele>
        <time>2018-01-07T11:38:54Z</time>
      </trkpt>
      <trkpt lat="47.48337" lon="6.76924">
        <ele>354.751</ele>
        <time>2018-01-07T11:38:59Z</time>
      </trkpt>
      <trkpt lat="47.4835" lon="6.76936">
        <ele>354.724</ele>
        <time>2018-01-07T11:39:04Z</time>
      </trkpt>
      <trkpt lat="47.48364" lon="6.76948">
        <ele>355.025</ele>
        <time>2018-01-07T11:39:09Z</time>
      </trkpt>
      <trkpt lat="47.48382" lon="6.76959">
        <ele>352.28</ele>
        <time>2018-01-07T11:39:14Z</time>
      </trkpt>
      <trkpt lat="47.48399" lon="6.76962">
        <ele>351.768</ele>
        <time>2018-01-07T11:39:19Z</time>
      </trkpt>
      <trkpt lat="47.48422" lon="6.76965">
        <ele>351.393</ele>
        <time>2018-01-07T11:39:24Z</time>
      </trkpt>
      <trkpt lat="47.48443" lon="6.76969">
        <ele>352.086</ele>
        <time>2018-01-07T11:39:29Z</time>
      </trkpt>
      <trkpt lat="47.4846" lon="6.7698">
        <ele>357.216</ele>
        <time>2018-01-07T11:39:34Z</time>
      </trkpt>
      <trkpt lat="47.48475" lon="6.76993">
        <ele>361.848</ele>
        <time>2018-01-07T11:39:39Z</time>
      </trkpt>
      <trkpt lat="47.48495" lon="6.77003">
        <ele>357.393</ele>
        <time>2018-01-07T11:39:44Z</time>
      </trkpt>
      <trkpt lat="47.48513" lon="6.77016">
        <ele>356.758</ele>
        <time>2018-01-07T11:39:49Z</time>
      </trkpt>
      <trkpt lat="47.48533" lon="6.77038">
        <ele>359.61</ele>
        <time>2018-01-07T11:39:56Z</time>
      </trkpt>
      <trkpt lat="47.48547" lon="6.77055">
        <ele>359.837</ele>
        <time>2018-01-07T11:40:01Z</time>
      </trkpt>
      <trkpt lat="47.48559" lon="6.77057">
        <ele>359.778</ele>
        <time>2018-01-07T11:40:09Z</time>
      </trkpt>
      <trkpt lat="47.48578" lon="6.77063">
        <ele>359.028</ele>
        <time>2018-01-07T11:40:14Z</time>
      </trkpt>
      <trkpt lat="47.48594" lon="6.77069">
        <ele>358.881</ele>
        <time>2018-01-07T11:40:19Z</time>
      </trkpt>
      <trkpt lat="47.48609" lon="6.77086">
        <ele>358.946</ele>
        <time>2018-01-07T11:40:24Z</time>
      </trkpt>
      <trkpt lat="47.48623" lon="6.77094">
        <ele>359.104</ele>
        <time>2018-01-07T11:40:29Z</time>
      </trkpt>
      <trkpt lat="47.48672" lon="6.77123">
        <ele>356.772</ele>
        <time>2018-01-07T11:40:43Z</time>
      </trkpt>
      <trkpt lat="47.48688" lon="6.77136">
        <ele>355.366</ele>
        <time>2018-01-07T11:40:49Z</time>
      </trkpt>
      <trkpt lat="47.48728" lon="6.77158">
        <ele>354.15</ele>
        <time>2018-01-07T11:41:02Z</time>
      </trkpt>
      <trkpt lat="47.48745" lon="6.77173">
        <ele>352.206</ele>
        <time>2018-01-07T11:41:07Z</time>
      </trkpt>
      <trkpt lat="47.48761" lon="6.77185">
        <ele>350.728</ele>
        <time>2018-01-07T11:41:12Z</time>
      </trkpt>
      <trkpt lat="47.4877" lon="6.77207">
        <ele>349.135</ele>
        <time>2018-01-07T11:41:17Z</time>
      </trkpt>
      <trkpt lat="47.48783" lon="6.77229">
        <ele>347.052</ele>
        <time>2018-01-07T11:41:22Z</time>
      </trkpt>
      <trkpt lat="47.48802" lon="6.77251">
        <ele>344.65</ele>
        <time>2018-01-07T11:41:27Z</time>
      </trkpt>
      <trkpt lat="47.48821" lon="6.7727">
        <ele>343.017</ele>
        <time>2018-01-07T11:41:32Z</time>
      </trkpt>
      <trkpt lat="47.48837" lon="6.77283">
        <ele>341.724</ele>
        <time>2018-01-07T11:41:38Z</time>
      </trkpt>
      <trkpt lat="47.48856" lon="6.77293">
        <ele>338.743</ele>
        <time>2018-01-07T11:41:43Z</time>
      </trkpt>
      <trkpt lat="47.48872" lon="6.77294">
        <ele>338.597</ele>
        <time>2018-01-07T11:41:48Z</time>
      </trkpt>
      <trkpt lat="47.48888" lon="6.77297">
        <ele>338.72</ele>
        <time>2018-01-07T11:41:53Z</time>
      </trkpt>
      <trkpt lat="47.48916" lon="6.77305">
        <ele>334.819</ele>
        <time>2018-01-07T11:41:58Z</time>
      </trkpt>
      <trkpt lat="47.48937" lon="6.77317">
        <ele>330.449</ele>
        <time>2018-01-07T11:42:03Z</time>
      </trkpt>
      <trkpt lat="47.48956" lon="6.77322">
        <ele>333.803</ele>
        <time>2018-01-07T11:42:08Z</time>
      </trkpt>
      <trkpt lat="47.4898" lon="6.7732">
        <ele>341.715</ele>
        <time>2018-01-07T11:42:13Z</time>
      </trkpt>
      <trkpt lat="47.49001" lon="6.77326">
        <ele>347.49</ele>
        <time>2018-01-07T11:42:18Z</time>
      </trkpt>
      <trkpt lat="47.49025" lon="6.77324">
        <ele>353.269</ele>
        <time>2018-01-07T11:42:24Z</time>
      </trkpt>
      <trkpt lat="47.49042" lon="6.77322">
        <ele>357.867</ele>
        <time>2018-01-07T11:42:29Z</time>
      </trkpt>
      <trkpt lat="47.49062" lon="6.77326">
        <ele>363.031</ele>
        <time>2018-01-07T11:42:34Z</time>
      </trkpt>
      <trkpt lat="47.49086" lon="6.77328">
        <ele>364.114</ele>
        <time>2018-01-07T11:42:39Z</time>
      </trkpt>
      <trkpt lat="47.49108" lon="6.77328">
        <ele>363.294</ele>
        <time>2018-01-07T11:42:44Z</time>
      </trkpt>
      <trkpt lat="47.49125" lon="6.77329">
        <ele>368.75</ele>
        <time>2018-01-07T11:42:49Z</time>
      </trkpt>
      <trkpt lat="47.49139" lon="6.77331">
        <ele>363.984</ele>
        <time>2018-01-07T11:42:54Z</time>
      </trkpt>
      <trkpt lat="47.49154" lon="6.77334">
        <ele>363.234</ele>
        <time>2018-01-07T11:42:59Z</time>
      </trkpt>
      <trkpt lat="47.49168" lon="6.77336">
        <ele>362.095</ele>
        <time>2018-01-07T11:43:04Z</time>
      </trkpt>
      <trkpt lat="47.49173" lon="6.77336">
        <ele>361.215</ele>
        <time>2018-01-07T11:43:09Z</time>
      </trkpt>
      <trkpt lat="47.49198" lon="6.77338">
        <ele>360.131</ele>
        <time>2018-01-07T11:45:36Z</time>
      </trkpt>
      <trkpt lat="47.49214" lon="6.77339">
        <ele>359.078</ele>
        <time>2018-01-07T11:45:41Z</time>
      </trkpt>
      <trkpt lat="47.49231" lon="6.77336">
        <ele>357.775</ele>
        <time>2018-01-07T11:45:46Z</time>
      </trkpt>
      <trkpt lat="47.49252" lon="6.77327">
        <ele>354.123</ele>
        <time>2018-01-07T11:45:51Z</time>
      </trkpt>
      <trkpt lat="47.49275" lon="6.77326">
        <ele>355.436</ele>
        <time>2018-01-07T11:45:56Z</time>
      </trkpt>
      <trkpt lat="47.49298" lon="6.77335">
        <ele>357.648</ele>
        <time>2018-01-07T11:46:01Z</time>
      </trkpt>
      <trkpt lat="47.49321" lon="6.77339">
        <ele>357.315</ele>
        <time>2018-01-07T11:46:06Z</time>
      </trkpt>
      <trkpt lat="47.49335" lon="6.77342">
        <ele>356.818</ele>
        <time>2018-01-07T11:46:11Z</time>
      </trkpt>
      <trkpt lat="47.4935" lon="6.77346">
        <ele>356.676</ele>
        <time>2018-01-07T11:46:16Z</time>
      </trkpt>
      <trkpt lat="47.49378" lon="6.77358">
        <ele>355.763</ele>
        <time>2018-01-07T11:46:26Z</time>
      </trkpt>
      <trkpt lat="47.49401" lon="6.77366">
        <ele>355.186</ele>
        <time>2018-01-07T11:46:33Z</time>
      </trkpt>
      <trkpt lat="47.49414" lon="6.77354">
        <ele>354.15</ele>
        <time>2018-01-07T11:46:39Z</time>
      </trkpt>
      <trkpt lat="47.49423" lon="6.77356">
        <ele>351.71</ele>
        <time>2018-01-07T11:46:44Z</time>
      </trkpt>
      <trkpt lat="47.49447" lon="6.77357">
        <ele>349.46</ele>
        <time>2018-01-07T11:46:49Z</time>
      </trkpt>
      <trkpt lat="47.49469" lon="6.77349">
        <ele>347.246</ele>
        <time>2018-01-07T11:46:54Z</time>
      </trkpt>
      <trkpt lat="47.4949" lon="6.77347">
        <ele>345.095</ele>
        <time>2018-01-07T11:46:59Z</time>
      </trkpt>
      <trkpt lat="47.49512" lon="6.77347">
        <ele>344.133</ele>
        <time>2018-01-07T11:47:04Z</time>
      </trkpt>
      <trkpt lat="47.49529" lon="6.77344">
        <ele>342.688</ele>
        <time>2018-01-07T11:47:09Z</time>
      </trkpt>
      <trkpt lat="47.49555" lon="6.77346">
        <ele>342.58</ele>
        <time>2018-01-07T11:47:14Z</time>
      </trkpt>
      <trkpt lat="47.49579" lon="6.77349">
        <ele>343.456</ele>
        <time>2018-01-07T11:47:19Z</time>
      </trkpt>
      <trkpt lat="47.49602" lon="6.77349">
        <ele>346.656</ele>
        <time>2018-01-07T11:47:24Z</time>
      </trkpt>
      <trkpt lat="47.49624" lon="6.77342">
        <ele>351.989</ele>
        <time>2018-01-07T11:47:29Z</time>
      </trkpt>
      <trkpt lat="47.49647" lon="6.77343">
        <ele>349.227</ele>
        <time>2018-01-07T11:47:34Z</time>
      </trkpt>
      <trkpt lat="47.4967" lon="6.77341">
        <ele>339.967</ele>
        <time>2018-01-07T11:47:39Z</time>
      </trkpt>
      <trkpt lat="47.4969" lon="6.77336">
        <ele>342.35</ele>
        <time>2018-01-07T11:47:44Z</time>
      </trkpt>
      <trkpt lat="47.49718" lon="6.77328">
        <ele>344.412</ele>
        <time>2018-01-07T11:47:50Z</time>
      </trkpt>
      <trkpt lat="47.4974" lon="6.77326">
        <ele>345.593</ele>
        <time>2018-01-07T11:47:57Z</time>
      </trkpt>
      <trkpt lat="47.4976" lon="6.77321">
        <ele>346.85</ele>
        <time>2018-01-07T11:48:02Z</time>
      </trkpt>
      <trkpt lat="47.49763" lon="6.77315">
        <ele>347.406</ele>
        <time>2018-01-07T11:48:07Z</time>
      </trkpt>
      <trkpt lat="47.49748" lon="6.77319">
        <ele>344.841</ele>
        <time>2018-01-07T11:48:46Z</time>
      </trkpt>
      <trkpt lat="47.4979" lon="6.77248">
        <ele>335.673</ele>
        <time>2018-01-07T11:49:10Z</time>
      </trkpt>
      <trkpt lat="47.49836" lon="6.77259">
        <ele>334.044</ele>
        <time>2018-01-07T11:49:15Z</time>
      </trkpt>
      <trkpt lat="47.49879" lon="6.7726">
        <ele>335.758</ele>
        <time>2018-01-07T11:49:20Z</time>
      </trkpt>
      <trkpt lat="47.49903" lon="6.77266">
        <ele>336.4</ele>
        <time>2018-01-07T11:49:25Z</time>
      </trkpt>
      <trkpt lat="47.49917" lon="6.77266">
        <ele>337.527</ele>
        <time>2018-01-07T11:49:30Z</time>
      </trkpt>
      <trkpt lat="47.49925" lon="6.77264">
        <ele>339.039</ele>
        <time>2018-01-07T11:49:35Z</time>
      </trkpt>
      <trkpt lat="47.50099" lon="6.77219">
        <ele>341.43</ele>
        <time>2018-01-07T11:50:28Z</time>
      </trkpt>
      <trkpt lat="47.50187" lon="6.77234">
        <ele>340.97</ele>
        <time>2018-01-07T11:50:43Z</time>
      </trkpt>
      <trkpt lat="47.50201" lon="6.77246">
        <ele>340.107</ele>
        <time>2018-01-07T11:50:48Z</time>
      </trkpt>
      <trkpt lat="47.50213" lon="6.77257">
        <ele>341.537</ele>
        <time>2018-01-07T11:50:53Z</time>
      </trkpt>
      <trkpt lat="47.50225" lon="6.77261">
        <ele>342.567</ele>
        <time>2018-01-07T11:50:58Z</time>
      </trkpt>
      <trkpt lat="47.50243" lon="6.77275">
        <ele>350.689</ele>
        <time>2018-01-07T11:51:03Z</time>
      </trkpt>
      <trkpt lat="47.50262" lon="6.77288">
        <ele>353.171</ele>
        <time>2018-01-07T11:51:08Z</time>
      </trkpt>
      <trkpt lat="47.5028" lon="6.77297">
        <ele>355.764</ele>
        <time>2018-01-07T11:51:13Z</time>
      </trkpt>
      <trkpt lat="47.50297" lon="6.77304">
        <ele>356.305</ele>
        <time>2018-01-07T11:51:18Z</time>
      </trkpt>
      <trkpt lat="47.50326" lon="6.7733">
        <ele>360.38</ele>
        <time>2018-01-07T11:51:24Z</time>
      </trkpt>
      <trkpt lat="47.50354" lon="6.77362">
        <ele>362.572</ele>
        <time>2018-01-07T11:51:36Z</time>
      </trkpt>
      <trkpt lat="47.50368" lon="6.77385">
        <ele>364.243</ele>
        <time>2018-01-07T11:51:41Z</time>
      </trkpt>
      <trkpt lat="47.50385" lon="6.77406">
        <ele>368.848</ele>
        <time>2018-01-07T11:51:46Z</time>
      </trkpt>
      <trkpt lat="47.50402" lon="6.77425">
        <ele>365.354</ele>
        <time>2018-01-07T11:51:51Z</time>
      </trkpt>
      <trkpt lat="47.50422" lon="6.77441">
        <ele>362.655</ele>
        <time>2018-01-07T11:51:57Z</time>
      </trkpt>
      <trkpt lat="47.50443" lon="6.77456">
        <ele>361.839</ele>
        <time>2018-01-07T11:52:02Z</time>
      </trkpt>
      <trkpt lat="47.50966" lon="6.77702">
        <ele>390.916</ele>
        <time>2018-01-07T11:54:52Z</time>
      </trkpt>
      <trkpt lat="47.50984" lon="6.77683">
        <ele>383.966</ele>
        <time>2018-01-07T11:55:08Z</time>
      </trkpt>
      <trkpt lat="47.51009" lon="6.77707">
        <ele>374.276</ele>
        <time>2018-01-07T11:55:13Z</time>
      </trkpt>
      <trkpt lat="47.51028" lon="6.77723">
        <ele>372.157</ele>
        <time>2018-01-07T11:55:19Z</time>
      </trkpt>
      <trkpt lat="47.5104" lon="6.7774">
        <ele>361.557</ele>
        <time>2018-01-07T11:55:24Z</time>
      </trkpt>
      <trkpt lat="47.51051" lon="6.77763">
        <ele>363.698</ele>
        <time>2018-01-07T11:55:29Z</time>
      </trkpt>
      <trkpt lat="47.51067" lon="6.77774">
        <ele>365.533</ele>
        <time>2018-01-07T11:55:35Z</time>
      </trkpt>
      <trkpt lat="47.51126" lon="6.77806">
        <ele>363.85</ele>
        <time>2018-01-07T11:55:56Z</time>
      </trkpt>
      <trkpt lat="47.51132" lon="6.778">
        <ele>363.428</ele>
        <time>2018-01-07T11:56:01Z</time>
      </trkpt>
      <trkpt lat="47.51145" lon="6.77798">
        <ele>362.969</ele>
        <time>2018-01-07T11:56:06Z</time>
      </trkpt>
      <trkpt lat="47.51188" lon="6.77796">
        <ele>363.895</ele>
        <time>2018-01-07T11:56:31Z</time>
      </trkpt>
      <trkpt lat="47.51191" lon="6.77792">
        <ele>364.92</ele>
        <time>2018-01-07T11:56:41Z</time>
      </trkpt>
      <trkpt lat="47.51198" lon="6.77791">
        <ele>366.046</ele>
        <time>2018-01-07T11:56:46Z</time>
      </trkpt>
      <trkpt lat="47.51214" lon="6.77786">
        <ele>366.526</ele>
        <time>2018-01-07T11:56:56Z</time>
      </trkpt>
      <trkpt lat="47.51221" lon="6.77785">
        <ele>366.654</ele>
        <time>2018-01-07T11:57:01Z</time>
      </trkpt>
      <trkpt lat="47.51228" lon="6.77782">
        <ele>366.813</ele>
        <time>2018-01-07T11:57:06Z</time>
      </trkpt>
      <trkpt lat="47.51235" lon="6.77783">
        <ele>367.145</ele>
        <time>2018-01-07T11:57:11Z</time>
      </trkpt>
      <trkpt lat="47.51243" lon="6.77784">
        <ele>367.464</ele>
        <time>2018-01-07T11:57:16Z</time>
      </trkpt>
      <trkpt lat="47.51277" lon="6.77779">
        <ele>369.846</ele>
        <time>2018-01-07T11:57:29Z</time>
      </trkpt>
      <trkpt lat="47.51284" lon="6.77784">
        <ele>370.441</ele>
        <time>2018-01-07T11:57:34Z</time>
      </trkpt>
      <trkpt lat="47.51291" lon="6.77783">
        <ele>370.137</ele>
        <time>2018-01-07T11:57:39Z</time>
      </trkpt>
      <trkpt lat="47.51295" lon="6.77781">
        <ele>370.309</ele>
        <time>2018-01-07T11:57:44Z</time>
      </trkpt>
      <trkpt lat="47.51366" lon="6.77767">
        <ele>376.379</ele>
        <time>2018-01-07T11:58:52Z</time>
      </trkpt>
      <trkpt lat="47.51419" lon="6.77741">
        <ele>380.809</ele>
        <time>2018-01-07T11:59:33Z</time>
      </trkpt>
      <trkpt lat="47.51428" lon="6.77732">
        <ele>380.034</ele>
        <time>2018-01-07T11:59:44Z</time>
      </trkpt>
      <trkpt lat="47.51434" lon="6.77732">
        <ele>380.67</ele>
        <time>2018-01-07T11:59:49Z</time>
      </trkpt>
      <trkpt lat="47.51469" lon="6.77707">
        <ele>390.148</ele>
        <time>2018-01-07T12:00:40Z</time>
      </trkpt>
      <trkpt lat="47.51486" lon="6.77668">
        <ele>386.684</ele>
        <time>2018-01-07T12:01:04Z</time>
      </trkpt>
      <trkpt lat="47.51492" lon="6.77668">
        <ele>384.634</ele>
        <time>2018-01-07T12:01:10Z</time>
      </trkpt>
      <trkpt lat="47.51577" lon="6.77749">
        <ele>381.326</ele>
        <time>2018-01-07T12:02:22Z</time>
      </trkpt>
      <trkpt lat="47.51597" lon="6.77757">
        <ele>382.392</ele>
        <time>2018-01-07T12:02:29Z</time>
      </trkpt>
      <trkpt lat="47.51606" lon="6.77758">
        <ele>384.726</ele>
        <time>2018-01-07T12:02:39Z</time>
      </trkpt>
      <trkpt lat="47.51631" lon="6.77771">
        <ele>387.109</ele>
        <time>2018-01-07T12:02:55Z</time>
      </trkpt>
      <trkpt lat="47.51631" lon="6.77771">
        <ele>387.122</ele>
        <time>2018-01-07T12:03:01Z</time>
      </trkpt>
      <trkpt lat="47.51654" lon="6.77769">
        <ele>386.546</ele>
        <time>2018-01-07T12:03:34Z</time>
      </trkpt>
      <trkpt lat="47.51671" lon="6.77687">
        <ele>390.676</ele>
        <time>2018-01-07T12:03:51Z</time>
      </trkpt>
      <trkpt lat="47.51678" lon="6.77685">
        <ele>390.78</ele>
        <time>2018-01-07T12:04:01Z</time>
      </trkpt>
      <trkpt lat="47.51686" lon="6.77705">
        <ele>390.94</ele>
        <time>2018-01-07T12:04:06Z</time>
      </trkpt>
      <trkpt lat="47.51691" lon="6.7771">
        <ele>391.874</ele>
        <time>2018-01-07T12:04:11Z</time>
      </trkpt>
      <trkpt lat="47.51712" lon="6.7762">
        <ele>410.06</ele>
        <time>2018-01-07T12:05:15Z</time>
      </trkpt>
      <trkpt lat="47.51713" lon="6.7761">
        <ele>411.664</ele>
        <time>2018-01-07T12:05:20Z</time>
      </trkpt>
      <trkpt lat="47.51717" lon="6.77599">
        <ele>413.202</ele>
        <time>2018-01-07T12:05:25Z</time>
      </trkpt>
      <trkpt lat="47.5172" lon="6.77547">
        <ele>418.09</ele>
        <time>2018-01-07T12:05:43Z</time>
      </trkpt>
      <trkpt lat="47.51721" lon="6.77532">
        <ele>419.524</ele>
        <time>2018-01-07T12:05:48Z</time>
      </trkpt>
      <trkpt lat="47.51727" lon="6.77512">
        <ele>421.207</ele>
        <time>2018-01-07T12:05:53Z</time>
      </trkpt>
      <trkpt lat="47.51733" lon="6.77494">
        <ele>422.599</ele>
        <time>2018-01-07T12:05:58Z</time>
      </trkpt>
      <trkpt lat="47.5174" lon="6.77477">
        <ele>423.836</ele>
        <time>2018-01-07T12:06:03Z</time>
      </trkpt>
      <trkpt lat="47.51749" lon="6.77481">
        <ele>424.465</ele>
        <time>2018-01-07T12:06:08Z</time>
      </trkpt>
      <trkpt lat="47.5176" lon="6.77481">
        <ele>424.932</ele>
        <time>2018-01-07T12:06:13Z</time>
      </trkpt>
      <trkpt lat="47.5177" lon="6.77483">
        <ele>425.553</ele>
        <time>2018-01-07T12:06:18Z</time>
      </trkpt>
      <trkpt lat="47.51785" lon="6.77486">
        <ele>427.012</ele>
        <time>2018-01-07T12:06:23Z</time>
      </trkpt>
      <trkpt lat="47.51805" lon="6.77495">
        <ele>431.586</ele>
        <time>2018-01-07T12:06:28Z</time>
      </trkpt>
      <trkpt lat="47.51808" lon="6.77487">
        <ele>432.089</ele>
        <time>2018-01-07T12:06:33Z</time>
      </trkpt>
      <trkpt lat="47.51799" lon="6.77477">
        <ele>432.893</ele>
        <time>2018-01-07T12:06:38Z</time>
      </trkpt>
      <trkpt lat="47.51789" lon="6.77495">
        <ele>432.907</ele>
        <time>2018-01-07T12:06:43Z</time>
      </trkpt>
      <trkpt lat="47.51788" lon="6.77507">
        <ele>433.289</ele>
        <time>2018-01-07T12:06:48Z</time>
      </trkpt>
      <trkpt lat="47.51785" lon="6.77514">
        <ele>433.658</ele>
        <time>2018-01-07T12:06:53Z</time>
      </trkpt>
      <trkpt lat="47.51782" lon="6.77527">
        <ele>436.174</ele>
        <time>2018-01-07T12:07:03Z</time>
      </trkpt>
      <trkpt lat="47.51783" lon="6.77532">
        <ele>437.379</ele>
        <time>2018-01-07T12:07:06Z</time>
      </trkpt>
    </trkseg>
  </trk>
</gpx>